Provisional Data: Young Woman's Creek near North Bend, PA


Please select a monitoring station.
Please select start date.
Please select start date.

Toggle Unit: C/F Toggle Unit: C/F
Sample Time Temperature (C) Temperature (F) Specific Conductivity (mS/cm) pH   Turbidity (NTU+) DO (mg/L)
6/29/2021 12:00:00 AM 20.46 68.828 0.042 6.69 2.27 8.21
6/29/2021 12:15:00 AM 20.41 68.738 0.042 6.86 1.45 8.21
6/29/2021 12:30:00 AM 20.38 68.684 0.043 6.84 1.22 8.22
6/29/2021 12:45:00 AM 20.33 68.594 0.04 6.85 1.08 8.24
6/29/2021 1:00:00 AM 20.29 68.522 0.042 6.95 2.19 8.24
6/29/2021 1:15:00 AM 20.25 68.45 0.042 6.92 1.16 8.25
6/29/2021 1:30:00 AM 20.21 68.378 0.042 6.83 1.03 8.26
6/29/2021 1:45:00 AM 20.18 68.324 0.042 6.78 1.05 8.28
6/29/2021 2:00:00 AM 20.13 68.234 0.042 6.77 1.28 8.28
6/29/2021 2:15:00 AM 20.09 68.162 0.043 6.75 1.87 8.28
6/29/2021 2:30:00 AM 20.05 68.09 0.043 6.76 1.36 8.29
6/29/2021 2:45:00 AM 20.02 68.036 0.042 6.88 1.54 8.3
6/29/2021 3:00:00 AM 19.97 67.946 0.042 6.63 2.53 8.31
6/29/2021 3:15:00 AM 19.94 67.892 0.042 6.95 1.13 8.32
6/29/2021 3:30:00 AM 19.9 67.82 0.043 6.97 2.14 8.32
6/29/2021 3:45:00 AM 19.86 67.748 0.042 6.81 1.76 8.34
6/29/2021 4:00:00 AM 19.81 67.658 0.044 6.82 1.4 8.34
6/29/2021 4:15:00 AM 19.77 67.586 0.04 6.85 1.21 8.35
6/29/2021 4:30:00 AM 19.74 67.532 0.043 6.87 1.52 8.35
6/29/2021 4:45:00 AM 19.69 67.442 0.042 6.86 1.47 8.37
6/29/2021 5:00:00 AM 19.64 67.352 0.042 6.85 1.39 8.37
6/29/2021 5:15:00 AM 19.61 67.298 0.043 6.78 1.18 8.37
6/29/2021 5:30:00 AM 19.55 67.19 0.042 6.8 2 8.39
6/29/2021 5:45:00 AM 19.51 67.118 0.039 6.86 1.43 8.4
6/29/2021 6:00:00 AM 19.47 67.046 0.042 6.62 2.87 8.42
6/29/2021 6:15:00 AM 19.42 66.956 0.042 6.9 1.9 8.44
6/29/2021 6:30:00 AM 19.37 66.866 0.042 6.87 1.61 8.47
6/29/2021 6:45:00 AM 19.34 66.812 0.041 6.87 1.36 8.48
6/29/2021 7:00:00 AM 19.3 66.74 0.042 6.91 1.12 8.5
6/29/2021 7:15:00 AM 19.26 66.668 0.042 6.93 1.31 8.51
6/29/2021 7:30:00 AM 19.23 66.614 0.042 6.91 1.23 8.52
6/29/2021 7:45:00 AM 19.19 66.542 0.042 6.93 1.09 8.53
6/29/2021 8:00:00 AM 19.16 66.488 0.043 6.99 1.25 8.54
6/29/2021 8:15:00 AM 19.13 66.434 0.042 6.92 1.56 8.56
6/29/2021 8:30:00 AM 19.11 66.398 0.042 6.91 1.12 8.57
6/29/2021 8:45:00 AM 19.09 66.362 0.042 6.84 1.09 8.58
6/29/2021 9:00:00 AM 19.09 66.362 0.043 6.99 1.43 8.59
6/29/2021 9:15:00 AM 19.09 66.362 0.042 6.91 1.57 8.61
6/29/2021 9:30:00 AM 19.1 66.38 0.042 6.87 1.34 8.62
6/29/2021 9:45:00 AM 19.13 66.434 0.042 6.95 1.41 8.62
6/29/2021 10:00:00 AM 19.18 66.524 0.042 6.99 2.8 8.64
6/29/2021 10:15:00 AM 19.23 66.614 0.042 6.94 1.71 8.64
6/29/2021 10:30:00 AM 19.31 66.758 0.042 7 1.12 8.65
6/29/2021 10:45:00 AM 19.39 66.902 0.042 6.89 1.45 8.66
6/29/2021 11:00:00 AM 19.5 67.1 0.041 7.03 1.42 8.67
6/29/2021 11:15:00 AM 19.62 67.316 0.042 7.1 1.69 8.67
6/29/2021 11:30:00 AM 19.73 67.514 0.042 6.98 1.31 8.65
6/29/2021 11:45:00 AM 19.9 67.82 0.043 7.01 1.26 8.65
6/29/2021 12:00:00 PM 20.07 68.126 0.042 7.15 1.39 8.64
6/29/2021 12:15:00 PM 20.29 68.522 0.043 7.09 1.69 8.64
6/29/2021 12:30:00 PM 20.52 68.936 0.042 7.13 1.07 8.62
6/29/2021 12:45:00 PM 20.76 69.368 0.042 7.06 1.32 8.6
6/29/2021 1:00:00 PM 21.01 69.818 0.041 7.21 1.6 8.58
6/29/2021 1:15:00 PM 21.26 70.268 0.041 7.07 1.4 8.57
6/29/2021 1:30:00 PM 21.44 70.592 0.041 7.09 1.75 8.52
6/29/2021 1:45:00 PM 21.61 70.898 0.041 7.06 1.93 8.47
6/29/2021 2:00:00 PM 21.94 71.492 0.041 7.22 1.83 8.47
6/29/2021 2:15:00 PM 22.25 72.05 0.041 7.23 1.84 8.43
6/29/2021 2:30:00 PM 22.53 72.554 0.041 7.12 1.57 8.39
6/29/2021 2:45:00 PM 22.7 72.86 0.042 7.26 2.07 8.35
6/29/2021 3:00:00 PM 22.87 73.166 0.041 7.04 1.23 8.32
6/29/2021 3:15:00 PM 22.95 73.31 0.041 7.22 1.49 8.26
6/29/2021 3:30:00 PM 23.03 73.454 0.042 7.12 1.75 8.24
6/29/2021 3:45:00 PM 23.07 73.526 0.041 7.16 1.05 8.22
6/29/2021 4:00:00 PM 23.08 73.544 0.041 7.25 1.79 8.19
6/29/2021 4:15:00 PM 23.07 73.526 0.041 7.11 1 8.16
6/29/2021 4:30:00 PM 23.04 73.472 0.041 7.12 1.48 8.13
6/29/2021 4:45:00 PM 23.04 73.472 0.043 7.05 1.17 8.12
6/29/2021 5:00:00 PM 23.02 73.436 0.041 7.11 1.46 8.1
6/29/2021 5:15:00 PM 22.99 73.382 0.041 7.03 1.34 8.07
6/29/2021 5:30:00 PM 22.96 73.328 0.041 7.05 2.06 8.05
6/29/2021 5:45:00 PM 22.93 73.274 0.042 7.08 1.05 8.01
6/29/2021 6:00:00 PM 22.91 73.238 0.041 7.06 1.18 7.99
6/29/2021 6:15:00 PM 22.88 73.184 0.039 7.04 1.21 7.95
6/29/2021 6:30:00 PM 22.83 73.094 0.041 7.12 2.52 7.94
6/29/2021 6:45:00 PM 22.77 72.986 0.042 6.96 1.25 7.93
6/29/2021 7:00:00 PM 22.72 72.896 0.042 7.06 1.26 7.94
6/29/2021 7:15:00 PM 22.68 72.824 0.042 6.94 1.99 7.94
6/29/2021 7:30:00 PM 22.62 72.716 0.042 6.9 1.25 7.92
6/29/2021 7:45:00 PM 22.56 72.608 0.042 6.9 2.14 7.92
6/29/2021 8:00:00 PM 22.5 72.5 0.042 6.95 1.13 7.9
6/29/2021 8:15:00 PM 22.43 72.374 0.043 6.91 1.41 7.9
6/29/2021 8:30:00 PM 22.36 72.248 0.042 6.84 1.53 7.9
6/29/2021 8:45:00 PM 22.27 72.086 0.042 6.86 1.55 7.89
6/29/2021 9:00:00 PM 22.19 71.942 0.042 6.97 1.88 7.9
6/29/2021 9:15:00 PM 22.1 71.78 0.042 6.78 3.59 7.89
6/29/2021 9:30:00 PM 22.02 71.636 0.043 6.82 1.73 7.9
6/29/2021 9:45:00 PM 21.94 71.492 0.042 6.92 1.62 7.92
6/29/2021 10:00:00 PM 21.85 71.33 0.042 6.82 1.28 7.93
6/29/2021 10:15:00 PM 21.77 71.186 0.042 6.83 2.06 7.95
6/29/2021 10:30:00 PM 21.7 71.06 0.042 6.83 1.71 7.96
6/29/2021 10:45:00 PM 21.62 70.916 0.043 6.8 2.22 7.98
6/29/2021 11:00:00 PM 21.57 70.826 0.043 6.75 1.32 7.97
6/29/2021 11:15:00 PM 21.53 70.754 0.043 6.88 1.34 7.98
6/29/2021 11:30:00 PM 21.49 70.682 0.043 6.87 0.98 8
6/29/2021 11:45:00 PM 21.45 70.61 0.043 6.84 1.55 8.01
6/30/2021 12:00:00 AM 21.39 70.502 0.043 6.79 1.01 8.01
6/30/2021 12:15:00 AM 21.34 70.412 0.043 6.81 1.5 8.03
6/30/2021 12:30:00 AM 21.28 70.304 0.042 6.81 2.03 8.03
6/30/2021 12:45:00 AM 21.23 70.214 0.043 6.94 1.57 8.05
6/30/2021 1:00:00 AM 21.19 70.142 0.044 6.76 1.58 8.06
6/30/2021 1:15:00 AM 21.13 70.034 0.043 6.83 1.12 8.06
6/30/2021 1:30:00 AM 21.1 69.98 0.043 6.85 1.35 8.07
6/30/2021 1:45:00 AM 21.03 69.854 0.043 6.81 1.87 8.09
6/30/2021 2:00:00 AM 20.98 69.764 0.044 6.96 1.5 8.08
6/30/2021 2:15:00 AM 20.93 69.674 0.043 6.99 2.3 8.09
6/30/2021 2:30:00 AM 20.88 69.584 0.039 6.82 1.3 8.12
6/30/2021 2:45:00 AM 20.83 69.494 0.043 6.87 4.77 8.12
6/30/2021 3:00:00 AM 20.77 69.386 0.043 6.81 1.27 8.12
6/30/2021 3:15:00 AM 20.72 69.296 0.041 6.98 1.26 8.14
6/30/2021 3:30:00 AM 20.66 69.188 0.044 6.97 1.36 8.14
6/30/2021 3:45:00 AM 20.61 69.098 0.043 6.86 1.73 8.15
6/30/2021 4:00:00 AM 20.56 69.008 0.044 6.93 1.43 8.16
6/30/2021 4:15:00 AM 20.51 68.918 0.043 6.68 1.27 8.17
6/30/2021 4:30:00 AM 20.46 68.828 0.043 6.89 1.25 8.18
6/30/2021 4:45:00 AM 20.4 68.72 0.043 6.9 1.54 8.19
6/30/2021 5:00:00 AM 20.35 68.63 0.043 6.99 1.3 8.2
6/30/2021 5:15:00 AM 20.3 68.54 0.043 6.94 1.69 8.21
6/30/2021 5:30:00 AM 20.25 68.45 0.043 6.84 1.79 8.22
6/30/2021 5:45:00 AM 20.2 68.36 0.042 6.8 1.47 8.23
6/30/2021 6:00:00 AM 20.15 68.27 0.043 6.85 1.74 8.25
6/30/2021 6:15:00 AM 20.11 68.198 0.043 6.99 1.46 8.25
6/30/2021 6:30:00 AM 20.07 68.126 0.044 6.9 1.67 8.28
6/30/2021 6:45:00 AM 20.03 68.054 0.043 6.98 1.46 8.3
6/30/2021 7:00:00 AM 20.01 68.018 0.04 6.89 1.28 8.32
6/30/2021 7:15:00 AM 19.97 67.946 0.043 6.71 1.45 8.35
6/30/2021 7:30:00 AM 19.94 67.892 0.042 6.88 1.1 8.37
6/30/2021 7:45:00 AM 19.92 67.856 0.042 6.83 1.3 8.4
6/30/2021 8:00:00 AM 19.88 67.784 0.042 6.91 3.83 8.38
6/30/2021 8:15:00 AM 19.85 67.73 0.042 6.88 1.16 8.39
6/30/2021 8:30:00 AM 19.83 67.694 0.042 7.01 2.01 8.4
6/30/2021 8:45:00 AM 19.81 67.658 0.043 6.9 1.47 8.4
6/30/2021 9:00:00 AM 19.8 67.64 0.042 6.9 1.88 8.42
6/30/2021 9:15:00 AM 19.81 67.658 0.042 6.93 2.76 8.43
6/30/2021 9:30:00 AM 19.81 67.658 0.042 6.72 1.37 8.43
6/30/2021 9:45:00 AM 19.83 67.694 0.042 6.87 1.79 8.44
6/30/2021 10:00:00 AM 19.88 67.784 0.042 7.06 1.35 8.45
6/30/2021 10:15:00 AM 19.9 67.82 0.043 6.97 1.55 8.45
6/30/2021 10:30:00 AM 19.97 67.946 0.043 6.97 1.79 8.46
6/30/2021 10:45:00 AM 20.03 68.054 0.042 7.09 1.61 8.47
6/30/2021 11:00:00 AM 20.12 68.216 0.043 7 1.78 8.47
6/30/2021 11:15:00 AM 20.21 68.378 0.042 7 1.48 8.46
6/30/2021 11:30:00 AM 20.34 68.612 0.042 7.09 1.26 8.47
6/30/2021 11:45:00 AM 20.48 68.864 0.042 6.97 1.14 8.48
6/30/2021 12:00:00 PM 20.67 69.206 0.042 7 1.81 8.5
6/30/2021 12:15:00 PM 20.86 69.548 0.042 6.88 1.99 8.51
6/30/2021 12:30:00 PM 21.07 69.926 0.042 7.01 1.71 8.5
6/30/2021 12:45:00 PM 21.13 70.034 0.042 7 1.75 8.45
6/30/2021 1:00:00 PM 21.16 70.088 0.042 7 1.53 8.42
6/30/2021 1:15:00 PM 21.38 70.484 0.041 7.1 1.58 8.45
6/30/2021 1:30:00 PM 21.52 70.736 0.041 7.04 1.53 8.4
6/30/2021 1:45:00 PM 21.75 71.15 0.041 7.06 1.88 8.39
6/30/2021 2:00:00 PM 22.05 71.69 0.042 7.12 1.81 8.35
6/30/2021 2:15:00 PM 22.24 72.032 0.041 7.15 1.73 8.33
6/30/2021 2:30:00 PM 22.28 72.104 0.041 7.04 2.1 8.24
6/30/2021 2:45:00 PM 22.37 72.266 0.041 7.03 1.77 8.26
6/30/2021 3:00:00 PM 22.35 72.23 0.041 6.97 2.53 8.18
6/30/2021 3:15:00 PM 22.46 72.42799 0.041 7.03 1.5 8.23
6/30/2021 3:30:00 PM 22.45 72.41 0.041 7.13 1.21 8.2
6/30/2021 3:45:00 PM 22.54 72.57201 0.041 7.13 1.35 8.24
6/30/2021 4:00:00 PM 22.55 72.59 0.041 7.08 1.45 8.21
6/30/2021 4:15:00 PM 22.54 72.57201 0.042 7.05 1.18 8.18
6/30/2021 4:30:00 PM 22.53 72.554 0.041 7.08 1.4 8.14
6/30/2021 4:45:00 PM 22.5 72.5 0.038 6.98 0.81 8.06
6/30/2021 5:00:00 PM 22.44 72.392 0.042 7 1.28 7.99
6/30/2021 5:15:00 PM 22.37 72.266 0.042 6.99 1.39 7.93
6/30/2021 5:30:00 PM 22.32 72.176 0.042 6.99 1.57 7.9
6/30/2021 5:45:00 PM 22.25 72.05 0.043 6.92 1.95 7.9
6/30/2021 6:00:00 PM 22.17 71.906 0.042 6.93 2.62 7.82
6/30/2021 6:15:00 PM 22.13 71.834 0.041 6.89 1.72 7.79
6/30/2021 6:30:00 PM 22.06 71.708 0.041 6.81 1.95 7.77
6/30/2021 6:45:00 PM 22.01 71.618 0.042 6.88 2.38 7.82
6/30/2021 7:00:00 PM 21.94 71.492 0.042 6.89 1.83 7.86
6/30/2021 7:15:00 PM 21.88 71.384 0.042 6.85 2.02 7.87
6/30/2021 7:30:00 PM 21.81 71.258 0.043 6.93 1.79 7.88
6/30/2021 7:45:00 PM 21.72 71.096 0.042 6.89 1.7 7.91
6/30/2021 8:00:00 PM 21.63 70.934 0.041 6.93 2.63 7.92
6/30/2021 8:15:00 PM 21.53 70.754 0.042 6.88 2.26 7.93
6/30/2021 8:30:00 PM 21.45 70.61 0.042 6.92 1.9 7.93
6/30/2021 8:45:00 PM 21.36 70.448 0.042 6.83 2.1 7.94
6/30/2021 9:00:00 PM 21.25 70.25 0.042 6.89 1.85 7.96
6/30/2021 9:15:00 PM 21.18 70.124 0.041 6.87 2.02 7.97
6/30/2021 9:30:00 PM 21.1 69.98 0.042 6.86 3.07 7.98
6/30/2021 9:45:00 PM 21.03 69.854 0.042 6.82 1.76 7.99
6/30/2021 10:00:00 PM 20.97 69.746 0.042 6.9 1.97 8
6/30/2021 10:15:00 PM 20.91 69.638 0.042 6.88 1.86 8
6/30/2021 10:30:00 PM 20.85 69.53 0.042 6.88 2.23 8.03
6/30/2021 10:45:00 PM 20.79 69.422 0.042 6.86 2.05 8.04
6/30/2021 11:00:00 PM 20.74 69.332 0.042 6.9 2.04 8.06
6/30/2021 11:15:00 PM 20.69 69.242 0.042 6.94 2.13 8.07
6/30/2021 11:30:00 PM 20.64 69.152 0.042 6.87 6.53 8.09
6/30/2021 11:45:00 PM 20.59 69.062 0.042 6.88 2.92 8.11
7/1/2021 12:00:00 AM 20.55 68.99 0.042 6.83 3.07 8.13
7/1/2021 12:15:00 AM 20.5 68.9 0.042 6.84 4.86 8.16
7/1/2021 12:30:00 AM 20.46 68.828 0.042 6.82 4.82 8.18
7/1/2021 12:45:00 AM 20.42 68.756 0.042 6.89 8.03 8.19
7/1/2021 1:00:00 AM 20.37 68.666 0.042 6.89 5.74 8.2
7/1/2021 1:15:00 AM 20.32 68.576 0.041 6.89 5.25 8.24
7/1/2021 1:30:00 AM 20.27 68.486 0.042 6.82 4.52 8.25
7/1/2021 1:45:00 AM 20.22 68.396 0.042 6.87 3.17 8.25
7/1/2021 2:00:00 AM 20.16 68.288 0.041 6.87 5.47 8.29
7/1/2021 2:15:00 AM 20.11 68.198 0.041 6.83 3.14 8.28
7/1/2021 2:30:00 AM 20.06 68.108 0.043 6.81 4.87 8.29
7/1/2021 2:45:00 AM 20.01 68.018 0.041 6.89 3.24 8.3
7/1/2021 3:00:00 AM 19.95 67.91 0.041 6.92 2.96 8.31
7/1/2021 3:15:00 AM 19.9 67.82 0.041 6.87 4.05 8.31
7/1/2021 3:30:00 AM 19.85 67.73 0.041 6.87 2.73 8.31
7/1/2021 3:45:00 AM 19.79 67.622 0.041 6.75 3.83 8.32
7/1/2021 4:00:00 AM 19.73 67.514 0.042 6.87 2.71 8.33
7/1/2021 4:15:00 AM 19.67 67.406 0.041 6.82 2.4 8.33
7/1/2021 4:30:00 AM 19.63 67.334 0.041 6.77 3.12 8.34
7/1/2021 4:45:00 AM 19.56 67.208 0.041 6.78 2.94 8.33
7/1/2021 5:00:00 AM 19.49 67.082 0.04 6.83 2.56 8.35
7/1/2021 5:15:00 AM 19.43 66.974 0.04 6.81 3.84 8.35
7/1/2021 5:30:00 AM 19.36 66.848 0.04 6.81 4.1 8.36
7/1/2021 5:45:00 AM 19.29 66.722 0.04 6.79 3.78 8.36
7/1/2021 6:00:00 AM 19.25 66.65 0.04 6.68 3.34 8.38
7/1/2021 6:15:00 AM 19.18 66.524 0.04 6.84 3.04 8.4
7/1/2021 6:30:00 AM 19.13 66.434 0.04 6.83 2.8 8.41
7/1/2021 6:45:00 AM 19.08 66.344 0.04 6.86 2.63 8.44
7/1/2021 7:00:00 AM 19.02 66.236 0.04 6.81 8.01 8.43
7/1/2021 7:15:00 AM 18.97 66.146 0.04 6.87 5.41 8.47
7/1/2021 7:30:00 AM 18.92 66.056 0.04 6.89 2.97 8.49
7/1/2021 7:45:00 AM 18.87 65.966 0.041 6.77 4.67 8.49
7/1/2021 8:00:00 AM 18.83 65.894 0.04 6.78 3.45 8.52
7/1/2021 8:15:00 AM 18.79 65.82201 0.038 6.79 2.1 8.54
7/1/2021 8:30:00 AM 18.75 65.75 0.04 6.82 2.26 8.56
7/1/2021 8:45:00 AM 18.72 65.696 0.04 6.87 2.85 8.58
7/1/2021 9:00:00 AM 18.69 65.642 0.041 6.79 2.21 8.56
7/1/2021 9:15:00 AM 18.64 65.552 0.04 6.89 2.77 8.59
7/1/2021 9:30:00 AM 18.62 65.516 0.04 6.86 3.6 8.59
7/1/2021 9:45:00 AM 18.61 65.498 0.04 6.77 2.52 8.65
7/1/2021 10:00:00 AM 18.6 65.48 0.041 6.79 4.31 8.67
7/1/2021 10:15:00 AM 18.57 65.426 0.04 6.78 2.34 8.68
7/1/2021 10:30:00 AM 18.57 65.426 0.038 6.88 2.02 8.71
7/1/2021 10:45:00 AM 18.55 65.39 0.04 6.88 2.39 8.7
7/1/2021 11:00:00 AM 18.55 65.39 0.039 6.87 2.91 8.73
7/1/2021 11:15:00 AM 18.54 65.372 0.039 6.87 2.58 8.73
7/1/2021 11:30:00 AM 18.55 65.39 0.04 6.79 2.08 8.74
7/1/2021 11:45:00 AM 18.55 65.39 0.039 6.91 2.21 8.79
7/1/2021 12:00:00 PM 18.53 65.354 0.039 6.9 5.45 8.74
7/1/2021 12:15:00 PM 18.51 65.318 0.039 6.9 2.88 8.73
7/1/2021 12:30:00 PM 18.51 65.318 0.039 6.9 2.37 8.75
7/1/2021 12:45:00 PM 18.53 65.354 0.04 7.05 1.78 8.77
7/1/2021 1:00:00 PM 18.53 65.354 0.039 7.02 2.28 8.8
7/1/2021 1:15:00 PM 18.55 65.39 0.039 6.99 2.07 8.81
7/1/2021 1:30:00 PM 18.55 65.39 0.039 6.98 2.74 8.79
7/1/2021 1:45:00 PM 18.55 65.39 0.039 7 2.44 8.8
7/1/2021 2:00:00 PM 18.56 65.408 0.039 6.96 2.11 8.8
7/1/2021 2:15:00 PM 18.57 65.426 0.039 7.03 2.23 8.79
7/1/2021 2:30:00 PM 18.56 65.408 0.039 6.97 2.72 8.77
7/1/2021 2:45:00 PM 18.57 65.426 0.04 6.85 1.89 8.79
7/1/2021 3:00:00 PM 18.65 65.57 0.039 6.99 2.28 8.86
7/1/2021 3:15:00 PM 18.75 65.75 0.039 7.05 2.26 8.88
7/1/2021 3:30:00 PM 18.78 65.804 0.039 7.05 4.82 8.87
7/1/2021 3:45:00 PM 18.78 65.804 0.039 7.02 3.71 8.83
7/1/2021 4:00:00 PM 18.76 65.768 0.039 7.08 1.99 8.79
7/1/2021 4:15:00 PM 18.74 65.732 0.039 6.95 2.46 8.77
7/1/2021 4:30:00 PM 18.74 65.732 0.04 6.9 2.31 8.75
7/1/2021 4:45:00 PM 18.74 65.732 0.041 7.01 2.12 8.74
7/1/2021 5:00:00 PM 18.75 65.75 0.04 7.06 1.79 8.73
7/1/2021 5:15:00 PM 18.74 65.732 0.04 7.01 2.19 8.72
7/1/2021 5:30:00 PM 18.72 65.696 0.039 7.04 1.84 8.69
7/1/2021 5:45:00 PM 18.7 65.66 0.039 7 2.41 8.67
7/1/2021 6:00:00 PM 18.68 65.624 0.039 6.97 1.99 8.66
7/1/2021 6:15:00 PM 18.66 65.588 0.04 6.92 3.36 8.65
7/1/2021 6:30:00 PM 18.64 65.552 0.04 6.99 2.96 8.64
7/1/2021 6:45:00 PM 18.63 65.534 0.039 6.96 3.04 8.66
7/1/2021 7:00:00 PM 18.61 65.498 0.039 6.93 2.4 8.65
7/1/2021 7:15:00 PM 18.58 65.444 0.041 6.8 2.38 8.63
7/1/2021 7:30:00 PM 18.56 65.408 0.04 6.86 2.11 8.61
7/1/2021 7:45:00 PM 18.53 65.354 0.04 6.87 4.69 8.6
7/1/2021 8:00:00 PM 18.5 65.3 0.04 6.85 1.9 8.6
7/1/2021 8:15:00 PM 18.48 65.264 0.04 6.83 1.85 8.6
7/1/2021 8:30:00 PM 18.45 65.21 0.041 6.85 1.48 8.6
7/1/2021 8:45:00 PM 18.43 65.174 0.04 6.82 1.9 8.6
7/1/2021 9:00:00 PM 18.41 65.138 0.04 6.78 1.36 8.59
7/1/2021 9:15:00 PM 18.38 65.084 0.04 6.88 1.78 8.6
7/1/2021 9:30:00 PM 18.36 65.048 0.04 6.89 2.73 8.61
7/1/2021 9:45:00 PM 18.33 64.994 0.04 6.85 2.06 8.62
7/1/2021 10:00:00 PM 18.3 64.94 0.04 6.89 2.88 8.62
7/1/2021 10:15:00 PM 18.27 64.886 0.04 6.84 2.31 8.63
7/1/2021 10:30:00 PM 18.25 64.85 0.04 6.88 1.99 8.63
7/1/2021 10:45:00 PM 18.22 64.796 0.04 6.92 2.49 8.63
7/1/2021 11:00:00 PM 18.19 64.742 0.04 6.91 1.63 8.64
7/1/2021 11:15:00 PM 18.17 64.706 0.04 6.84 1.89 8.64
7/1/2021 11:30:00 PM 18.14 64.652 0.04 6.86 1.63 8.65
7/1/2021 11:45:00 PM 18.12 64.616 0.04 6.89 1.67 8.65
7/2/2021 12:00:00 AM 18.09 64.562 0.041 6.87 1.4 8.67
7/2/2021 12:15:00 AM 18.06 64.508 0.04 6.84 1.24 8.67
7/2/2021 12:30:00 AM 18.03 64.454 0.041 6.94 1.54 8.69
7/2/2021 12:45:00 AM 18 64.4 0.04 6.92 1.67 8.68
7/2/2021 1:00:00 AM 17.97 64.346 0.04 6.9 1.84 8.68
7/2/2021 1:15:00 AM 17.94 64.292 0.04 6.89 1.58 8.69
7/2/2021 1:30:00 AM 17.92 64.256 0.041 6.89 1.53 8.7
7/2/2021 1:45:00 AM 17.88 64.184 0.041 6.85 1.44 8.7
7/2/2021 2:00:00 AM 17.85 64.13 0.041 6.88 1.41 8.7
7/2/2021 2:15:00 AM 17.82 64.076 0.041 6.92 1.86 8.71
7/2/2021 2:30:00 AM 17.8 64.04 0.041 6.83 1.32 8.71
7/2/2021 2:45:00 AM 17.77 63.986 0.041 6.83 1.94 8.72
7/2/2021 3:00:00 AM 17.73 63.914 0.041 6.89 1.17 8.71
7/2/2021 3:15:00 AM 17.69 63.842 0.041 6.9 1.67 8.73
7/2/2021 3:30:00 AM 17.65 63.77 0.041 6.93 2.38 8.73
7/2/2021 3:45:00 AM 17.61 63.698 0.041 6.87 2.22 8.74
7/2/2021 4:00:00 AM 17.56 63.608 0.041 6.94 1.85 8.76
7/2/2021 4:15:00 AM 17.52 63.536 0.041 6.94 1.83 8.77
7/2/2021 4:30:00 AM 17.48 63.464 0.04 6.96 1.3 8.77
7/2/2021 4:45:00 AM 17.42 63.356 0.041 6.88 1.35 8.78
7/2/2021 5:00:00 AM 17.37 63.266 0.041 6.97 2.12 8.79
7/2/2021 5:15:00 AM 17.32 63.176 0.041 6.85 1.5 8.8
7/2/2021 5:30:00 AM 17.28 63.104 0.041 6.96 2.52 8.81
7/2/2021 5:45:00 AM 17.23 63.014 0.041 6.9 1.5 8.82
7/2/2021 6:00:00 AM 17.19 62.942 0.041 6.94 2.29 8.83
7/2/2021 6:15:00 AM 17.15 62.87 0.041 6.87 1.39 8.85
7/2/2021 6:30:00 AM 17.12 62.816 0.041 6.89 1.68 8.86
7/2/2021 6:45:00 AM 17.09 62.762 0.042 6.94 2.02 8.87
7/2/2021 7:00:00 AM 17.07 62.726 0.041 6.88 1.44 8.89
7/2/2021 7:15:00 AM 17.04 62.672 0.041 6.9 1.53 8.9
7/2/2021 7:30:00 AM 17.01 62.618 0.041 6.94 1.44 8.91
7/2/2021 7:45:00 AM 16.99 62.582 0.042 6.99 1.48 8.92
7/2/2021 8:00:00 AM 16.97 62.546 0.042 6.94 1.57 8.95
7/2/2021 8:15:00 AM 16.95 62.51 0.041 6.9 2.18 8.97
7/2/2021 8:30:00 AM 16.96 62.528 0.041 6.95 1.51 9
7/2/2021 8:45:00 AM 16.96 62.528 0.041 6.95 1.61 9.02
7/2/2021 9:00:00 AM 16.95 62.51 0.041 6.93 1.55 9.03
7/2/2021 9:15:00 AM 16.95 62.51 0.042 7.03 1.3 9.02
7/2/2021 9:30:00 AM 16.93 62.474 0.041 6.93 1.33 9.02
7/2/2021 9:45:00 AM 16.93 62.474 0.041 6.95 1.75 9.04
7/2/2021 10:00:00 AM 16.94 62.492 0.041 6.96 1.38 9.07
7/2/2021 10:15:00 AM 16.97 62.546 0.041 6.98 2.85 9.1
7/2/2021 10:30:00 AM 16.98 62.564 0.041 6.96 1.97 9.09
7/2/2021 10:45:00 AM 16.99 62.582 0.041 6.9 1.54 9.08
7/2/2021 11:00:00 AM 17.05 62.69 0.04 7.01 1.22 9.13
7/2/2021 11:15:00 AM 17.13 62.834 0.04 7.05 1.62 9.15
7/2/2021 11:30:00 AM 17.14 62.852 0.041 7.05 1.47 9.08
7/2/2021 11:45:00 AM 17.19 62.942 0.04 7.08 1.07 9.11
7/2/2021 12:00:00 PM 17.21 62.978 0.041 7.04 1.34 9.09
7/2/2021 12:15:00 PM 17.41 63.338 0.04 7.1 1.02 9.1
7/2/2021 12:30:00 PM 17.57 63.626 0.042 7.03 1.32 9.11
7/2/2021 12:45:00 PM 17.76 63.968 0.04 7.04 1.52 9.09
7/2/2021 1:00:00 PM 17.89 64.202 0.04 7.05 1.38 9.05
7/2/2021 1:15:00 PM 18.02 64.436 0.041 7.09 1.54 9.05
7/2/2021 1:30:00 PM 18.29 64.922 0.041 7.07 1.34 9.03
7/2/2021 1:45:00 PM 18.4 65.12 0.04 7.06 1.66 8.93
7/2/2021 2:00:00 PM 18.36 65.048 0.041 7.03 1.34 8.85
7/2/2021 2:15:00 PM 18.33 64.994 0.04 7.04 1.21 8.9
7/2/2021 2:30:00 PM 18.45 65.21 0.04 6.95 2.02 8.94
7/2/2021 2:45:00 PM 18.57 65.426 0.04 7.12 1.47 8.95
7/2/2021 3:00:00 PM 18.56 65.408 0.04 7.08 1.4 8.92
7/2/2021 3:15:00 PM 18.63 65.534 0.04 7.12 2.18 8.92
7/2/2021 3:30:00 PM 18.69 65.642 0.04 7.08 1.46 8.89
7/2/2021 3:45:00 PM 18.72 65.696 0.041 7.15 1.62 8.88
7/2/2021 4:00:00 PM 18.87 65.966 0.04 7.09 1.98 8.88
7/2/2021 4:15:00 PM 18.9 66.02 0.041 7.15 1.4 8.84
7/2/2021 4:30:00 PM 18.89 66.002 0.042 7.13 1.53 8.79
7/2/2021 4:45:00 PM 18.9 66.02 0.04 7.08 2.88 8.77
7/2/2021 5:00:00 PM 18.88 65.984 0.041 7.05 1.52 8.76
7/2/2021 5:15:00 PM 18.92 66.056 0.04 7.13 1.59 8.78
7/2/2021 5:30:00 PM 18.83 65.894 0.041 7.02 1.38 8.72
7/2/2021 5:45:00 PM 18.82 65.876 0.04 7.05 1.21 8.73
7/2/2021 6:00:00 PM 18.8 65.84 0.04 6.97 1.12 8.74
7/2/2021 6:15:00 PM 18.78 65.804 0.042 7.04 1.2 8.73
7/2/2021 6:30:00 PM 18.71 65.67799 0.04 7.03 1.38 8.69
7/2/2021 6:45:00 PM 18.65 65.57 0.04 7 1.1 8.68
7/2/2021 7:00:00 PM 18.58 65.444 0.042 6.97 1.43 8.65
7/2/2021 7:15:00 PM 18.51 65.318 0.041 6.99 1.13 8.64
7/2/2021 7:30:00 PM 18.42 65.156 0.041 6.97 1.31 8.64
7/2/2021 7:45:00 PM 18.34 65.012 0.042 7 1.49 8.65
7/2/2021 8:00:00 PM 18.27 64.886 0.041 7.05 1.26 8.67
7/2/2021 8:15:00 PM 18.19 64.742 0.041 6.92 1.23 8.67
7/2/2021 8:30:00 PM 18.12 64.616 0.041 6.97 1.88 8.69
7/2/2021 8:45:00 PM 18.04 64.472 0.04 6.93 1.7 8.69
7/2/2021 9:00:00 PM 17.95 64.31 0.042 6.95 1.27 8.68
7/2/2021 9:15:00 PM 17.87 64.166 0.041 6.81 1.5 8.69
7/2/2021 9:30:00 PM 17.79 64.022 0.041 6.91 1.29 8.7
7/2/2021 9:45:00 PM 17.71 63.878 0.042 6.91 1.23 8.7
7/2/2021 10:00:00 PM 17.63 63.734 0.041 6.95 1.75 8.72
7/2/2021 10:15:00 PM 17.55 63.59 0.042 6.76 1.67 8.75
7/2/2021 10:30:00 PM 17.47 63.446 0.042 6.9 1.42 8.76
7/2/2021 10:45:00 PM 17.39 63.302 0.041 6.96 1.36 8.77
7/2/2021 11:00:00 PM 17.31 63.158 0.041 6.89 1.37 8.79
7/2/2021 11:15:00 PM 17.23 63.014 0.042 6.89 1.37 8.8
7/2/2021 11:30:00 PM 17.16 62.888 0.041 6.89 1.28 8.81
7/2/2021 11:45:00 PM 17.07 62.726 0.042 6.93 1.45 8.83
7/3/2021 12:00:00 AM 17.01 62.618 0.041 6.93 2.26 8.84
7/3/2021 12:15:00 AM 16.94 62.492 0.042 6.9 1.18 8.85
7/3/2021 12:30:00 AM 16.87 62.366 0.041 6.9 1.35 8.88
7/3/2021 12:45:00 AM 16.82 62.276 0.041 6.93 1.17 8.88
7/3/2021 1:00:00 AM 16.77 62.186 0.042 6.94 1.3 8.9
7/3/2021 1:15:00 AM 16.71 62.078 0.034 6.82 0.6 8.91
7/3/2021 1:30:00 AM 16.65 61.97 0.041 6.73 1.25 8.93
7/3/2021 1:45:00 AM 16.59 61.862 0.041 6.94 1.96 8.95
7/3/2021 2:00:00 AM 16.53 61.754 0.041 6.88 1.62 8.96
7/3/2021 2:15:00 AM 16.46 61.628 0.041 6.9 1.39 8.98
7/3/2021 2:30:00 AM 16.4 61.52 0.041 6.92 1.86 8.99
7/3/2021 2:45:00 AM 16.34 61.412 0.034 6.92 0.93 9.01
7/3/2021 3:00:00 AM 16.28 61.304 0.041 6.88 2.31 9.02
7/3/2021 3:15:00 AM 16.23 61.214 0.037 6.78 0.87 9.04
7/3/2021 3:30:00 AM 16.18 61.124 0.042 6.86 1.39 9.05
7/3/2021 3:45:00 AM 16.12 61.016 0.042 6.87 1.33 9.07
7/3/2021 4:00:00 AM 16.07 60.926 0.043 6.91 1.3 9.08
7/3/2021 4:15:00 AM 16.02 60.836 0.041 6.81 0.99 9.1
7/3/2021 4:30:00 AM 15.97 60.746 0.041 6.9 1.35 9.11
7/3/2021 4:45:00 AM 15.92 60.656 0.041 6.92 1.43 9.13
7/3/2021 5:00:00 AM 15.87 60.566 0.041 6.85 1.32 9.12
7/3/2021 5:15:00 AM 15.82 60.476 0.041 6.89 1.42 9.14
7/3/2021 5:30:00 AM 15.77 60.386 0.041 6.87 2.11 9.16
7/3/2021 5:45:00 AM 15.73 60.314 0.043 6.9 1.43 9.17
7/3/2021 6:00:00 AM 15.69 60.242 0.041 6.91 2.38 9.17
7/3/2021 6:15:00 AM 15.65 60.17 0.042 6.91 1.6 9.2
7/3/2021 6:30:00 AM 15.62 60.116 0.043 6.92 1.58 9.2
7/3/2021 6:45:00 AM 15.59 60.062 0.038 6.9 0.77 9.23
7/3/2021 7:00:00 AM 15.55 59.99 0.041 6.94 1.44 9.26
7/3/2021 7:15:00 AM 15.53 59.954 0.04 6.97 0.83 9.27
7/3/2021 7:30:00 AM 15.5 59.9 0.041 6.92 1.86 9.3
7/3/2021 7:45:00 AM 15.47 59.846 0.041 6.9 1.14 9.31
7/3/2021 8:00:00 AM 15.47 59.846 0.042 6.99 1.39 9.36
7/3/2021 8:15:00 AM 15.5 59.9 0.041 6.91 1.49 9.41
7/3/2021 8:30:00 AM 15.52 59.936 0.041 7 1.29 9.4
7/3/2021 8:45:00 AM 15.53 59.954 0.041 6.98 2.7 9.4
7/3/2021 9:00:00 AM 15.54 59.972 0.041 6.88 1.15 9.38
7/3/2021 9:15:00 AM 15.56 60.008 0.04 6.9 1.42 9.42
7/3/2021 9:30:00 AM 15.59 60.062 0.041 6.9 1.6 9.42
7/3/2021 9:45:00 AM 15.63 60.134 0.04 6.99 1.22 9.43
7/3/2021 10:00:00 AM 15.65 60.17 0.041 6.98 1.37 9.41
7/3/2021 10:15:00 AM 15.68 60.224 0.041 6.94 1.26 9.41
7/3/2021 10:30:00 AM 15.73 60.314 0.042 6.97 1.32 9.43
7/3/2021 10:45:00 AM 15.78 60.404 0.04 6.98 1.14 9.44
7/3/2021 11:00:00 AM 15.82 60.476 0.036 6.99 0.82 9.44
7/3/2021 11:15:00 AM 15.91 60.638 0.032 6.95 0.93 9.47
7/3/2021 11:30:00 AM 15.99 60.782 0.04 7.03 1.13 9.46
7/3/2021 11:45:00 AM 16.04 60.872 0.042 7.08 1.89 9.45
7/3/2021 12:00:00 PM 16.15 61.07 0.04 7.08 1.49 9.44
7/3/2021 12:15:00 PM 16.2 61.16 0.042 7.07 1.18 9.38
7/3/2021 12:30:00 PM 16.3 61.34 0.04 7.04 1.87 9.39
7/3/2021 12:45:00 PM 16.4 61.52 0.041 7.1 1.51 9.39
7/3/2021 1:00:00 PM 16.45 61.61 0.037 7.05 0.83 9.31
7/3/2021 1:15:00 PM 16.67 62.006 0.04 7.12 1.9 9.34
7/3/2021 1:30:00 PM 16.81 62.258 0.04 7.13 1.23 9.3
7/3/2021 1:45:00 PM 16.85 62.33 0.04 6.94 1.22 9.26
7/3/2021 2:00:00 PM 16.92 62.456 0.04 7.13 1.77 9.28
7/3/2021 2:15:00 PM 17.12 62.816 0.04 7.06 1.74 9.27
7/3/2021 2:30:00 PM 17.28 63.104 0.04 7.09 1.54 9.25
7/3/2021 2:45:00 PM 17.39 63.302 0.041 7.06 1.69 9.21
7/3/2021 3:00:00 PM 17.29 63.122 0.04 7.06 1.24 9.15
7/3/2021 3:15:00 PM 17.44 63.392 0.04 7.06 1.18 9.19
7/3/2021 3:30:00 PM 17.54 63.572 0.04 7.1 1.05 9.17
7/3/2021 3:45:00 PM 17.65 63.77 0.039 7.14 1.08 9.12
7/3/2021 4:00:00 PM 17.68 63.824 0.04 7.09 1.38 9.11
7/3/2021 4:15:00 PM 17.68 63.824 0.04 7.1 1.84 9.07
7/3/2021 4:30:00 PM 17.66 63.788 0.04 7.06 1.26 9.02
7/3/2021 4:45:00 PM 17.63 63.734 0.04 7.09 1.08 9.02
7/3/2021 5:00:00 PM 17.59 63.662 0.04 7.02 1.89 8.99
7/3/2021 5:15:00 PM 17.64 63.752 0.04 7.06 2.26 9.02
7/3/2021 5:30:00 PM 17.68 63.824 0.04 7.07 1.13 9
7/3/2021 5:45:00 PM 17.67 63.806 0.036 7.02 0.53 8.97
7/3/2021 6:00:00 PM 17.7 63.86 0.04 7.03 1.57 8.93
7/3/2021 6:15:00 PM 17.71 63.878 0.04 7.02 1.46 8.89
7/3/2021 6:30:00 PM 17.7 63.86 0.04 6.99 1.53 8.88
7/3/2021 6:45:00 PM 17.65 63.77 0.041 6.98 1.46 8.85
7/3/2021 7:00:00 PM 17.6 63.68 0.042 6.96 1.47 8.86
7/3/2021 7:15:00 PM 17.57 63.626 0.042 6.98 1.24 8.86
7/3/2021 7:30:00 PM 17.53 63.554 0.042 7 1.12 8.86
7/3/2021 7:45:00 PM 17.49 63.482 0.04 6.9 1.39 8.85
7/3/2021 8:00:00 PM 17.45 63.41 0.04 6.98 1.72 8.84
7/3/2021 8:15:00 PM 17.41 63.338 0.041 6.99 1.22 8.83
7/3/2021 8:30:00 PM 17.36 63.248 0.04 6.97 1.46 8.84
7/3/2021 8:45:00 PM 17.31 63.158 0.042 6.98 1.04 8.84
7/3/2021 9:00:00 PM 17.26 63.068 0.041 6.97 1.16 8.83
7/3/2021 9:15:00 PM 17.21 62.978 0.041 6.99 1.28 8.83
7/3/2021 9:30:00 PM 17.17 62.906 0.041 7.02 1.59 8.84
7/3/2021 9:45:00 PM 17.13 62.834 0.042 6.95 1.34 8.84
7/3/2021 10:00:00 PM 17.1 62.78 0.041 6.96 1.52 8.85
7/3/2021 10:15:00 PM 17.06 62.708 0.041 6.99 1.11 8.86
7/3/2021 10:30:00 PM 17.03 62.654 0.041 6.98 1.27 8.86
7/3/2021 10:45:00 PM 17 62.6 0.042 6.96 1.29 8.88
7/3/2021 11:00:00 PM 16.97 62.546 0.041 6.94 1.17 8.88
7/3/2021 11:15:00 PM 16.94 62.492 0.042 7 1.13 8.89
7/3/2021 11:30:00 PM 16.91 62.438 0.041 6.99 1.31 8.89
7/3/2021 11:45:00 PM 16.89 62.402 0.042 7 1.25 8.9
7/4/2021 12:00:00 AM 16.86 62.348 0.042 6.93 1.33 8.91
7/4/2021 12:15:00 AM 16.83 62.294 0.041 6.95 1.49 8.92
7/4/2021 12:30:00 AM 16.81 62.258 0.041 6.93 1.44 8.91
7/4/2021 12:45:00 AM 16.78 62.204 0.041 6.96 1.24 8.93
7/4/2021 1:00:00 AM 16.75 62.15 0.042 6.93 3.56 8.94
7/4/2021 1:15:00 AM 16.73 62.114 0.043 6.96 1.48 8.94
7/4/2021 1:30:00 AM 16.71 62.078 0.041 7.01 1.9 8.95
7/4/2021 1:45:00 AM 16.68 62.024 0.041 6.92 1.97 8.96
7/4/2021 2:00:00 AM 16.65 61.97 0.042 6.93 1.53 8.96
7/4/2021 2:15:00 AM 16.63 61.934 0.041 6.87 2.93 8.97
7/4/2021 2:30:00 AM 16.61 61.898 0.041 6.89 1.25 8.97
7/4/2021 2:45:00 AM 16.58 61.844 0.04 6.92 1.04 8.98
7/4/2021 3:00:00 AM 16.56 61.808 0.041 6.89 4.66 8.99
7/4/2021 3:15:00 AM 16.53 61.754 0.037 6.9 0.73 8.99
7/4/2021 3:30:00 AM 16.51 61.718 0.041 6.95 1.4 8.99
7/4/2021 3:45:00 AM 16.49 61.682 0.041 6.93 1.11 9
7/4/2021 4:00:00 AM 16.47 61.646 0.041 6.88 1.48 9
7/4/2021 4:15:00 AM 16.43 61.574 0.043 6.95 1.26 9.01
7/4/2021 4:30:00 AM 16.41 61.538 0.042 6.91 1.39 9.01
7/4/2021 4:45:00 AM 16.38 61.484 0.043 6.94 1.15 9.01
7/4/2021 5:00:00 AM 16.35 61.43 0.042 6.92 1.44 9.02
7/4/2021 5:15:00 AM 16.32 61.376 0.041 6.94 1.34 9.03
7/4/2021 5:30:00 AM 16.29 61.322 0.042 6.96 1.45 9.03
7/4/2021 5:45:00 AM 16.25 61.25 0.041 6.96 1.16 9.04
7/4/2021 6:00:00 AM 16.22 61.196 0.042 7 1.61 9.05
7/4/2021 6:15:00 AM 16.18 61.124 0.041 6.91 1.77 9.07
7/4/2021 6:30:00 AM 16.14 61.052 0.038 6.84 0.73 9.11
7/4/2021 6:45:00 AM 16.11 60.998 0.041 6.98 1.39 9.12
7/4/2021 7:00:00 AM 16.09 60.962 0.041 6.94 1.81 9.13
7/4/2021 7:15:00 AM 16.07 60.926 0.041 6.95 1.22 9.15
7/4/2021 7:30:00 AM 16.06 60.908 0.041 6.96 1.12 9.19
7/4/2021 7:45:00 AM 16.04 60.872 0.042 6.95 1.26 9.22
7/4/2021 8:00:00 AM 16.02 60.836 0.041 7 1.22 9.24
7/4/2021 8:15:00 AM 16.01 60.818 0.041 6.98 1.89 9.27
7/4/2021 8:30:00 AM 15.99 60.782 0.042 7 1.05 9.25
7/4/2021 8:45:00 AM 15.97 60.746 0.041 6.98 2.06 9.24
7/4/2021 9:00:00 AM 15.95 60.71 0.041 6.96 1.46 9.25
7/4/2021 9:15:00 AM 15.95 60.71 0.041 6.96 2.47 9.25
7/4/2021 9:30:00 AM 15.96 60.728 0.041 6.98 1.21 9.25
7/4/2021 9:45:00 AM 15.98 60.764 0.041 7.01 1.37 9.26
7/4/2021 10:00:00 AM 16.01 60.818 0.041 6.96 1.3 9.26
7/4/2021 10:15:00 AM 16.05 60.89 0.041 7 1.29 9.26
7/4/2021 10:30:00 AM 16.12 61.016 0.041 7.02 1.17 9.27
7/4/2021 10:45:00 AM 16.19 61.142 0.041 6.96 2.02 9.26
7/4/2021 11:00:00 AM 16.28 61.304 0.041 7.06 1.41 9.26
7/4/2021 11:15:00 AM 16.39 61.502 0.041 7.03 1 9.25
7/4/2021 11:30:00 AM 16.52 61.736 0.041 7.04 1.79 9.26
7/4/2021 11:45:00 AM 16.68 62.024 0.04 7.03 2.25 9.27
7/4/2021 12:00:00 PM 16.82 62.276 0.039 7.08 1.51 9.26
7/4/2021 12:15:00 PM 16.9 62.42 0.041 7.06 1.51 9.23
7/4/2021 12:30:00 PM 17.14 62.852 0.04 7.08 1.94 9.22
7/4/2021 12:45:00 PM 17.38 63.284 0.039 7.07 1.04 9.21
7/4/2021 1:00:00 PM 17.7 63.86 0.04 7.08 1.18 9.15
7/4/2021 1:15:00 PM 17.86 64.148 0.041 7.09 1.66 9.13
7/4/2021 1:30:00 PM 17.97 64.346 0.041 7.07 1.09 9.1
7/4/2021 1:45:00 PM 18.12 64.616 0.04 7.11 1.09 9.07
7/4/2021 2:00:00 PM 18.14 64.652 0.04 7.1 1.46 9.03
7/4/2021 2:15:00 PM 18.19 64.742 0.04 7.08 1.3 9.02
7/4/2021 2:30:00 PM 18.42 65.156 0.04 7.13 1.41 9.04
7/4/2021 2:45:00 PM 18.5 65.3 0.04 7.11 1.34 8.99
7/4/2021 3:00:00 PM 18.65 65.57 0.04 7.13 1.13 8.98
7/4/2021 3:15:00 PM 18.87 65.966 0.041 7.04 1.92 8.95
7/4/2021 3:30:00 PM 18.98 66.164 0.04 7.1 1.09 8.91
7/4/2021 3:45:00 PM 19.04 66.272 0.04 7.1 1.44 8.87
7/4/2021 4:00:00 PM 19.13 66.434 0.041 7.07 1.54 8.85
7/4/2021 4:15:00 PM 19.1 66.38 0.042 6.95 0.77 8.82
7/4/2021 4:30:00 PM 19.11 66.398 0.041 7.07 1.31 8.82
7/4/2021 4:45:00 PM 19.06 66.308 0.041 7.04 0.92 8.81
7/4/2021 5:00:00 PM 19.06 66.308 0.04 7.08 1.32 8.81
7/4/2021 5:15:00 PM 18.98 66.164 0.04 7.05 1.36 8.76
7/4/2021 5:30:00 PM 18.95 66.11 0.041 7.05 1.35 8.76
7/4/2021 5:45:00 PM 18.92 66.056 0.04 7.03 1.31 8.71
7/4/2021 6:00:00 PM 18.9 66.02 0.041 7.02 2.01 8.66
7/4/2021 6:15:00 PM 18.89 66.002 0.042 6.97 1.89 8.67
7/4/2021 6:30:00 PM 18.89 66.002 0.041 7.01 1.3 8.67
7/4/2021 6:45:00 PM 18.84 65.912 0.034 7.04 1.05 8.65
7/4/2021 7:00:00 PM 18.79 65.82201 0.041 7 2.06 8.65
7/4/2021 7:15:00 PM 18.72 65.696 0.041 6.97 1.46 8.64
7/4/2021 7:30:00 PM 18.66 65.588 0.042 6.94 1.18 8.65
7/4/2021 7:45:00 PM 18.59 65.462 0.041 6.97 2.42 8.65
7/4/2021 8:00:00 PM 18.51 65.318 0.041 7 1.36 8.66
7/4/2021 8:15:00 PM 18.43 65.174 0.042 6.97 1.24 8.65
7/4/2021 8:30:00 PM 18.36 65.048 0.033 7.01 0.73 8.65
7/4/2021 8:45:00 PM 18.28 64.904 0.042 6.96 1.02 8.66
7/4/2021 9:00:00 PM 18.22 64.796 0.041 6.96 1.35 8.66
7/4/2021 9:15:00 PM 18.16 64.688 0.041 6.97 3.27 8.67
7/4/2021 9:30:00 PM 18.09 64.562 0.043 6.97 1.59 8.68
7/4/2021 9:45:00 PM 18.04 64.472 0.043 6.88 1.56 8.69
7/4/2021 10:00:00 PM 17.99 64.382 0.041 6.97 1.54 8.69
7/4/2021 10:15:00 PM 17.94 64.292 0.041 6.99 1.57 8.7
7/4/2021 10:30:00 PM 17.89 64.202 0.042 6.96 1.35 8.7
7/4/2021 10:45:00 PM 17.84 64.112 0.042 6.96 1.07 8.72
7/4/2021 11:00:00 PM 17.8 64.04 0.042 6.96 1.58 8.73
7/4/2021 11:15:00 PM 17.74 63.932 0.043 6.89 1.07 8.74
7/4/2021 11:30:00 PM 17.69 63.842 0.041 6.94 1.82 8.75
7/4/2021 11:45:00 PM 17.64 63.752 0.04 6.78 0.75 8.76
7/5/2021 12:00:00 AM 17.59 63.662 0.043 6.92 1.41 8.77
7/5/2021 12:15:00 AM 17.55 63.59 0.041 6.88 1.33 8.78
7/5/2021 12:30:00 AM 17.5 63.5 0.041 6.91 1.15 8.79
7/5/2021 12:45:00 AM 17.45 63.41 0.043 6.9 1.41 8.79
7/5/2021 1:00:00 AM 17.4 63.32 0.041 6.89 1.19 8.82
7/5/2021 1:15:00 AM 17.35 63.23 0.043 6.95 1.08 8.83
7/5/2021 1:30:00 AM 17.31 63.158 0.043 6.94 1.1 8.83
7/5/2021 1:45:00 AM 17.25 63.05 0.043 6.72 0.83 8.85
7/5/2021 2:00:00 AM 17.2 62.96 0.043 6.95 1.31 8.86
7/5/2021 2:15:00 AM 17.14 62.852 0.043 6.95 1.55 8.86
7/5/2021 2:30:00 AM 17.09 62.762 0.042 6.96 1.51 8.86
7/5/2021 2:45:00 AM 17.03 62.654 0.043 7 1.52 8.88
7/5/2021 3:00:00 AM 16.97 62.546 0.042 6.94 1.34 8.9
7/5/2021 3:15:00 AM 16.91 62.438 0.042 6.92 1.29 8.91
7/5/2021 3:30:00 AM 16.84 62.312 0.042 6.93 1.15 8.93
7/5/2021 3:45:00 AM 16.78 62.204 0.043 6.93 1.64 8.95
7/5/2021 4:00:00 AM 16.72 62.096 0.042 6.91 1.11 8.96
7/5/2021 4:15:00 AM 16.66 61.988 0.042 6.91 1.65 8.97
7/5/2021 4:30:00 AM 16.59 61.862 0.041 6.93 1 8.99
7/5/2021 4:45:00 AM 16.53 61.754 0.041 6.91 0.61 9
7/5/2021 5:00:00 AM 16.46 61.628 0.042 6.84 1.18 9.01
7/5/2021 5:15:00 AM 16.4 61.52 0.041 6.91 0.73 9.02
7/5/2021 5:30:00 AM 16.33 61.394 0.043 6.9 1.14 9.04
7/5/2021 5:45:00 AM 16.27 61.286 0.042 6.92 1.23 9.05
7/5/2021 6:00:00 AM 16.21 61.178 0.043 6.95 1.8 9.07
7/5/2021 6:15:00 AM 16.14 61.052 0.042 6.76 1.14 9.11
7/5/2021 6:30:00 AM 16.09 60.962 0.042 6.95 1.94 9.13
7/5/2021 6:45:00 AM 16.04 60.872 0.043 6.84 0.91 9.15
7/5/2021 7:00:00 AM 15.98 60.764 0.043 6.93 1.34 9.17
7/5/2021 7:15:00 AM 15.94 60.692 0.043 6.91 1.26 9.21
7/5/2021 7:30:00 AM 15.9 60.62 0.042 6.92 1.2 9.23
7/5/2021 7:45:00 AM 15.85 60.53 0.042 6.94 1.3 9.25
7/5/2021 8:00:00 AM 15.83 60.494 0.043 6.96 1.32 9.28
7/5/2021 8:15:00 AM 15.8 60.44 0.043 6.96 1.55 9.3
7/5/2021 8:30:00 AM 15.78 60.404 0.042 6.98 1.02 9.31
7/5/2021 8:45:00 AM 15.78 60.404 0.043 6.96 0.97 9.33
7/5/2021 9:00:00 AM 15.79 60.422 0.042 6.99 1.33 9.34
7/5/2021 9:15:00 AM 15.82 60.476 0.042 6.98 1.61 9.35
7/5/2021 9:30:00 AM 15.85 60.53 0.043 6.87 1.01 9.36
7/5/2021 9:45:00 AM 15.88 60.584 0.042 6.94 1.15 9.37
7/5/2021 10:00:00 AM 15.94 60.692 0.041 7.03 2.78 9.38
7/5/2021 10:15:00 AM 16.01 60.818 0.041 7.03 1.87 9.39
7/5/2021 10:30:00 AM 16.1 60.98 0.042 7 1.17 9.39
7/5/2021 10:45:00 AM 16.2 61.16 0.042 7.03 1.1 9.38
7/5/2021 11:00:00 AM 16.32 61.376 0.039 7.03 0.71 9.38
7/5/2021 11:15:00 AM 16.45 61.61 0.043 6.91 0.59 9.38
7/5/2021 11:30:00 AM 16.6 61.88 0.041 7.04 1.11 9.38
7/5/2021 11:45:00 AM 16.76 62.168 0.041 7.07 1.07 9.37
7/5/2021 12:00:00 PM 16.95 62.51 0.041 7.09 1.17 9.34
7/5/2021 12:15:00 PM 17.16 62.888 0.041 7.15 1.08 9.31
7/5/2021 12:30:00 PM 17.4 63.32 0.041 7.08 1.47 9.3
7/5/2021 12:45:00 PM 17.65 63.77 0.041 7.12 1.13 9.26
7/5/2021 1:00:00 PM 17.89 64.202 0.042 7.14 1.2 9.23
7/5/2021 1:15:00 PM 18.12 64.616 0.041 7.17 2.16 9.2
7/5/2021 1:30:00 PM 18.4 65.12 0.04 6.99 2.91 9.16
7/5/2021 1:45:00 PM 18.67 65.606 0.041 7.15 1.26 9.12
7/5/2021 2:00:00 PM 18.91 66.038 0.036 7.17 0.72 9.08
7/5/2021 2:15:00 PM 19.15 66.47 0.042 7.11 1.58 9.03
7/5/2021 2:30:00 PM 19.36 66.848 0.04 7.17 1.49 9
7/5/2021 2:45:00 PM 19.5 67.1 0.04 6.98 1.28 8.98
7/5/2021 3:00:00 PM 19.66 67.388 0.042 7.05 0.72 8.94
7/5/2021 3:15:00 PM 19.77 67.586 0.037 7.17 1.25 8.9
7/5/2021 3:30:00 PM 19.83 67.694 0.041 7.17 1.91 8.87
7/5/2021 3:45:00 PM 19.88 67.784 0.042 7.17 2.66 8.84
7/5/2021 4:00:00 PM 19.94 67.892 0.042 7.16 1.71 8.81
7/5/2021 4:15:00 PM 19.99 67.982 0.04 7.14 1.45 8.78
7/5/2021 4:30:00 PM 20.03 68.054 0.042 7.11 1.37 8.76
7/5/2021 4:45:00 PM 20.06 68.108 0.041 7.17 1.89 8.73
7/5/2021 5:00:00 PM 20.11 68.198 0.042 7.11 2.19 8.71
7/5/2021 5:15:00 PM 20.14 68.252 0.041 7.13 2.57 8.68
7/5/2021 5:30:00 PM 20.19 68.342 0.042 6.91 0.53 8.65
7/5/2021 5:45:00 PM 20.2 68.36 0.041 7.13 1.34 8.6
7/5/2021 6:00:00 PM 20.19 68.342 0.04 7.12 0.71 8.57
7/5/2021 6:15:00 PM 20.18 68.324 0.041 7.06 1.33 8.55
7/5/2021 6:30:00 PM 20.16 68.288 0.042 7.01 1.07 8.51
7/5/2021 6:45:00 PM 20.14 68.252 0.043 7.08 1.17 8.5
7/5/2021 7:00:00 PM 20.1 68.18 0.042 7.01 1.38 8.48
7/5/2021 7:15:00 PM 20.07 68.126 0.042 6.98 1.08 8.46
7/5/2021 7:30:00 PM 20.02 68.036 0.042 6.94 1.25 8.45
7/5/2021 7:45:00 PM 19.97 67.946 0.043 7 1.7 8.44
7/5/2021 8:00:00 PM 19.9 67.82 0.043 6.91 1.74 8.42
7/5/2021 8:15:00 PM 19.84 67.712 0.042 6.89 1.27 8.41
7/5/2021 8:30:00 PM 19.77 67.586 0.042 7.02 1.23 8.4
7/5/2021 8:45:00 PM 19.71 67.478 0.042 6.9 1.3 8.39
7/5/2021 9:00:00 PM 19.65 67.37 0.042 7.01 1.64 8.39
7/5/2021 9:15:00 PM 19.58 67.244 0.042 6.84 1.82 8.39
7/5/2021 9:30:00 PM 19.53 67.154 0.042 6.86 1.38 8.39
7/5/2021 9:45:00 PM 19.48 67.064 0.042 6.91 1.77 8.39
7/5/2021 10:00:00 PM 19.42 66.956 0.043 6.96 1.36 8.41
7/5/2021 10:15:00 PM 19.37 66.866 0.043 6.97 1.43 8.41
7/5/2021 10:30:00 PM 19.32 66.776 0.042 6.78 1.54 8.42
7/5/2021 10:45:00 PM 19.29 66.722 0.042 6.97 1.92 8.43
7/5/2021 11:00:00 PM 19.25 66.65 0.044 6.84 1.79 8.43
7/5/2021 11:15:00 PM 19.22 66.596 0.043 6.89 1.53 8.44
7/5/2021 11:30:00 PM 19.19 66.542 0.044 6.87 2.08 8.44
7/5/2021 11:45:00 PM 19.15 66.47 0.043 6.97 1.32 8.44
7/6/2021 12:00:00 AM 19.14 66.452 0.042 6.97 3.06 8.46
7/6/2021 12:15:00 AM 19.1 66.38 0.043 6.83 4.33 8.46
7/6/2021 12:30:00 AM 19.07 66.326 0.042 6.93 1.79 8.46
7/6/2021 12:45:00 AM 19.05 66.29 0.042 6.79 3.32 8.48
7/6/2021 1:00:00 AM 19.02 66.236 0.043 6.83 2.01 8.48
7/6/2021 1:15:00 AM 18.99 66.182 0.043 6.83 1.28 8.49
7/6/2021 1:30:00 AM 18.96 66.128 0.042 6.82 1.48 8.49
7/6/2021 1:45:00 AM 18.93 66.074 0.043 6.84 1.29 8.49
7/6/2021 2:00:00 AM 18.91 66.038 0.043 6.91 1.42 8.5
7/6/2021 2:15:00 AM 18.88 65.984 0.044 7 1.3 8.5
7/6/2021 2:30:00 AM 18.85 65.93 0.042 6.79 0.73 8.51
7/6/2021 2:45:00 AM 18.81 65.858 0.043 6.77 1.75 8.52
7/6/2021 3:00:00 AM 18.78 65.804 0.042 6.87 1.25 8.52
7/6/2021 3:15:00 AM 18.75 65.75 0.043 6.86 1.26 8.54
7/6/2021 3:30:00 AM 18.71 65.67799 0.043 6.85 1.2 8.54
7/6/2021 3:45:00 AM 18.68 65.624 0.044 6.89 1.2 8.55
7/6/2021 4:00:00 AM 18.63 65.534 0.043 6.85 1.24 8.55
7/6/2021 4:15:00 AM 18.59 65.462 0.044 6.93 1.72 8.56
7/6/2021 4:30:00 AM 18.55 65.39 0.043 7 1.34 8.57
7/6/2021 4:45:00 AM 18.51 65.318 0.043 6.69 1.35 8.57
7/6/2021 5:00:00 AM 18.47 65.246 0.043 6.86 2.39 8.58
7/6/2021 5:15:00 AM 18.43 65.174 0.042 6.83 1.46 8.59
7/6/2021 5:30:00 AM 18.39 65.102 0.044 6.9 1.32 8.59
7/6/2021 5:45:00 AM 18.34 65.012 0.043 6.81 1.72 8.6
7/6/2021 6:00:00 AM 18.29 64.922 0.043 6.99 1.21 8.62
7/6/2021 6:15:00 AM 18.25 64.85 0.043 7 1.5 8.64
7/6/2021 6:30:00 AM 18.21 64.778 0.043 6.89 1.15 8.67
7/6/2021 6:45:00 AM 18.17 64.706 0.043 6.83 1.55 8.69
7/6/2021 7:00:00 AM 18.14 64.652 0.043 6.9 1.35 8.71
7/6/2021 7:15:00 AM 18.11 64.598 0.043 6.86 1.07 8.73
7/6/2021 7:30:00 AM 18.08 64.544 0.043 6.92 1.32 8.76
7/6/2021 7:45:00 AM 18.06 64.508 0.043 6.88 1.22 8.78
7/6/2021 8:00:00 AM 18.03 64.454 0.043 6.91 1.76 8.8
7/6/2021 8:15:00 AM 18.02 64.436 0.043 7.01 1.44 8.82
7/6/2021 8:30:00 AM 18.01 64.418 0.043 6.88 1.25 8.84
7/6/2021 8:45:00 AM 18.01 64.418 0.042 6.97 1.16 8.86
7/6/2021 9:00:00 AM 18.02 64.436 0.041 6.87 1.14 8.87
7/6/2021 9:15:00 AM 18.05 64.49 0.041 6.87 1.12 8.89
7/6/2021 9:30:00 AM 18.1 64.58 0.044 6.94 1.06 8.92
7/6/2021 9:45:00 AM 18.16 64.688 0.042 6.91 1.23 8.93
7/6/2021 10:00:00 AM 18.25 64.85 0.042 6.91 2.15 8.94
7/6/2021 10:15:00 AM 18.32 64.976 0.043 7 1.52 8.94
7/6/2021 10:30:00 AM 18.42 65.156 0.043 6.99 1.34 8.92
7/6/2021 10:45:00 AM 18.53 65.354 0.04 7.01 1.21 8.93
7/6/2021 11:00:00 AM 18.66 65.588 0.041 7 1.07 8.93
7/6/2021 11:15:00 AM 18.79 65.82201 0.042 7.09 1.22 8.94
7/6/2021 11:30:00 AM 18.94 66.092 0.042 7.12 1.56 8.93
7/6/2021 11:45:00 AM 19.07 66.326 0.042 7.1 1.55 8.92
7/6/2021 12:00:00 PM 19.22 66.596 0.042 7.12 1.18 8.91
7/6/2021 12:15:00 PM 19.36 66.848 0.043 7.09 1.14 8.89
7/6/2021 12:30:00 PM 19.51 67.118 0.041 7.12 1.12 8.88
7/6/2021 12:45:00 PM 19.69 67.442 0.041 7.15 0.67 8.86
7/6/2021 1:00:00 PM 19.85 67.73 0.042 7.15 1.06 8.83
7/6/2021 1:15:00 PM 20.05 68.09 0.038 7.1 0.88 8.82
7/6/2021 1:30:00 PM 20.32 68.576 0.041 7.17 1.26 8.79
7/6/2021 1:45:00 PM 20.43 68.774 0.042 7.19 1.46 8.74
7/6/2021 2:00:00 PM 20.66 69.188 0.041 7.19 1.38 8.73
7/6/2021 2:15:00 PM 20.69 69.242 0.042 7.13 1.47 8.68
7/6/2021 2:30:00 PM 20.87 69.566 0.041 7.13 1.09 8.69
7/6/2021 2:45:00 PM 20.91 69.638 0.041 7.22 1.71 8.65
7/6/2021 3:00:00 PM 20.89 69.602 0.042 7.16 1.97 8.63
7/6/2021 3:15:00 PM 20.99 69.782 0.042 7.2 1.29 8.64
7/6/2021 3:30:00 PM 21.16 70.088 0.035 7.14 0.91 8.62
7/6/2021 3:45:00 PM 21.27 70.286 0.041 7.19 1.29 8.58
7/6/2021 4:00:00 PM 21.22 70.196 0.041 7.09 1.36 8.52
7/6/2021 4:15:00 PM 21.29 70.32201 0.041 7.22 1.8 8.53
7/6/2021 4:30:00 PM 21.29 70.32201 0.041 7.16 1.41 8.47
7/6/2021 4:45:00 PM 21.33 70.394 0.042 7.14 1.23 8.46
7/6/2021 5:00:00 PM 21.38 70.484 0.041 7.17 1.19 8.47
7/6/2021 5:15:00 PM 21.33 70.394 0.042 7.13 1.49 8.42
7/6/2021 5:30:00 PM 21.26 70.268 0.041 7.09 2.86 8.31
7/6/2021 5:45:00 PM 21.24 70.232 0.042 7.08 1.27 8.29
7/6/2021 6:00:00 PM 21.26 70.268 0.041 7.05 1.99 8.35
7/6/2021 6:15:00 PM 21.22 70.196 0.042 7.05 2.65 8.28
7/6/2021 6:30:00 PM 21.19 70.142 0.041 7.05 1.36 8.25
7/6/2021 6:45:00 PM 21.16 70.088 0.041 6.97 1.47 8.23
7/6/2021 7:00:00 PM 21.13 70.034 0.028 7.05 0.86 8.25
7/6/2021 7:15:00 PM 21.12 70.016 0.042 6.96 3.43 8.29
7/6/2021 7:30:00 PM 21.08 69.944 0.042 6.95 1.36 8.25
7/6/2021 7:45:00 PM 21.02 69.836 0.043 6.92 1.2 8.2
7/6/2021 8:00:00 PM 20.98 69.764 0.043 6.91 1.16 8.18
7/6/2021 8:15:00 PM 20.92 69.656 0.043 6.93 1.69 8.17
7/6/2021 8:30:00 PM 20.84 69.512 0.042 6.88 1.18 8.16
7/6/2021 8:45:00 PM 20.8 69.44 0.042 6.9 1.41 8.16
7/6/2021 9:00:00 PM 20.74 69.332 0.042 6.87 0.88 8.16
7/6/2021 9:15:00 PM 20.67 69.206 0.042 6.85 1.4 8.16
7/6/2021 9:30:00 PM 20.63 69.134 0.043 6.9 1.71 8.17
7/6/2021 9:45:00 PM 20.59 69.062 0.043 6.85 1.54 8.18
7/6/2021 10:00:00 PM 20.54 68.972 0.043 6.89 1.35 8.19
7/6/2021 10:15:00 PM 20.5 68.9 0.043 6.89 1.62 8.18
7/6/2021 10:30:00 PM 20.44 68.792 0.043 6.9 1.37 8.2
7/6/2021 10:45:00 PM 20.4 68.72 0.043 6.89 2.24 8.21
7/6/2021 11:00:00 PM 20.34 68.612 0.043 6.95 1.59 8.21
7/6/2021 11:15:00 PM 20.3 68.54 0.043 6.95 3.28 8.23
7/6/2021 11:30:00 PM 20.25 68.45 0.043 6.88 1.57 8.23
7/6/2021 11:45:00 PM 20.2 68.36 0.043 6.91 2.21 8.24
7/7/2021 12:00:00 AM 20.14 68.252 0.043 6.93 2.24 8.25
7/7/2021 12:15:00 AM 20.11 68.198 0.043 6.85 1.55 8.27
7/7/2021 12:30:00 AM 20.07 68.126 0.043 6.93 1.37 8.27
7/7/2021 12:45:00 AM 20.02 68.036 0.045 6.94 1.4 8.28
7/7/2021 1:00:00 AM 19.98 67.964 0.043 6.94 2.15 8.29
7/7/2021 1:15:00 AM 19.94 67.892 0.038 6.9 0.58 8.3
7/7/2021 1:30:00 AM 19.89 67.802 0.043 6.96 1.17 8.3
7/7/2021 1:45:00 AM 19.86 67.748 0.043 6.95 1.34 8.3
7/7/2021 2:00:00 AM 19.81 67.658 0.044 6.95 1.29 8.31
7/7/2021 2:15:00 AM 19.77 67.586 0.044 6.97 1.63 8.31
7/7/2021 2:30:00 AM 19.73 67.514 0.044 6.94 1.24 8.33
7/7/2021 2:45:00 AM 19.7 67.46 0.043 6.94 1.48 8.33
7/7/2021 3:00:00 AM 19.67 67.406 0.043 6.91 1.32 8.34
7/7/2021 3:15:00 AM 19.63 67.334 0.043 6.96 1.82 8.35
7/7/2021 3:30:00 AM 19.59 67.262 0.043 6.88 1.2 8.36
7/7/2021 3:45:00 AM 19.56 67.208 0.043 6.94 1.7 8.37
7/7/2021 4:00:00 AM 19.52 67.136 0.038 6.9 0.84 8.37
7/7/2021 4:15:00 AM 19.49 67.082 0.043 6.93 1.2 8.37
7/7/2021 4:30:00 AM 19.46 67.028 0.043 6.92 1.97 8.4
7/7/2021 4:45:00 AM 19.42 66.956 0.044 6.92 1.02 8.39
7/7/2021 5:00:00 AM 19.37 66.866 0.043 6.88 1.53 8.4
7/7/2021 5:15:00 AM 19.33 66.794 0.043 6.9 1.25 8.41
7/7/2021 5:30:00 AM 19.29 66.722 0.043 6.92 1.5 8.4
7/7/2021 5:45:00 AM 19.26 66.668 0.043 6.93 1.68 8.42
7/7/2021 6:00:00 AM 19.22 66.596 0.043 6.93 1.33 8.43
7/7/2021 6:15:00 AM 19.19 66.542 0.043 6.91 1.67 8.44
7/7/2021 6:30:00 AM 19.16 66.488 0.043 6.92 1.37 8.47
7/7/2021 6:45:00 AM 19.13 66.434 0.043 6.93 1.67 8.49
7/7/2021 7:00:00 AM 19.12 66.416 0.042 6.97 0.77 8.51
7/7/2021 7:15:00 AM 19.1 66.38 0.043 6.93 1.55 8.53
7/7/2021 7:30:00 AM 19.08 66.344 0.043 6.92 1.25 8.55
7/7/2021 7:45:00 AM 19.07 66.326 0.043 6.97 1.56 8.58
7/7/2021 8:00:00 AM 19.04 66.272 0.043 6.92 2.05 8.59
7/7/2021 8:15:00 AM 19.04 66.272 0.043 6.92 1.5 8.61
7/7/2021 8:30:00 AM 19.03 66.254 0.044 6.91 2.06 8.63
7/7/2021 8:45:00 AM 19.03 66.254 0.043 6.93 2.88 8.64
7/7/2021 9:00:00 AM 19.04 66.272 0.043 6.98 3.57 8.65
7/7/2021 9:15:00 AM 19.06 66.308 0.043 6.95 1.3 8.66
7/7/2021 9:30:00 AM 19.1 66.38 0.043 6.97 1.44 8.68
7/7/2021 9:45:00 AM 19.13 66.434 0.043 7.02 1.44 8.69
7/7/2021 10:00:00 AM 19.18 66.524 0.043 7.02 1.63 8.7
7/7/2021 10:15:00 AM 19.24 66.632 0.043 6.99 1.58 8.71
7/7/2021 10:30:00 AM 19.32 66.776 0.042 7.01 1.42 8.72
7/7/2021 10:45:00 AM 19.41 66.938 0.044 7.01 1.41 8.74
7/7/2021 11:00:00 AM 19.5 67.1 0.042 7.04 1.29 8.75
7/7/2021 11:15:00 AM 19.62 67.316 0.042 7.08 1.87 8.76
7/7/2021 11:30:00 AM 19.72 67.496 0.042 7.08 1.41 8.75
7/7/2021 11:45:00 AM 19.8 67.64 0.042 7.1 1.16 8.75
7/7/2021 12:00:00 PM 19.95 67.91 0.042 7.11 1.54 8.77
7/7/2021 12:15:00 PM 20.15 68.27 0.042 7.12 1.9 8.76
7/7/2021 12:30:00 PM 20.34 68.612 0.042 7.08 1.34 8.72
7/7/2021 12:45:00 PM 20.56 69.008 0.042 7.16 1.23 8.73
7/7/2021 1:00:00 PM 20.78 69.404 0.043 7.18 1.33 8.68
7/7/2021 1:15:00 PM 20.98 69.764 0.043 7.15 1.24 8.66
7/7/2021 1:30:00 PM 21.22 70.196 0.042 7.14 1.48 8.64
7/7/2021 1:45:00 PM 21.46 70.628 0.042 7.21 1.57 8.62
7/7/2021 2:00:00 PM 21.73 71.114 0.041 7.17 1.09 8.58
7/7/2021 2:15:00 PM 21.98 71.564 0.043 7.19 1.3 8.55
7/7/2021 2:30:00 PM 22.04 71.672 0.042 7.2 1.57 8.49
7/7/2021 2:45:00 PM 22.14 71.852 0.043 7.19 2.83 8.46
7/7/2021 3:00:00 PM 22.25 72.05 0.042 7.2 2.33 8.45
7/7/2021 3:15:00 PM 22.33 72.194 0.042 7.23 1.3 8.45
7/7/2021 3:30:00 PM 22.36 72.248 0.042 7.19 1.33 8.42
7/7/2021 3:45:00 PM 22.36 72.248 0.042 7.18 1.38 8.4
7/7/2021 4:00:00 PM 22.37 72.266 0.042 7.17 2.31 8.38
7/7/2021 4:15:00 PM 22.33 72.194 0.042 7.22 1.45 8.36
7/7/2021 4:30:00 PM 22.32 72.176 0.042 7.19 1.27 8.34
7/7/2021 4:45:00 PM 22.3 72.14 0.042 7.17 1.1 8.32
7/7/2021 5:00:00 PM 22.28 72.104 0.042 7.12 0.89 8.29
7/7/2021 5:15:00 PM 22.24 72.032 0.042 7.19 1.09 8.27
7/7/2021 5:30:00 PM 22.19 71.942 0.042 7.11 1.39 8.23
7/7/2021 5:45:00 PM 22.16 71.888 0.042 7.07 2.41 8.2
7/7/2021 6:00:00 PM 22.11 71.798 0.042 7.07 1.39 8.17
7/7/2021 6:15:00 PM 22.07 71.726 0.042 7.06 1.47 8.15
7/7/2021 6:30:00 PM 22.02 71.636 0.043 7.06 1.31 8.12
7/7/2021 6:45:00 PM 21.98 71.564 0.042 7 1.3 8.1
7/7/2021 7:00:00 PM 21.94 71.492 0.043 7.02 2.03 8.08
7/7/2021 7:15:00 PM 21.88 71.384 0.042 7.03 1.32 8.06
7/7/2021 7:30:00 PM 21.85 71.33 0.042 6.98 1.45 8.03
7/7/2021 7:45:00 PM 21.77 71.186 0.043 6.97 2.58 7.99
7/7/2021 8:00:00 PM 21.67 71.006 0.043 6.96 2.1 7.96
7/7/2021 8:15:00 PM 21.57 70.826 0.043 6.91 2.36 7.94
7/7/2021 8:30:00 PM 21.49 70.682 0.044 6.89 1.18 7.94
7/7/2021 8:45:00 PM 21.38 70.484 0.044 6.91 2.09 7.93
7/7/2021 9:00:00 PM 21.3 70.34 0.044 6.97 0.88 7.94
7/7/2021 9:15:00 PM 21.22 70.196 0.044 6.88 2.15 7.94
7/7/2021 9:30:00 PM 21.12 70.016 0.043 6.91 2.17 7.95
7/7/2021 9:45:00 PM 21.04 69.872 0.044 6.94 1.5 7.97
7/7/2021 10:00:00 PM 20.95 69.71 0.043 6.93 1.52 7.98
7/7/2021 10:15:00 PM 20.88 69.584 0.044 6.9 1.98 8.02
7/7/2021 10:30:00 PM 20.81 69.458 0.044 6.88 1.64 8.04
7/7/2021 10:45:00 PM 20.72 69.296 0.043 6.87 1.62 8.05
7/7/2021 11:00:00 PM 20.67 69.206 0.043 6.96 1.59 8.08
7/7/2021 11:15:00 PM 20.61 69.098 0.045 6.89 1.57 8.09
7/7/2021 11:30:00 PM 20.55 68.99 0.045 6.85 1.14 8.1
7/7/2021 11:45:00 PM 20.49 68.882 0.043 6.95 1.54 8.12
7/8/2021 12:00:00 AM 20.44 68.792 0.044 6.89 2.2 8.1
7/8/2021 12:15:00 AM 20.4 68.72 0.043 6.86 1.68 8.08
7/8/2021 12:30:00 AM 20.35 68.63 0.043 6.78 1.42 8.07
7/8/2021 12:45:00 AM 20.3 68.54 0.044 6.9 2.06 8.1
7/8/2021 1:00:00 AM 20.27 68.486 0.043 6.9 1.32 8.12
7/8/2021 1:15:00 AM 20.23 68.414 0.044 6.92 1.74 8.14
7/8/2021 1:30:00 AM 20.19 68.342 0.043 6.87 1.63 8.16
7/8/2021 1:45:00 AM 20.15 68.27 0.043 6.88 1.4 8.17
7/8/2021 2:00:00 AM 20.12 68.216 0.043 6.88 2.09 8.18
7/8/2021 2:15:00 AM 20.07 68.126 0.043 6.9 1.61 8.2
7/8/2021 2:30:00 AM 20.05 68.09 0.043 6.95 1.53 8.21
7/8/2021 2:45:00 AM 20.01 68.018 0.04 6.96 1.27 8.22
7/8/2021 3:00:00 AM 19.97 67.946 0.043 6.92 1.91 8.24
7/8/2021 3:15:00 AM 19.93 67.874 0.043 6.88 3.06 8.25
7/8/2021 3:30:00 AM 19.89 67.802 0.043 6.91 2.07 8.25
7/8/2021 3:45:00 AM 19.86 67.748 0.043 6.95 1.71 8.27
7/8/2021 4:00:00 AM 19.83 67.694 0.038 6.87 1.09 8.28
7/8/2021 4:15:00 AM 19.78 67.604 0.043 6.94 2.29 8.29
7/8/2021 4:30:00 AM 19.76 67.568 0.043 6.93 1.82 8.3
7/8/2021 4:45:00 AM 19.72 67.496 0.043 6.93 2.25 8.31
7/8/2021 5:00:00 AM 19.69 67.442 0.043 6.95 5.38 8.33
7/8/2021 5:15:00 AM 19.64 67.352 0.043 6.93 4.91 8.32
7/8/2021 5:30:00 AM 19.61 67.298 0.044 6.91 4.5 8.34
7/8/2021 5:45:00 AM 19.57 67.226 0.04 6.95 3.65 8.37
7/8/2021 6:00:00 AM 19.52 67.136 0.043 6.89 3.79 8.37
7/8/2021 6:15:00 AM 19.48 67.064 0.042 6.86 3.42 8.39
7/8/2021 6:30:00 AM 19.43 66.974 0.042 6.93 4.07 8.44
7/8/2021 6:45:00 AM 19.39 66.902 0.042 6.92 5.28 8.45
7/8/2021 7:00:00 AM 19.34 66.812 0.042 6.94 3.62 8.47
7/8/2021 7:15:00 AM 19.29 66.722 0.042 6.88 2.95 8.48
7/8/2021 7:30:00 AM 19.24 66.632 0.042 6.9 2.62 8.5
7/8/2021 7:45:00 AM 19.19 66.542 0.042 6.93 3.18 8.5
7/8/2021 8:00:00 AM 19.15 66.47 0.043 6.88 2.45 8.52
7/8/2021 8:15:00 AM 19.1 66.38 0.042 6.9 2.92 8.55
7/8/2021 8:30:00 AM 19.05 66.29 0.041 6.95 2.68 8.59
7/8/2021 8:45:00 AM 19.02 66.236 0.042 6.85 5.53 8.65
7/8/2021 9:00:00 AM 18.97 66.146 0.043 6.89 3.08 8.64
7/8/2021 9:15:00 AM 18.93 66.074 0.042 6.92 2.71 8.66
7/8/2021 9:30:00 AM 18.9 66.02 0.041 6.94 2.34 8.7
7/8/2021 9:45:00 AM 18.87 65.966 0.041 6.92 2.24 8.75
7/8/2021 10:00:00 AM 18.86 65.948 0.043 6.93 2.16 8.77
7/8/2021 10:15:00 AM 18.83 65.894 0.043 7 2.27 8.79
7/8/2021 10:30:00 AM 18.81 65.858 0.041 6.97 2.36 8.79
7/8/2021 10:45:00 AM 18.81 65.858 0.042 6.98 2.26 8.83
7/8/2021 11:00:00 AM 18.83 65.894 0.042 6.98 2.04 8.88
7/8/2021 11:15:00 AM 18.81 65.858 0.042 7 2.23 8.85
7/8/2021 11:30:00 AM 18.79 65.82201 0.042 7.01 1.97 8.81
7/8/2021 11:45:00 AM 18.81 65.858 0.042 7.05 1.89 8.87
7/8/2021 12:00:00 PM 18.85 65.93 0.042 7.02 2.56 8.92
7/8/2021 12:15:00 PM 18.86 65.948 0.041 7 2.44 8.9
7/8/2021 12:30:00 PM 18.87 65.966 0.041 7.08 1.78 8.88
7/8/2021 12:45:00 PM 18.87 65.966 0.042 7.02 2.42 8.87
7/8/2021 1:00:00 PM 18.88 65.984 0.041 7.03 2.14 8.86
7/8/2021 1:15:00 PM 18.88 65.984 0.041 7.05 2.07 8.86
7/8/2021 1:30:00 PM 18.89 66.002 0.041 7.01 2.19 8.85
7/8/2021 1:45:00 PM 18.94 66.092 0.04 7.03 1.96 8.87
7/8/2021 2:00:00 PM 18.97 66.146 0.038 7 1.38 8.9
7/8/2021 2:15:00 PM 18.99 66.182 0.04 7.06 2.05 8.85
7/8/2021 2:30:00 PM 18.99 66.182 0.04 7.03 2.39 8.8
7/8/2021 2:45:00 PM 19.04 66.272 0.041 7.04 2.45 8.88
7/8/2021 3:00:00 PM 19.08 66.344 0.04 7.04 1.63 8.87
7/8/2021 3:15:00 PM 19.1 66.38 0.04 7.08 1.92 8.82
7/8/2021 3:30:00 PM 19.08 66.344 0.042 7.04 1.67 8.73
7/8/2021 3:45:00 PM 19.09 66.362 0.041 7 1.95 8.78
7/8/2021 4:00:00 PM 19.13 66.434 0.042 7.07 1.65 8.85
7/8/2021 4:15:00 PM 19.22 66.596 0.042 7.08 2.52 8.87
7/8/2021 4:30:00 PM 19.25 66.65 0.042 7.06 1.65 8.85
7/8/2021 4:45:00 PM 19.27 66.686 0.041 7.11 1.84 8.8
7/8/2021 5:00:00 PM 19.25 66.65 0.031 7.03 1.33 8.73
7/8/2021 5:15:00 PM 19.22 66.596 0.041 7.03 1.66 8.66
7/8/2021 5:30:00 PM 19.21 66.578 0.041 6.9 3.63 8.69
7/8/2021 5:45:00 PM 19.21 66.578 0.041 6.93 5.18 8.67
7/8/2021 6:00:00 PM 19.19 66.542 0.041 6.97 1.9 8.62
7/8/2021 6:15:00 PM 19.19 66.542 0.041 6.86 1.67 8.61
7/8/2021 6:30:00 PM 19.19 66.542 0.042 6.93 1.53 8.61
7/8/2021 6:45:00 PM 19.19 66.542 0.041 6.97 1.45 8.62
7/8/2021 7:00:00 PM 19.18 66.524 0.041 6.96 1.72 8.61
7/8/2021 7:15:00 PM 19.17 66.506 0.041 6.91 1.63 8.58
7/8/2021 7:30:00 PM 19.15 66.47 0.043 6.94 1.48 8.57
7/8/2021 7:45:00 PM 19.13 66.434 0.042 6.91 1.66 8.55
7/8/2021 8:00:00 PM 19.1 66.38 0.043 6.88 1.71 8.53
7/8/2021 8:15:00 PM 19.09 66.362 0.043 6.86 1.37 8.53
7/8/2021 8:30:00 PM 19.08 66.344 0.042 6.92 1.68 8.5
7/8/2021 8:45:00 PM 19.06 66.308 0.043 6.83 1.06 8.5
7/8/2021 9:00:00 PM 19.05 66.29 0.042 6.9 1.87 8.5
7/8/2021 9:15:00 PM 19.03 66.254 0.042 6.84 6.55 8.5
7/8/2021 9:30:00 PM 19 66.2 0.043 6.84 1.6 8.5
7/8/2021 9:45:00 PM 18.99 66.182 0.044 6.86 1.33 8.51
7/8/2021 10:00:00 PM 18.97 66.146 0.043 6.88 1.59 8.51
7/8/2021 10:15:00 PM 18.95 66.11 0.042 6.88 1.5 8.52
7/8/2021 10:30:00 PM 18.94 66.092 0.043 6.92 1.6 8.52
7/8/2021 10:45:00 PM 18.91 66.038 0.044 6.85 1.84 8.52
7/8/2021 11:00:00 PM 18.89 66.002 0.042 6.87 1.5 8.52
7/8/2021 11:15:00 PM 18.87 65.966 0.042 6.84 2.14 8.53
7/8/2021 11:30:00 PM 18.85 65.93 0.042 6.8 2.26 8.54
7/8/2021 11:45:00 PM 18.82 65.876 0.044 6.91 1.52 8.54
7/9/2021 12:00:00 AM 18.8 65.84 0.044 6.87 1.77 8.54
7/9/2021 12:15:00 AM 18.78 65.804 0.043 6.84 1.86 8.53
7/9/2021 12:30:00 AM 18.76 65.768 0.041 6.89 1.65 8.53
7/9/2021 12:45:00 AM 18.73 65.714 0.044 6.86 1.03 8.54
7/9/2021 1:00:00 AM 18.7 65.66 0.042 6.9 1.93 8.55
7/9/2021 1:15:00 AM 18.68 65.624 0.044 6.9 1.78 8.55
7/9/2021 1:30:00 AM 18.65 65.57 0.043 6.89 1.37 8.56
7/9/2021 1:45:00 AM 18.62 65.516 0.042 6.83 3.55 8.56
7/9/2021 2:00:00 AM 18.6 65.48 0.042 6.9 1.31 8.56
7/9/2021 2:15:00 AM 18.57 65.426 0.044 6.78 1.16 8.57
7/9/2021 2:30:00 AM 18.55 65.39 0.035 6.87 0.98 8.58
7/9/2021 2:45:00 AM 18.53 65.354 0.042 6.93 2.01 8.58
7/9/2021 3:00:00 AM 18.5 65.3 0.043 6.93 3.67 8.59
7/9/2021 3:15:00 AM 18.47 65.246 0.042 6.91 1.37 8.59
7/9/2021 3:30:00 AM 18.44 65.192 0.044 6.73 1.21 8.59
7/9/2021 3:45:00 AM 18.41 65.138 0.043 6.9 1.6 8.59
7/9/2021 4:00:00 AM 18.38 65.084 0.044 6.91 2.85 8.61
7/9/2021 4:15:00 AM 18.34 65.012 0.044 6.76 1.96 8.63
7/9/2021 4:30:00 AM 18.31 64.958 0.043 6.94 2.14 8.62
7/9/2021 4:45:00 AM 18.26 64.868 0.042 6.95 1.64 8.64
7/9/2021 5:00:00 AM 18.23 64.814 0.042 6.94 1.74 8.65
7/9/2021 5:15:00 AM 18.19 64.742 0.042 6.96 2.01 8.65
7/9/2021 5:30:00 AM 18.15 64.67 0.042 6.9 3.15 8.67
7/9/2021 5:45:00 AM 18.12 64.616 0.042 6.96 2.07 8.67
7/9/2021 6:00:00 AM 18.09 64.562 0.042 6.95 2.43 8.68
7/9/2021 6:15:00 AM 18.05 64.49 0.041 6.94 1.39 8.7
7/9/2021 6:30:00 AM 18.01 64.418 0.044 6.9 1.77 8.72
7/9/2021 6:45:00 AM 17.98 64.364 0.043 6.89 2.75 8.74
7/9/2021 7:00:00 AM 17.95 64.31 0.044 6.94 2.47 8.76
7/9/2021 7:15:00 AM 17.92 64.256 0.044 6.93 1.98 8.77
7/9/2021 7:30:00 AM 17.89 64.202 0.042 6.9 1.91 8.8
7/9/2021 7:45:00 AM 17.87 64.166 0.042 6.93 1.93 8.83
7/9/2021 8:00:00 AM 17.87 64.166 0.042 6.94 2.98 8.88
7/9/2021 8:15:00 AM 17.86 64.148 0.042 6.95 2.04 8.9
7/9/2021 8:30:00 AM 17.85 64.13 0.042 6.92 2.33 8.88
7/9/2021 8:45:00 AM 17.85 64.13 0.044 6.95 1.43 8.91
7/9/2021 9:00:00 AM 17.85 64.13 0.037 6.95 0.93 8.94
7/9/2021 9:15:00 AM 17.84 64.112 0.044 6.96 1.97 8.91
7/9/2021 9:30:00 AM 17.86 64.148 0.044 7 1.79 8.98
7/9/2021 9:45:00 AM 17.9 64.22 0.044 7.05 2.06 8.99
7/9/2021 10:00:00 AM 17.92 64.256 0.044 7.05 1.46 9.01
7/9/2021 10:15:00 AM 17.97 64.346 0.044 7.07 1.25 9.05
7/9/2021 10:30:00 AM 17.99 64.382 0.042 7.08 2.23 9
7/9/2021 10:45:00 AM 18.03 64.454 0.044 7.05 1.46 9.03
7/9/2021 11:00:00 AM 18.07 64.526 0.043 7.06 2.37 9.06
7/9/2021 11:15:00 AM 18.15 64.67 0.042 7.1 2.12 9.07
7/9/2021 11:30:00 AM 18.18 64.724 0.04 7.1 1.13 9.03
7/9/2021 11:45:00 AM 18.19 64.742 0.042 7.07 2.39 8.98
7/9/2021 12:00:00 PM 18.23 64.814 0.042 7.08 1.32 8.98
7/9/2021 12:15:00 PM 18.25 64.85 0.042 7.08 1.62 9.01
7/9/2021 12:30:00 PM 18.29 64.922 0.041 7.08 1.81 9
7/9/2021 12:45:00 PM 18.41 65.138 0.042 7.09 1.65 9.04
7/9/2021 1:00:00 PM 18.62 65.516 0.041 7.12 1.08 9.04
7/9/2021 1:15:00 PM 18.6 65.48 0.042 7.12 1.97 8.94
7/9/2021 1:30:00 PM 18.66 65.588 0.041 7.11 1.79 8.99
7/9/2021 1:45:00 PM 18.86 65.948 0.041 7.16 2.24 9
7/9/2021 2:00:00 PM 19.06 66.308 0.041 7.13 1.61 8.98
7/9/2021 2:15:00 PM 19.13 66.434 0.041 7.17 1.95 8.93
7/9/2021 2:30:00 PM 19.35 66.83 0.041 7.17 1.45 8.93
7/9/2021 2:45:00 PM 19.31 66.758 0.041 7.17 1.61 8.82
7/9/2021 3:00:00 PM 19.34 66.812 0.038 7.06 6.4 8.68
7/9/2021 3:15:00 PM 19.28 66.704 0.039 6.95 5.48 8.66
7/9/2021 3:30:00 PM 19.37 66.866 0.04 7.05 4.02 8.69
7/9/2021 3:45:00 PM 19.42 66.956 0.04 7.03 2.53 8.69
7/9/2021 4:00:00 PM 19.43 66.974 0.04 7.08 2.78 8.69
7/9/2021 4:15:00 PM 19.48 67.064 0.04 7.08 3.47 8.7
7/9/2021 4:30:00 PM 19.55 67.19 0.04 7.07 1.96 8.68
7/9/2021 4:45:00 PM 19.51 67.118 0.04 7.07 2.41 8.63
7/9/2021 5:00:00 PM 19.53 67.154 0.04 7.07 2.58 8.66
7/9/2021 5:15:00 PM 19.53 67.154 0.04 7.06 2.44 8.66
7/9/2021 5:30:00 PM 19.58 67.244 0.04 7.07 4.18 8.66
7/9/2021 5:45:00 PM 19.56 67.208 0.04 7.04 2.85 8.62
7/9/2021 6:00:00 PM 19.53 67.154 0.042 7.04 2.91 8.59
7/9/2021 6:15:00 PM 19.49 67.082 0.04 7 2.37 8.57
7/9/2021 6:30:00 PM 19.42 66.956 0.041 7.04 2.37 8.55
7/9/2021 6:45:00 PM 19.36 66.848 0.041 7.01 2.79 8.56
7/9/2021 7:00:00 PM 19.31 66.758 0.042 6.96 2.32 8.54
7/9/2021 7:15:00 PM 19.28 66.704 0.042 6.93 2.5 8.52
7/9/2021 7:30:00 PM 19.24 66.632 0.041 6.95 2.16 8.51
7/9/2021 7:45:00 PM 19.21 66.578 0.041 6.95 2.63 8.52
7/9/2021 8:00:00 PM 19.19 66.542 0.041 6.83 3.08 8.53
7/9/2021 8:15:00 PM 19.17 66.506 0.042 6.96 2.92 8.52
7/9/2021 8:30:00 PM 19.14 66.452 0.04 6.98 3.22 8.52
7/9/2021 8:45:00 PM 19.1 66.38 0.041 6.93 3.04 8.52
7/9/2021 9:00:00 PM 19.07 66.326 0.036 6.96 2.49 8.51
7/9/2021 9:15:00 PM 19.02 66.236 0.041 6.97 3.06 8.52
7/9/2021 9:30:00 PM 18.99 66.182 0.041 7.02 3.8 8.53
7/9/2021 9:45:00 PM 18.95 66.11 0.041 6.97 3.23 8.55
7/9/2021 10:00:00 PM 18.91 66.038 0.042 6.99 2.57 8.54
7/9/2021 10:15:00 PM 18.87 65.966 0.041 6.97 3.63 8.57
7/9/2021 10:30:00 PM 18.82 65.876 0.041 6.89 3.51 8.57
7/9/2021 10:45:00 PM 18.76 65.768 0.036 6.93 1.65 8.59
7/9/2021 11:00:00 PM 18.69 65.642 0.042 6.97 2.59 8.61
7/9/2021 11:15:00 PM 18.62 65.516 0.042 6.96 3.44 8.62
7/9/2021 11:30:00 PM 18.55 65.39 0.042 7.01 1.99 8.61
7/9/2021 11:45:00 PM 18.47 65.246 0.042 7.01 2.47 8.64
7/10/2021 12:00:00 AM 18.39 65.102 0.042 6.96 2.95 8.65
7/10/2021 12:15:00 AM 18.32 64.976 0.042 6.94 2.6 8.66
7/10/2021 12:30:00 AM 18.24 64.832 0.042 7.02 6.1 8.68
7/10/2021 12:45:00 AM 18.15 64.67 0.043 6.96 2.95 8.7
7/10/2021 1:00:00 AM 18.07 64.526 0.042 6.97 2.48 8.72
7/10/2021 1:15:00 AM 17.99 64.382 0.043 6.94 2.07 8.74
7/10/2021 1:30:00 AM 17.9 64.22 0.043 6.98 2.34 8.75
7/10/2021 1:45:00 AM 17.82 64.076 0.042 6.94 1.92 8.76
7/10/2021 2:00:00 AM 17.74 63.932 0.043 6.92 2.24 8.77
7/10/2021 2:15:00 AM 17.66 63.788 0.042 6.98 2.17 8.79
7/10/2021 2:30:00 AM 17.58 63.644 0.042 6.97 2.56 8.82
7/10/2021 2:45:00 AM 17.49 63.482 0.043 6.93 1.68 8.81
7/10/2021 3:00:00 AM 17.42 63.356 0.042 6.98 1.82 8.85
7/10/2021 3:15:00 AM 17.34 63.212 0.043 7 1.68 8.88
7/10/2021 3:30:00 AM 17.27 63.086 0.043 6.96 1.65 8.88
7/10/2021 3:45:00 AM 17.2 62.96 0.042 6.93 1.77 8.89
7/10/2021 4:00:00 AM 17.14 62.852 0.041 6.97 1.52 8.9
7/10/2021 4:15:00 AM 17.06 62.708 0.043 6.92 4.94 8.92
7/10/2021 4:30:00 AM 17 62.6 0.043 6.84 1.55 8.92
7/10/2021 4:45:00 AM 16.94 62.492 0.043 6.99 1.9 8.94
7/10/2021 5:00:00 AM 16.87 62.366 0.042 6.99 1.76 8.96
7/10/2021 5:15:00 AM 16.79 62.222 0.042 6.89 3.47 8.99
7/10/2021 5:30:00 AM 16.73 62.114 0.043 6.84 1.15 9
7/10/2021 5:45:00 AM 16.68 62.024 0.043 6.85 6.08 9.01
7/10/2021 6:00:00 AM 16.62 61.916 0.043 6.85 2.04 9.03
7/10/2021 6:15:00 AM 16.56 61.808 0.043 6.99 1.2 9.05
7/10/2021 6:30:00 AM 16.52 61.736 0.043 6.95 1.09 9.07
7/10/2021 6:45:00 AM 16.46 61.628 0.042 6.94 2.29 9.09
7/10/2021 7:00:00 AM 16.4 61.52 0.041 6.98 3.14 9.12
7/10/2021 7:15:00 AM 16.34 61.412 0.042 6.99 2.39 9.14
7/10/2021 7:30:00 AM 16.29 61.322 0.042 7.02 3.16 9.16
7/10/2021 7:45:00 AM 16.24 61.232 0.042 6.97 2.06 9.18
7/10/2021 8:00:00 AM 16.19 61.142 0.043 6.95 1.89 9.2
7/10/2021 8:15:00 AM 16.16 61.088 0.043 6.94 1.51 9.22
7/10/2021 8:30:00 AM 16.14 61.052 0.043 6.98 1.77 9.23
7/10/2021 8:45:00 AM 16.13 61.034 0.042 7.01 1.43 9.25
7/10/2021 9:00:00 AM 16.13 61.034 0.042 6.99 1.28 9.27
7/10/2021 9:15:00 AM 16.16 61.088 0.042 6.94 1.57 9.28
7/10/2021 9:30:00 AM 16.2 61.16 0.043 6.99 1.27 9.31
7/10/2021 9:45:00 AM 16.25 61.25 0.042 7.01 1.08 9.33
7/10/2021 10:00:00 AM 16.31 61.358 0.041 7.04 2.21 9.34
7/10/2021 10:15:00 AM 16.39 61.502 0.04 7.08 1.28 9.36
7/10/2021 10:30:00 AM 16.46 61.628 0.041 7.06 1.15 9.33
7/10/2021 10:45:00 AM 16.54 61.772 0.043 6.99 2.25 9.35
7/10/2021 11:00:00 AM 16.61 61.898 0.041 7.07 1.57 9.36
7/10/2021 11:15:00 AM 16.72 62.096 0.041 7.09 1.74 9.36
7/10/2021 11:30:00 AM 16.81 62.258 0.042 7.12 1.85 9.33
7/10/2021 11:45:00 AM 16.95 62.51 0.041 7.06 1.57 9.3
7/10/2021 12:00:00 PM 17.12 62.816 0.042 7.1 1.82 9.33
7/10/2021 12:15:00 PM 17.29 63.122 0.041 7.12 1.41 9.32
7/10/2021 12:30:00 PM 17.5 63.5 0.042 7.16 1.29 9.32
7/10/2021 12:45:00 PM 17.59 63.662 0.041 7.13 1.42 9.27
7/10/2021 1:00:00 PM 17.66 63.788 0.042 7.16 1.35 9.26
7/10/2021 1:15:00 PM 17.72 63.896 0.041 7.16 1.57 9.24
7/10/2021 1:30:00 PM 17.82 64.076 0.042 7.02 1.23 9.27
7/10/2021 1:45:00 PM 17.83 64.094 0.041 7.1 1.89 9.21
7/10/2021 2:00:00 PM 17.88 64.184 0.042 7.15 1.55 9.24
7/10/2021 2:15:00 PM 17.91 64.238 0.042 7.17 3.33 9.21
7/10/2021 2:30:00 PM 17.96 64.328 0.042 7.1 0.88 9.19
7/10/2021 2:45:00 PM 18.03 64.454 0.04 7.12 1.17 9.18
7/10/2021 3:00:00 PM 18.11 64.598 0.031 7.2 0.95 9.17
7/10/2021 3:15:00 PM 18.15 64.67 0.04 7.14 1.11 9.14
7/10/2021 3:30:00 PM 18.18 64.724 0.037 7.14 0.93 9.13
7/10/2021 3:45:00 PM 18.27 64.886 0.041 7.12 2.88 9.15
7/10/2021 4:00:00 PM 18.41 65.138 0.042 7.19 2.59 9.16
7/10/2021 4:15:00 PM 18.42 65.156 0.041 7.19 1.62 9.13
7/10/2021 4:30:00 PM 18.44 65.192 0.041 7.23 1.86 9.11
7/10/2021 4:45:00 PM 18.49 65.282 0.042 7.16 1.44 9.09
7/10/2021 5:00:00 PM 18.46 65.228 0.042 7.01 0.86 9.06
7/10/2021 5:15:00 PM 18.45 65.21 0.042 7.07 0.64 9.02
7/10/2021 5:30:00 PM 18.45 65.21 0.041 7.16 1.56 9.01
7/10/2021 5:45:00 PM 18.43 65.174 0.042 6.98 1.26 8.97
7/10/2021 6:00:00 PM 18.43 65.174 0.041 7.06 1.67 8.95
7/10/2021 6:15:00 PM 18.45 65.21 0.041 7.11 1.45 8.94
7/10/2021 6:30:00 PM 18.46 65.228 0.042 7.03 1.76 8.91
7/10/2021 6:45:00 PM 18.46 65.228 0.039 6.97 1.03 8.88
7/10/2021 7:00:00 PM 18.45 65.21 0.041 6.97 1.22 8.85
7/10/2021 7:15:00 PM 18.43 65.174 0.041 6.89 1.44 8.82
7/10/2021 7:30:00 PM 18.41 65.138 0.042 7.04 1.23 8.81
7/10/2021 7:45:00 PM 18.38 65.084 0.043 6.95 3.98 8.8
7/10/2021 8:00:00 PM 18.35 65.03 0.043 6.92 1.73 8.79
7/10/2021 8:15:00 PM 18.31 64.958 0.043 6.97 1.37 8.76
7/10/2021 8:30:00 PM 18.27 64.886 0.043 6.96 1.44 8.75
7/10/2021 8:45:00 PM 18.24 64.832 0.04 6.99 1.16 8.74
7/10/2021 9:00:00 PM 18.2 64.76 0.042 6.94 1.55 8.75
7/10/2021 9:15:00 PM 18.16 64.688 0.043 6.99 1.79 8.74
7/10/2021 9:30:00 PM 18.12 64.616 0.042 7.03 1.65 8.75
7/10/2021 9:45:00 PM 18.07 64.526 0.043 6.78 0.24 8.75
7/10/2021 10:00:00 PM 18.03 64.454 0.043 6.86 1.61 8.75
7/10/2021 10:15:00 PM 17.99 64.382 0.043 6.97 1.38 8.76
7/10/2021 10:30:00 PM 17.95 64.31 0.04 6.98 1.31 8.77
7/10/2021 10:45:00 PM 17.9 64.22 0.042 7.02 1.53 8.79
7/10/2021 11:00:00 PM 17.86 64.148 0.044 7 1.39 8.79
7/10/2021 11:15:00 PM 17.81 64.058 0.044 6.96 0.96 8.79
7/10/2021 11:30:00 PM 17.76 63.968 0.044 6.89 0.44 8.81
7/10/2021 11:45:00 PM 17.7 63.86 0.043 6.97 1.37 8.82
7/11/2021 12:00:00 AM 17.65 63.77 0.042 6.98 1.9 8.83
7/11/2021 12:15:00 AM 17.59 63.662 0.042 6.98 1.24 8.84
7/11/2021 12:30:00 AM 17.54 63.572 0.042 6.96 2.38 8.86
7/11/2021 12:45:00 AM 17.48 63.464 0.044 6.94 0.97 8.86
7/11/2021 1:00:00 AM 17.43 63.374 0.043 6.95 1.45 8.87
7/11/2021 1:15:00 AM 17.37 63.266 0.044 6.83 0.58 8.88
7/11/2021 1:30:00 AM 17.31 63.158 0.043 6.91 1.58 8.89
7/11/2021 1:45:00 AM 17.25 63.05 0.044 7 1.82 8.9
7/11/2021 2:00:00 AM 17.19 62.942 0.044 6.94 1.35 8.92
7/11/2021 2:15:00 AM 17.13 62.834 0.043 6.99 2.14 8.93
7/11/2021 2:30:00 AM 17.07 62.726 0.035 6.95 0.72 8.95
7/11/2021 2:45:00 AM 17.01 62.618 0.044 6.88 1.38 8.95
7/11/2021 3:00:00 AM 16.95 62.51 0.044 6.96 1.35 8.97
7/11/2021 3:15:00 AM 16.89 62.402 0.042 7.02 1.51 8.98
7/11/2021 3:30:00 AM 16.84 62.312 0.044 6.95 1.38 9
7/11/2021 3:45:00 AM 16.79 62.222 0.043 6.94 1.09 9.01
7/11/2021 4:00:00 AM 16.74 62.132 0.043 6.96 1.51 9.02
7/11/2021 4:15:00 AM 16.7 62.06 0.044 6.96 1.32 9.04
7/11/2021 4:30:00 AM 16.65 61.97 0.044 6.95 1.03 9.04
7/11/2021 4:45:00 AM 16.61 61.898 0.043 6.99 2.3 9.05
7/11/2021 5:00:00 AM 16.56 61.808 0.044 6.92 0.8 9.06
7/11/2021 5:15:00 AM 16.52 61.736 0.044 6.87 0.61 9.07
7/11/2021 5:30:00 AM 16.49 61.682 0.043 6.93 1.37 9.08
7/11/2021 5:45:00 AM 16.44 61.592 0.044 6.93 1.3 9.09
7/11/2021 6:00:00 AM 16.41 61.538 0.044 6.85 0.84 9.09
7/11/2021 6:15:00 AM 16.37 61.466 0.044 6.91 0.83 9.11
7/11/2021 6:30:00 AM 16.34 61.412 0.044 6.91 0.89 9.13
7/11/2021 6:45:00 AM 16.32 61.376 0.044 6.93 1.21 9.13
7/11/2021 7:00:00 AM 16.28 61.304 0.044 6.89 1.42 9.15
7/11/2021 7:15:00 AM 16.25 61.25 0.044 6.87 0.98 9.16
7/11/2021 7:30:00 AM 16.24 61.232 0.044 6.9 0.94 9.19
7/11/2021 7:45:00 AM 16.22 61.196 0.044 6.97 1.26 9.18
7/11/2021 8:00:00 AM 16.21 61.178 0.044 6.87 1.21 9.2
7/11/2021 8:15:00 AM 16.19 61.142 0.044 6.85 1.21 9.22
7/11/2021 8:30:00 AM 16.18 61.124 0.044 6.97 1.47 9.22
7/11/2021 8:45:00 AM 16.17 61.106 0.044 6.94 0.78 9.23
7/11/2021 9:00:00 AM 16.18 61.124 0.044 6.89 1.01 9.24
7/11/2021 9:15:00 AM 16.17 61.106 0.044 7 0.97 9.28
7/11/2021 9:30:00 AM 16.2 61.16 0.044 7.02 1.39 9.36
7/11/2021 9:45:00 AM 16.24 61.232 0.043 7 1.09 9.38
7/11/2021 10:00:00 AM 16.29 61.322 0.042 7.02 1.12 9.41
7/11/2021 10:15:00 AM 16.33 61.394 0.044 7.01 1.43 9.44
7/11/2021 10:30:00 AM 16.36 61.448 0.042 7.05 1.51 9.41
7/11/2021 10:45:00 AM 16.38 61.484 0.042 7.04 1.46 9.37
7/11/2021 11:00:00 AM 16.4 61.52 0.042 7.02 1.83 9.38
7/11/2021 11:15:00 AM 16.45 61.61 0.043 7.03 1.94 9.39
7/11/2021 11:30:00 AM 16.47 61.646 0.043 7.02 1.36 9.36
7/11/2021 11:45:00 AM 16.5 61.7 0.043 7.03 1.1 9.33
7/11/2021 12:00:00 PM 16.53 61.754 0.042 7.05 1.18 9.35
7/11/2021 12:15:00 PM 16.57 61.826 0.043 6.97 1.73 9.36
7/11/2021 12:30:00 PM 16.6 61.88 0.043 7.02 1.29 9.32
7/11/2021 12:45:00 PM 16.63 61.934 0.043 6.9 1.23 9.33
7/11/2021 1:00:00 PM 16.65 61.97 0.043 7.03 0.86 9.31
7/11/2021 1:15:00 PM 16.67 62.006 0.043 7.07 1.13 9.31
7/11/2021 1:30:00 PM 16.71 62.078 0.043 6.94 0.97 9.29
7/11/2021 1:45:00 PM 16.74 62.132 0.043 7.04 1.23 9.29
7/11/2021 2:00:00 PM 16.76 62.168 0.043 6.99 1.15 9.27
7/11/2021 2:15:00 PM 16.77 62.186 0.043 6.98 1.03 9.24
7/11/2021 2:30:00 PM 16.78 62.204 0.043 7.02 1.21 9.21
7/11/2021 2:45:00 PM 16.8 62.24 0.043 7.01 1.4 9.21
7/11/2021 3:00:00 PM 16.85 62.33 0.041 7 1.06 9.25
7/11/2021 3:15:00 PM 16.9 62.42 0.043 6.99 1.26 9.3
7/11/2021 3:30:00 PM 16.94 62.492 0.043 6.99 1.76 9.27
7/11/2021 3:45:00 PM 16.99 62.582 0.043 6.95 1.22 9.29
7/11/2021 4:00:00 PM 17.07 62.726 0.043 7.13 1.16 9.29
7/11/2021 4:15:00 PM 17.11 62.798 0.042 7.08 1.27 9.28
7/11/2021 4:30:00 PM 17.18 62.924 0.041 7.08 1.64 9.29
7/11/2021 4:45:00 PM 17.19 62.942 0.043 7.05 1.03 9.24
7/11/2021 5:00:00 PM 17.2 62.96 0.042 7.06 1.25 9.18
7/11/2021 5:15:00 PM 17.23 63.014 0.041 6.99 0.96 9.12
7/11/2021 5:30:00 PM 17.25 63.05 0.042 7.06 1.08 9.12
7/11/2021 5:45:00 PM 17.26 63.068 0.042 7.12 0.93 9.07
7/11/2021 6:00:00 PM 17.27 63.086 0.042 6.97 0.94 9.01
7/11/2021 6:15:00 PM 17.29 63.122 0.042 7.07 1.67 8.97
7/11/2021 6:30:00 PM 17.36 63.248 0.041 6.91 1.91 8.91
7/11/2021 6:45:00 PM 17.39 63.302 0.042 6.96 1.98 8.87
7/11/2021 7:00:00 PM 17.41 63.338 0.041 7.05 2 8.86
7/11/2021 7:15:00 PM 17.83 64.094 0.037 6.94 7.11 8.84
7/11/2021 7:30:00 PM 17.83 64.094 0.038 6.92 12.04 8.71
7/11/2021 7:45:00 PM 17.74 63.932 0.039 6.82 5.53 8.7
7/11/2021 8:00:00 PM 17.69 63.842 0.039 6.86 4.6 8.7
7/11/2021 8:15:00 PM 17.65 63.77 0.039 6.81 5.26 8.71
7/11/2021 8:30:00 PM 17.6 63.68 0.04 6.83 5.22 8.74
7/11/2021 8:45:00 PM 17.58 63.644 0.04 6.79 4.61 8.72
7/11/2021 9:00:00 PM 17.55 63.59 0.04 6.79 4.94 8.74
7/11/2021 9:15:00 PM 17.52 63.536 0.04 6.8 4.27 8.75
7/11/2021 9:30:00 PM 17.49 63.482 0.041 6.82 4.05 8.78
7/11/2021 9:45:00 PM 17.46 63.428 0.041 6.83 4.84 8.78
7/11/2021 10:00:00 PM 17.43 63.374 0.041 6.78 5.55 8.8
7/11/2021 10:15:00 PM 17.4 63.32 0.041 6.78 5.83 8.81
7/11/2021 10:30:00 PM 17.37 63.266 0.04 6.7 4.12 8.83
7/11/2021 10:45:00 PM 17.34 63.212 0.041 6.76 6.6 8.84
7/11/2021 11:00:00 PM 17.3 63.14 0.041 6.76 6.15 8.86
7/11/2021 11:15:00 PM 17.26 63.068 0.041 6.62 7.83 8.87
7/11/2021 11:30:00 PM 17.22 62.996 0.041 6.77 5.45 8.88
7/11/2021 11:45:00 PM 17.18 62.924 0.041 6.77 5.65 8.9
7/12/2021 12:00:00 AM 17.14 62.852 0.041 6.78 7.26 8.92
7/12/2021 12:15:00 AM 17.09 62.762 0.041 6.69 12.25 8.93
7/12/2021 12:30:00 AM 17.05 62.69 0.041 6.72 11.93 8.95
7/12/2021 12:45:00 AM 17 62.6 0.041 6.83 10.83 8.95
7/12/2021 1:00:00 AM 16.94 62.492 0.04 6.67 10.97 8.99
7/12/2021 1:15:00 AM 16.88 62.384 0.04 6.7 9.42 9.01
7/12/2021 1:30:00 AM 16.82 62.276 0.04 6.66 8.58 9.02
7/12/2021 1:45:00 AM 16.77 62.186 0.04 6.7 7.69 9.04
7/12/2021 2:00:00 AM 16.71 62.078 0.04 6.68 6.88 9.05
7/12/2021 2:15:00 AM 16.66 61.988 0.041 6.72 6.66 9.06
7/12/2021 2:30:00 AM 16.61 61.898 0.04 6.6 5.48 9.07
7/12/2021 2:45:00 AM 16.56 61.808 0.04 6.71 5.73 9.08
7/12/2021 3:00:00 AM 16.51 61.718 0.04 6.62 5.27 9.09
7/12/2021 3:15:00 AM 16.47 61.646 0.04 6.59 4.52 9.1
7/12/2021 3:30:00 AM 16.42 61.556 0.04 6.58 4.34 9.11
7/12/2021 3:45:00 AM 16.39 61.502 0.039 6.71 3.44 9.12
7/12/2021 4:00:00 AM 16.36 61.448 0.04 6.68 4.19 9.12
7/12/2021 4:15:00 AM 16.33 61.394 0.04 6.66 3.65 9.13
7/12/2021 4:30:00 AM 16.3 61.34 0.041 6.61 3.28 9.12
7/12/2021 4:45:00 AM 16.27 61.286 0.04 6.64 4.07 9.14
7/12/2021 5:00:00 AM 16.26 61.268 0.04 6.64 3.61 9.13
7/12/2021 5:15:00 AM 16.24 61.232 0.041 6.69 3.28 9.14
7/12/2021 5:30:00 AM 16.22 61.196 0.04 6.67 3.74 9.15
7/12/2021 5:45:00 AM 16.21 61.178 0.04 6.67 4.14 9.15
7/12/2021 6:00:00 AM 16.19 61.142 0.04 6.65 3.41 9.15
7/12/2021 6:15:00 AM 16.18 61.124 0.04 6.67 3.03 9.16
7/12/2021 6:30:00 AM 16.17 61.106 0.04 6.62 3.92 9.17
7/12/2021 6:45:00 AM 16.16 61.088 0.04 6.71 3.29 9.18
7/12/2021 7:00:00 AM 16.16 61.088 0.04 6.66 2.69 9.18
7/12/2021 7:15:00 AM 16.15 61.07 0.04 6.61 3.33 9.2
7/12/2021 7:30:00 AM 16.15 61.07 0.04 6.66 3.18 9.22
7/12/2021 7:45:00 AM 16.16 61.088 0.04 6.69 2.13 9.25
7/12/2021 8:00:00 AM 16.17 61.106 0.04 6.67 2.66 9.28
7/12/2021 8:15:00 AM 16.2 61.16 0.04 6.67 2.61 9.32
7/12/2021 8:30:00 AM 16.21 61.178 0.04 6.72 2.53 9.3
7/12/2021 8:45:00 AM 16.23 61.214 0.04 6.74 2.48 9.3
7/12/2021 9:00:00 AM 16.24 61.232 0.041 6.73 2.02 9.33
7/12/2021 9:15:00 AM 16.27 61.286 0.041 6.73 2.44 9.33
7/12/2021 9:30:00 AM 16.29 61.322 0.041 6.73 2.09 9.35
7/12/2021 9:45:00 AM 16.33 61.394 0.041 6.7 2.41 9.36
7/12/2021 10:00:00 AM 16.38 61.484 0.04 6.76 2.1 9.35
7/12/2021 10:15:00 AM 16.45 61.61 0.04 6.87 1.91 9.39
7/12/2021 10:30:00 AM 16.53 61.754 0.041 6.87 2.35 9.41
7/12/2021 10:45:00 AM 16.59 61.862 0.04 6.88 2.23 9.41
7/12/2021 11:00:00 AM 16.63 61.934 0.04 6.93 2.05 9.39
7/12/2021 11:15:00 AM 16.71 62.078 0.04 6.97 2.11 9.41
7/12/2021 11:30:00 AM 16.79 62.222 0.04 6.95 2.24 9.41
7/12/2021 11:45:00 AM 16.86 62.348 0.04 6.97 2.06 9.4
7/12/2021 12:00:00 PM 16.97 62.546 0.04 6.85 2.2 9.37
7/12/2021 12:15:00 PM 17.16 62.888 0.041 7.02 1.5 9.37
7/12/2021 12:30:00 PM 17.28 63.104 0.04 7.04 2.1 9.36
7/12/2021 12:45:00 PM 17.41 63.338 0.04 7.04 2.07 9.35
7/12/2021 1:00:00 PM 17.52 63.536 0.04 7.09 2.2 9.3
7/12/2021 1:15:00 PM 17.61 63.698 0.04 6.89 3.47 9.29
7/12/2021 1:30:00 PM 17.73 63.914 0.04 7.1 2.14 9.28
7/12/2021 1:45:00 PM 18.01 64.418 0.04 7.03 1.82 9.27
7/12/2021 2:00:00 PM 18.17 64.706 0.04 7.08 1.74 9.21
7/12/2021 2:15:00 PM 18.26 64.868 0.04 7.04 1.73 9.19
7/12/2021 2:30:00 PM 18.43 65.174 0.04 7.09 1.85 9.15
7/12/2021 2:45:00 PM 18.68 65.624 0.04 7.16 1.76 9.13
7/12/2021 3:00:00 PM 18.75 65.75 0.039 7.09 2.43 9.09
7/12/2021 3:15:00 PM 18.87 65.966 0.04 7.11 1.99 9.08
7/12/2021 3:30:00 PM 18.95 66.11 0.041 7.16 1.44 9.04
7/12/2021 3:45:00 PM 18.98 66.164 0.041 7.14 1.77 9.01
7/12/2021 4:00:00 PM 19.06 66.308 0.041 7.08 2.34 8.97
7/12/2021 4:15:00 PM 19.12 66.416 0.04 7.06 1.81 8.95
7/12/2021 4:30:00 PM 19.12 66.416 0.04 7.03 2.39 8.91
7/12/2021 4:45:00 PM 19.17 66.506 0.04 7 2.34 8.91
7/12/2021 5:00:00 PM 19.19 66.542 0.04 7.08 2.57 8.9
7/12/2021 5:15:00 PM 19.19 66.542 0.04 7.09 2.36 8.86
7/12/2021 5:30:00 PM 19.2 66.56 0.041 7.02 1.7 8.86
7/12/2021 5:45:00 PM 19.2 66.56 0.041 7.08 1.59 8.81
7/12/2021 6:00:00 PM 19.16 66.488 0.04 7 1.52 8.77
7/12/2021 6:15:00 PM 19.14 66.452 0.04 6.98 1.55 8.75
7/12/2021 6:30:00 PM 19.12 66.416 0.04 6.97 1.94 8.77
7/12/2021 6:45:00 PM 19.1 66.38 0.041 7.01 1.39 8.77
7/12/2021 7:00:00 PM 19.09 66.362 0.041 6.97 1.53 8.77
7/12/2021 7:15:00 PM 19.09 66.362 0.041 6.93 1.44 8.77
7/12/2021 7:30:00 PM 19.09 66.362 0.041 6.91 1.82 8.74
7/12/2021 7:45:00 PM 19.1 66.38 0.041 6.95 2.15 8.71
7/12/2021 8:00:00 PM 19.08 66.344 0.041 6.92 1.2 8.68
7/12/2021 8:15:00 PM 19.07 66.326 0.041 6.86 1.83 8.66
7/12/2021 8:30:00 PM 19.04 66.272 0.041 6.91 1.77 8.63
7/12/2021 8:45:00 PM 19.03 66.254 0.041 6.91 1.66 8.61
7/12/2021 9:00:00 PM 19.01 66.218 0.041 6.92 1.54 8.61
7/12/2021 9:15:00 PM 18.99 66.182 0.041 6.92 1.86 8.59
7/12/2021 9:30:00 PM 18.96 66.128 0.041 6.93 1.81 8.6
7/12/2021 9:45:00 PM 18.93 66.074 0.041 6.89 1.52 8.6
7/12/2021 10:00:00 PM 18.9 66.02 0.041 6.77 1.68 8.61
7/12/2021 10:15:00 PM 18.86 65.948 0.041 6.84 1.77 8.63
7/12/2021 10:30:00 PM 18.83 65.894 0.042 6.82 2.14 8.63
7/12/2021 10:45:00 PM 18.79 65.82201 0.041 6.83 2.38 8.64
7/12/2021 11:00:00 PM 18.74 65.732 0.041 6.86 2.35 8.65
7/12/2021 11:15:00 PM 18.71 65.67799 0.042 6.82 1.8 8.66
7/12/2021 11:30:00 PM 18.67 65.606 0.041 6.83 1.42 8.66
7/12/2021 11:45:00 PM 18.63 65.534 0.041 6.81 1.52 8.66
7/13/2021 12:00:00 AM 18.58 65.444 0.042 6.8 1.83 8.67
7/13/2021 12:15:00 AM 18.54 65.372 0.041 6.83 2.15 8.68
7/13/2021 12:30:00 AM 18.5 65.3 0.041 6.81 1.7 8.68
7/13/2021 12:45:00 AM 18.46 65.228 0.041 6.83 1.7 8.7
7/13/2021 1:00:00 AM 18.41 65.138 0.041 6.77 1.37 8.71
7/13/2021 1:15:00 AM 18.37 65.066 0.041 6.76 1.38 8.72
7/13/2021 1:30:00 AM 18.32 64.976 0.041 6.84 1.89 8.73
7/13/2021 1:45:00 AM 18.27 64.886 0.041 6.79 1.91 8.74
7/13/2021 2:00:00 AM 18.23 64.814 0.043 6.76 2.14 8.74
7/13/2021 2:15:00 AM 18.18 64.724 0.041 6.76 3.55 8.75
7/13/2021 2:30:00 AM 18.13 64.634 0.041 6.79 2.05 8.76
7/13/2021 2:45:00 AM 18.07 64.526 0.041 6.8 1.87 8.78
7/13/2021 3:00:00 AM 18.02 64.436 0.041 6.78 2 8.8
7/13/2021 3:15:00 AM 17.97 64.346 0.041 6.75 1.02 8.81
7/13/2021 3:30:00 AM 17.93 64.274 0.041 6.81 2.44 8.81
7/13/2021 3:45:00 AM 17.87 64.166 0.041 6.84 2.81 8.83
7/13/2021 4:00:00 AM 17.83 64.094 0.041 6.79 1.67 8.83
7/13/2021 4:15:00 AM 17.78 64.004 0.041 6.78 2.16 8.84
7/13/2021 4:30:00 AM 17.74 63.932 0.042 6.77 1.68 8.85
7/13/2021 4:45:00 AM 17.7 63.86 0.041 6.8 2.09 8.86
7/13/2021 5:00:00 AM 17.66 63.788 0.041 6.78 1.61 8.86
7/13/2021 5:15:00 AM 17.62 63.716 0.041 6.71 1.89 8.88
7/13/2021 5:30:00 AM 17.59 63.662 0.041 6.79 2.71 8.88
7/13/2021 5:45:00 AM 17.55 63.59 0.041 6.72 2.19 8.89
7/13/2021 6:00:00 AM 17.52 63.536 0.041 6.82 1.95 8.9
7/13/2021 6:15:00 AM 17.49 63.482 0.041 6.74 1.61 8.91
7/13/2021 6:30:00 AM 17.46 63.428 0.041 6.77 2.43 8.93
7/13/2021 6:45:00 AM 17.44 63.392 0.041 6.76 1.8 8.97
7/13/2021 7:00:00 AM 17.42 63.356 0.041 6.81 1.88 8.98
7/13/2021 7:15:00 AM 17.4 63.32 0.042 6.76 1.78 9.01
7/13/2021 7:30:00 AM 17.39 63.302 0.041 6.78 1.82 9.07
7/13/2021 7:45:00 AM 17.4 63.32 0.04 6.83 2.44 9.09
7/13/2021 8:00:00 AM 17.39 63.302 0.041 6.8 2.43 9.06
7/13/2021 8:15:00 AM 17.37 63.266 0.041 6.81 1.43 9.06
7/13/2021 8:30:00 AM 17.36 63.248 0.041 6.79 1.48 9.08
7/13/2021 8:45:00 AM 17.37 63.266 0.041 6.72 1.52 9.11
7/13/2021 9:00:00 AM 17.38 63.284 0.04 6.82 5.23 9.11
7/13/2021 9:15:00 AM 17.38 63.284 0.04 6.85 1.74 9.13
7/13/2021 9:30:00 AM 17.41 63.338 0.04 6.82 1.62 9.16
7/13/2021 9:45:00 AM 17.46 63.428 0.04 6.87 1.5 9.17
7/13/2021 10:00:00 AM 17.51 63.518 0.041 6.84 1.79 9.15
7/13/2021 10:15:00 AM 17.59 63.662 0.041 6.92 1.36 9.18
7/13/2021 10:30:00 AM 17.67 63.806 0.04 6.99 3.03 9.17
7/13/2021 10:45:00 AM 17.73 63.914 0.042 6.94 0.81 9.17
7/13/2021 11:00:00 AM 17.77 63.986 0.04 7 1.31 9.16
7/13/2021 11:15:00 AM 17.84 64.112 0.04 6.97 1.46 9.14
7/13/2021 11:30:00 AM 17.95 64.31 0.04 6.89 3.28 9.13
7/13/2021 11:45:00 AM 18.1 64.58 0.04 7.09 1.44 9.17
7/13/2021 12:00:00 PM 18.21 64.778 0.04 7.07 2.29 9.18
7/13/2021 12:15:00 PM 18.37 65.066 0.04 7.02 1.48 9.17
7/13/2021 12:30:00 PM 18.49 65.282 0.04 7.05 4.05 9.12
7/13/2021 12:45:00 PM 18.5 65.3 0.04 7.04 1.38 9.01
7/13/2021 1:00:00 PM 18.49 65.282 0.04 6.99 1.61 8.92
7/13/2021 1:15:00 PM 18.52 65.336 0.04 7.01 1.59 8.94
7/13/2021 1:30:00 PM 18.77 65.786 0.04 7.01 1.82 9.05
7/13/2021 1:45:00 PM 18.95 66.11 0.04 7.01 1.74 9.01
7/13/2021 2:00:00 PM 19.12 66.416 0.04 7.11 1.51 9.04
7/13/2021 2:15:00 PM 19.39 66.902 0.04 7.11 1.57 9.03
7/13/2021 2:30:00 PM 19.55 67.19 0.04 7.16 2.4 8.99
7/13/2021 2:45:00 PM 19.5 67.1 0.04 7.13 1.31 8.92
7/13/2021 3:00:00 PM 19.4 66.92 0.04 7.1 1.98 8.87
7/13/2021 3:15:00 PM 19.35 66.83 0.04 7.09 1.56 8.84
7/13/2021 3:30:00 PM 19.34 66.812 0.04 7.04 1.67 8.89
7/13/2021 3:45:00 PM 19.48 67.064 0.04 7.06 2.57 8.93
7/13/2021 4:00:00 PM 19.63 67.334 0.04 7.04 1.67 8.9
7/13/2021 4:15:00 PM 19.7 67.46 0.04 7.05 2.49 8.8
7/13/2021 4:30:00 PM 19.78 67.604 0.04 7.06 1.33 8.78
7/13/2021 4:45:00 PM 19.83 67.694 0.04 7.06 1.73 8.78
7/13/2021 5:00:00 PM 19.83 67.694 0.041 7.05 1.19 8.74
7/13/2021 5:15:00 PM 19.87 67.766 0.04 7.06 2.63 8.71
7/13/2021 5:30:00 PM 19.89 67.802 0.04 7.08 1.61 8.66
7/13/2021 5:45:00 PM 19.88 67.784 0.041 7.06 1.72 8.64
7/13/2021 6:00:00 PM 19.84 67.712 0.04 6.99 1.68 8.58
7/13/2021 6:15:00 PM 19.81 67.658 0.039 7.01 1.67 8.55
7/13/2021 6:30:00 PM 19.77 67.586 0.04 6.98 1.74 8.53
7/13/2021 6:45:00 PM 19.74 67.532 0.04 6.93 1.65 8.5
7/13/2021 7:00:00 PM 19.75 67.55 0.04 7.02 1.03 8.48
7/13/2021 7:15:00 PM 19.72 67.496 0.041 6.99 1.66 8.48
7/13/2021 7:30:00 PM 19.7 67.46 0.041 6.96 2.37 8.48
7/13/2021 7:45:00 PM 19.69 67.442 0.038 6.92 7.01 8.48
7/13/2021 8:00:00 PM 19.6 67.28 0.039 6.91 10.18 8.42
7/13/2021 8:15:00 PM 19.54 67.172 0.039 6.86 3.05 8.41
7/13/2021 8:30:00 PM 19.5 67.1 0.039 6.9 3.59 8.44
7/13/2021 8:45:00 PM 19.47 67.046 0.037 6.88 3.32 8.43
7/13/2021 9:00:00 PM 19.42 66.956 0.039 6.88 3.33 8.44
7/13/2021 9:15:00 PM 19.37 66.866 0.039 6.92 3.82 8.45
7/13/2021 9:30:00 PM 19.32 66.776 0.04 6.93 3.06 8.45
7/13/2021 9:45:00 PM 19.27 66.686 0.04 6.9 3.72 8.48
7/13/2021 10:00:00 PM 19.23 66.614 0.04 6.89 3.24 8.49
7/13/2021 10:15:00 PM 19.18 66.524 0.04 6.92 2.77 8.5
7/13/2021 10:30:00 PM 19.13 66.434 0.04 6.91 3.12 8.52
7/13/2021 10:45:00 PM 19.08 66.344 0.04 6.9 2.99 8.53
7/13/2021 11:00:00 PM 19.02 66.236 0.041 6.87 2.7 8.56
7/13/2021 11:15:00 PM 18.96 66.128 0.04 6.95 2.99 8.57
7/13/2021 11:30:00 PM 18.9 66.02 0.04 6.93 2.68 8.59
7/13/2021 11:45:00 PM 18.84 65.912 0.04 6.86 5.13 8.61
7/14/2021 12:00:00 AM 18.79 65.82201 0.04 6.94 3.04 8.63
7/14/2021 12:15:00 AM 18.73 65.714 0.04 6.95 11.57 8.62
7/14/2021 12:30:00 AM 18.66 65.588 0.04 6.94 3.8 8.65
7/14/2021 12:45:00 AM 18.6 65.48 0.037 6.95 2.22 8.66
7/14/2021 1:00:00 AM 18.53 65.354 0.04 6.84 3.41 8.69
7/14/2021 1:15:00 AM 18.46 65.228 0.04 6.94 2.9 8.7
7/14/2021 1:30:00 AM 18.4 65.12 0.04 6.94 2.94 8.71
7/14/2021 1:45:00 AM 18.32 64.976 0.041 6.91 4.06 8.75
7/14/2021 2:00:00 AM 18.23 64.814 0.04 6.93 5.64 8.79
7/14/2021 2:15:00 AM 18.15 64.67 0.04 6.89 4.77 8.8
7/14/2021 2:30:00 AM 18.07 64.526 0.04 6.91 5.16 8.81
7/14/2021 2:45:00 AM 18 64.4 0.04 6.87 4.25 8.82
7/14/2021 3:00:00 AM 17.93 64.274 0.04 6.9 4 8.84
7/14/2021 3:15:00 AM 17.85 64.13 0.041 6.76 3.66 8.86
7/14/2021 3:30:00 AM 17.79 64.022 0.04 6.86 3.3 8.91
7/14/2021 3:45:00 AM 17.73 63.914 0.04 6.95 3.47 8.89
7/14/2021 4:00:00 AM 17.67 63.806 0.04 6.93 3.4 8.92
7/14/2021 4:15:00 AM 17.62 63.716 0.04 6.93 3.36 8.91
7/14/2021 4:30:00 AM 17.56 63.608 0.04 6.92 2.96 8.93
7/14/2021 4:45:00 AM 17.52 63.536 0.04 6.89 2.98 8.94
7/14/2021 5:00:00 AM 17.46 63.428 0.041 6.75 2.46 8.95
7/14/2021 5:15:00 AM 17.42 63.356 0.039 6.92 2.93 8.95
7/14/2021 5:30:00 AM 17.38 63.284 0.039 6.94 2.76 8.97
7/14/2021 5:45:00 AM 17.33 63.194 0.041 6.87 2.44 8.98
7/14/2021 6:00:00 AM 17.29 63.122 0.04 6.92 2.51 8.98
7/14/2021 6:15:00 AM 17.26 63.068 0.04 6.89 2.88 8.99
7/14/2021 6:30:00 AM 17.22 62.996 0.041 6.88 2.15 9.01
7/14/2021 6:45:00 AM 17.19 62.942 0.041 6.83 2.46 9.01
7/14/2021 7:00:00 AM 17.16 62.888 0.041 6.87 2.28 9.02
7/14/2021 7:15:00 AM 17.13 62.834 0.039 6.86 2.05 9.04
7/14/2021 7:30:00 AM 17.12 62.816 0.039 6.9 2.94 9.06
7/14/2021 7:45:00 AM 17.1 62.78 0.032 6.9 1.28 9.06
7/14/2021 8:00:00 AM 17.08 62.744 0.041 6.85 1.67 9.08
7/14/2021 8:15:00 AM 17.07 62.726 0.04 6.9 1.93 9.08
7/14/2021 8:30:00 AM 17.06 62.708 0.039 6.83 2.3 9.13
7/14/2021 8:45:00 AM 17.05 62.69 0.041 6.9 5.08 9.16
7/14/2021 9:00:00 AM 17.04 62.672 0.04 6.87 1.96 9.15
7/14/2021 9:15:00 AM 17.04 62.672 0.04 6.94 1.94 9.2
7/14/2021 9:30:00 AM 17.05 62.69 0.039 6.95 2.21 9.19
7/14/2021 9:45:00 AM 17.04 62.672 0.04 6.89 2.41 9.18
7/14/2021 10:00:00 AM 17.06 62.708 0.039 6.96 1.75 9.22
7/14/2021 10:15:00 AM 17.08 62.744 0.039 6.94 2.07 9.25
7/14/2021 10:30:00 AM 17.08 62.744 0.039 6.8 1.7 9.21
7/14/2021 10:45:00 AM 17.12 62.816 0.039 7 1.76 9.26
7/14/2021 11:00:00 AM 17.16 62.888 0.039 6.91 1.77 9.31
7/14/2021 11:15:00 AM 17.2 62.96 0.04 6.98 1.81 9.28
7/14/2021 11:30:00 AM 17.23 63.014 0.036 6.95 2.28 9.27
7/14/2021 11:45:00 AM 17.26 63.068 0.039 6.95 1.78 9.28
7/14/2021 12:00:00 PM 17.32 63.176 0.04 7.06 1.78 9.28
7/14/2021 12:15:00 PM 17.45 63.41 0.039 7 1.54 9.29
7/14/2021 12:30:00 PM 17.54 63.572 0.04 7.05 1.96 9.27
7/14/2021 12:45:00 PM 17.62 63.716 0.038 7.05 2.32 9.26
7/14/2021 1:00:00 PM 17.69 63.842 0.04 7.07 1.59 9.24
7/14/2021 1:15:00 PM 17.75 63.95 0.029 7.07 1.22 9.24
7/14/2021 1:30:00 PM 17.92 64.256 0.041 7.05 1.34 9.25
7/14/2021 1:45:00 PM 18.16 64.688 0.039 7.11 1.74 9.23
7/14/2021 2:00:00 PM 18.35 65.03 0.04 7.06 1.66 9.2
7/14/2021 2:15:00 PM 18.61 65.498 0.04 7.1 2.15 9.17
7/14/2021 2:30:00 PM 18.75 65.75 0.034 7.12 1.29 9.13
7/14/2021 2:45:00 PM 18.81 65.858 0.038 7.16 2.78 9.1
7/14/2021 3:00:00 PM 18.83 65.894 0.039 7.13 2.02 9.08
7/14/2021 3:15:00 PM 18.92 66.056 0.039 7.13 2.77 9.06
7/14/2021 3:30:00 PM 18.99 66.182 0.04 7.16 1.97 9.04
7/14/2021 3:45:00 PM 19.09 66.362 0.039 7.22 2.21 9.01
7/14/2021 4:00:00 PM 19.17 66.506 0.039 7.06 2.76 8.97
7/14/2021 4:15:00 PM 19.18 66.524 0.039 7.08 2.41 8.91
7/14/2021 4:30:00 PM 19.23 66.614 0.039 7.1 3.28 8.88
7/14/2021 4:45:00 PM 19.32 66.776 0.04 7.02 7.07 8.9
7/14/2021 5:00:00 PM 19.38 66.884 0.039 7.15 2.16 8.88
7/14/2021 5:15:00 PM 19.37 66.866 0.04 7.08 2.34 8.83
7/14/2021 5:30:00 PM 19.34 66.812 0.039 7.07 1.65 8.75
7/14/2021 5:45:00 PM 19.32 66.776 0.039 7.08 2.83 8.75
7/14/2021 6:00:00 PM 19.32 66.776 0.04 7.05 2.04 8.79
7/14/2021 6:15:00 PM 19.31 66.758 0.039 7.08 2.57 8.77
7/14/2021 6:30:00 PM 19.31 66.758 0.039 7 2.1 8.77
7/14/2021 6:45:00 PM 19.29 66.722 0.039 6.98 2.09 8.75
7/14/2021 7:00:00 PM 19.27 66.686 0.041 6.93 1.94 8.71
7/14/2021 7:15:00 PM 19.26 66.668 0.039 6.97 2.08 8.69
7/14/2021 7:30:00 PM 19.24 66.632 0.04 6.95 1.78 8.67
7/14/2021 7:45:00 PM 19.22 66.596 0.041 6.88 1.24 8.66
7/14/2021 8:00:00 PM 19.19 66.542 0.04 6.96 2.37 8.64
7/14/2021 8:15:00 PM 19.16 66.488 0.04 6.91 1.69 8.64
7/14/2021 8:30:00 PM 19.12 66.416 0.041 6.83 1.49 8.63
7/14/2021 8:45:00 PM 19.07 66.326 0.041 6.88 1.64 8.63
7/14/2021 9:00:00 PM 19.02 66.236 0.039 6.86 1.46 8.63
7/14/2021 9:15:00 PM 18.97 66.146 0.041 6.87 1.74 8.63
7/14/2021 9:30:00 PM 18.91 66.038 0.041 6.84 1.41 8.64
7/14/2021 9:45:00 PM 18.85 65.93 0.041 6.87 1.67 8.66
7/14/2021 10:00:00 PM 18.81 65.858 0.04 6.91 1.92 8.65
7/14/2021 10:15:00 PM 18.75 65.75 0.04 6.94 1.47 8.66
7/14/2021 10:30:00 PM 18.7 65.66 0.041 6.91 1.42 8.69
7/14/2021 10:45:00 PM 18.64 65.552 0.04 6.87 2.68 8.69
7/14/2021 11:00:00 PM 18.59 65.462 0.04 6.9 1.12 8.7
7/14/2021 11:15:00 PM 18.53 65.354 0.04 6.93 1.41 8.71
7/14/2021 11:30:00 PM 18.47 65.246 0.04 6.92 1.77 8.72
7/14/2021 11:45:00 PM 18.41 65.138 0.04 6.93 1.45 8.74
7/15/2021 12:00:00 AM 18.35 65.03 0.04 6.94 1.32 8.75
7/15/2021 12:15:00 AM 18.28 64.904 0.04 6.96 2.42 8.77
7/15/2021 12:30:00 AM 18.22 64.796 0.041 6.96 1.59 8.78
7/15/2021 12:45:00 AM 18.15 64.67 0.041 6.93 1.41 8.8
7/15/2021 1:00:00 AM 18.08 64.544 0.042 6.97 1.57 8.8
7/15/2021 1:15:00 AM 18.02 64.436 0.04 6.94 1.93 8.83
7/15/2021 1:30:00 AM 17.95 64.31 0.04 6.96 1.74 8.83
7/15/2021 1:45:00 AM 17.89 64.202 0.04 6.95 2.53 8.84
7/15/2021 2:00:00 AM 17.83 64.094 0.04 6.92 1.9 8.85
7/15/2021 2:15:00 AM 17.76 63.968 0.04 7.02 1.65 8.87
7/15/2021 2:30:00 AM 17.7 63.86 0.04 7.05 1.51 8.87
7/15/2021 2:45:00 AM 17.64 63.752 0.041 6.89 1.62 8.89
7/15/2021 3:00:00 AM 17.58 63.644 0.04 6.91 1.91 8.91
7/15/2021 3:15:00 AM 17.52 63.536 0.04 6.93 1.53 8.92
7/15/2021 3:30:00 AM 17.47 63.446 0.04 6.94 1.55 8.93
7/15/2021 3:45:00 AM 17.42 63.356 0.041 6.95 1.97 8.94
7/15/2021 4:00:00 AM 17.37 63.266 0.04 6.96 1.24 8.95
7/15/2021 4:15:00 AM 17.32 63.176 0.04 6.94 1.42 8.96
7/15/2021 4:30:00 AM 17.27 63.086 0.041 6.92 1.94 8.97
7/15/2021 4:45:00 AM 17.23 63.014 0.04 7.02 1.33 8.98
7/15/2021 5:00:00 AM 17.19 62.942 0.04 6.89 1.83 8.98
7/15/2021 5:15:00 AM 17.15 62.87 0.04 6.89 1.49 8.99
7/15/2021 5:30:00 AM 17.1 62.78 0.04 6.91 2.1 9
7/15/2021 5:45:00 AM 17.06 62.708 0.04 6.92 1.72 9.01
7/15/2021 6:00:00 AM 17.03 62.654 0.042 6.87 1.59 9.01
7/15/2021 6:15:00 AM 16.99 62.582 0.04 6.94 1.5 9.03
7/15/2021 6:30:00 AM 16.96 62.528 0.041 6.84 1.63 9.04
7/15/2021 6:45:00 AM 16.92 62.456 0.042 6.95 1.64 9.07
7/15/2021 7:00:00 AM 16.9 62.42 0.041 6.83 1.59 9.08
7/15/2021 7:15:00 AM 16.87 62.366 0.041 6.9 1.48 9.1
7/15/2021 7:30:00 AM 16.85 62.33 0.04 6.92 1.85 9.12
7/15/2021 7:45:00 AM 16.84 62.312 0.04 6.93 1.33 9.13
7/15/2021 8:00:00 AM 16.82 62.276 0.04 6.98 1.86 9.18
7/15/2021 8:15:00 AM 16.81 62.258 0.04 6.98 1.42 9.21
7/15/2021 8:30:00 AM 16.81 62.258 0.04 7 1.58 9.23
7/15/2021 8:45:00 AM 16.82 62.276 0.04 6.95 1.54 9.26
7/15/2021 9:00:00 AM 16.81 62.258 0.035 6.99 0.84 9.28
7/15/2021 9:15:00 AM 16.82 62.276 0.04 6.94 1.2 9.31
7/15/2021 9:30:00 AM 16.86 62.348 0.039 6.98 1.52 9.33
7/15/2021 9:45:00 AM 16.9 62.42 0.04 7.03 1.57 9.33
7/15/2021 10:00:00 AM 16.95 62.51 0.04 7.03 1.9 9.35
7/15/2021 10:15:00 AM 17.01 62.618 0.04 7.01 2.3 9.34
7/15/2021 10:30:00 AM 17.07 62.726 0.039 7.02 1.53 9.31
7/15/2021 10:45:00 AM 17.14 62.852 0.039 6.98 2.28 9.29
7/15/2021 11:00:00 AM 17.22 62.996 0.039 7.06 1.31 9.28
7/15/2021 11:15:00 AM 17.32 63.176 0.039 7.02 4.1 9.28
7/15/2021 11:30:00 AM 17.42 63.356 0.039 7.05 1.56 9.28
7/15/2021 11:45:00 AM 17.5 63.5 0.039 7.05 2.28 9.28
7/15/2021 12:00:00 PM 17.62 63.716 0.04 7.09 1.85 9.29
7/15/2021 12:15:00 PM 17.77 63.986 0.041 7.06 1.12 9.28
7/15/2021 12:30:00 PM 17.89 64.202 0.039 7.12 1.73 9.25
7/15/2021 12:45:00 PM 17.99 64.382 0.04 7.11 1.98 9.24
7/15/2021 1:00:00 PM 18.15 64.67 0.039 7.17 2.05 9.23
7/15/2021 1:15:00 PM 18.3 64.94 0.039 7.12 1.62 9.2
7/15/2021 1:30:00 PM 18.38 65.084 0.039 7.02 4.52 9.18
7/15/2021 1:45:00 PM 18.47 65.246 0.039 7.18 2.74 9.16
7/15/2021 2:00:00 PM 18.56 65.408 0.04 7.08 1.7 9.15
7/15/2021 2:15:00 PM 18.61 65.498 0.039 7.14 1.83 9.06
7/15/2021 2:30:00 PM 18.75 65.75 0.039 7.16 2.41 9.12
7/15/2021 2:45:00 PM 19 66.2 0.039 7.19 1.41 9.11
7/15/2021 3:00:00 PM 19.05 66.29 0.04 7.11 7.04 9.07
7/15/2021 3:15:00 PM 19.07 66.326 0.039 7.16 2.13 9.04
7/15/2021 3:30:00 PM 19.18 66.524 0.04 7.2 1.91 9.05
7/15/2021 3:45:00 PM 19.23 66.614 0.039 7.19 1.42 9.01
7/15/2021 4:00:00 PM 19.26 66.668 0.039 7.19 1.5 8.97
7/15/2021 4:15:00 PM 19.33 66.794 0.04 7.21 1.54 8.97
7/15/2021 4:30:00 PM 19.41 66.938 0.04 7.22 1.57 8.95
7/15/2021 4:45:00 PM 19.46 67.028 0.04 7.17 0.93 8.91
7/15/2021 5:00:00 PM 19.49 67.082 0.038 7.2 1.43 8.88
7/15/2021 5:15:00 PM 19.53 67.154 0.04 7.14 1.48 8.84
7/15/2021 5:30:00 PM 19.51 67.118 0.04 7.12 1.55 8.81
7/15/2021 5:45:00 PM 19.5 67.1 0.039 7.05 1.17 8.78
7/15/2021 6:00:00 PM 19.47 67.046 0.039 7.07 1.98 8.75
7/15/2021 6:15:00 PM 19.45 67.01 0.039 7.06 1.36 8.75
7/15/2021 6:30:00 PM 19.44 66.992 0.039 7.06 1.62 8.75
7/15/2021 6:45:00 PM 19.41 66.938 0.039 7.01 1.37 8.73
7/15/2021 7:00:00 PM 19.39 66.902 0.039 7.01 1.39 8.71
7/15/2021 7:15:00 PM 19.36 66.848 0.04 7.01 1.23 8.69
7/15/2021 7:30:00 PM 19.32 66.776 0.04 7 2.19 8.65
7/15/2021 7:45:00 PM 19.29 66.722 0.041 6.99 1.79 8.63
7/15/2021 8:00:00 PM 19.26 66.668 0.04 6.92 1.79 8.63
7/15/2021 8:15:00 PM 19.23 66.614 0.041 6.89 1.29 8.61
7/15/2021 8:30:00 PM 19.19 66.542 0.041 6.95 1.22 8.59
7/15/2021 8:45:00 PM 19.15 66.47 0.04 6.84 2.5 8.57
7/15/2021 9:00:00 PM 19.1 66.38 0.04 6.82 1.43 8.57
7/15/2021 9:15:00 PM 19.05 66.29 0.039 6.89 0.99 8.58
7/15/2021 9:30:00 PM 19 66.2 0.04 6.93 1.98 8.58
7/15/2021 9:45:00 PM 18.95 66.11 0.04 6.83 1.65 8.59
7/15/2021 10:00:00 PM 18.9 66.02 0.04 6.88 1.56 8.6
7/15/2021 10:15:00 PM 18.84 65.912 0.04 6.92 2.35 8.62
7/15/2021 10:30:00 PM 18.79 65.82201 0.04 6.93 1.49 8.62
7/15/2021 10:45:00 PM 18.74 65.732 0.04 6.85 1.45 8.63
7/15/2021 11:00:00 PM 18.68 65.624 0.039 6.88 0.88 8.64
7/15/2021 11:15:00 PM 18.63 65.534 0.039 6.94 0.98 8.64
7/15/2021 11:30:00 PM 18.57 65.426 0.041 6.89 1.62 8.66
7/15/2021 11:45:00 PM 18.52 65.336 0.04 6.9 1.42 8.66
7/16/2021 12:00:00 AM 18.46 65.228 0.041 6.93 1.35 8.67
7/16/2021 12:15:00 AM 18.4 65.12 0.041 6.88 2.36 8.69
7/16/2021 12:30:00 AM 18.34 65.012 0.042 6.95 1.35 8.7
7/16/2021 12:45:00 AM 18.27 64.886 0.04 6.94 2.36 8.72
7/16/2021 1:00:00 AM 18.21 64.778 0.042 6.78 1.24 8.73
7/16/2021 1:15:00 AM 18.16 64.688 0.04 6.87 1.41 8.74
7/16/2021 1:30:00 AM 18.09 64.562 0.042 6.91 1.69 8.76
7/16/2021 1:45:00 AM 18.03 64.454 0.041 6.89 1.07 8.77
7/16/2021 2:00:00 AM 17.96 64.328 0.042 6.95 1.42 8.79
7/16/2021 2:15:00 AM 17.9 64.22 0.041 6.92 1.23 8.78
7/16/2021 2:30:00 AM 17.85 64.13 0.04 6.84 1.21 8.8
7/16/2021 2:45:00 AM 17.78 64.004 0.041 6.88 1.24 8.82
7/16/2021 3:00:00 AM 17.74 63.932 0.041 6.93 1.09 8.81
7/16/2021 3:15:00 AM 17.68 63.824 0.041 6.9 1.41 8.84
7/16/2021 3:30:00 AM 17.63 63.734 0.041 6.86 1.3 8.84
7/16/2021 3:45:00 AM 17.59 63.662 0.04 6.88 1.58 8.85
7/16/2021 4:00:00 AM 17.55 63.59 0.041 6.87 1.44 8.86
7/16/2021 4:15:00 AM 17.49 63.482 0.038 6.9 1 8.89
7/16/2021 4:30:00 AM 17.45 63.41 0.037 6.86 0.68 8.89
7/16/2021 4:45:00 AM 17.41 63.338 0.041 6.94 1.01 8.9
7/16/2021 5:00:00 AM 17.37 63.266 0.038 6.85 0.76 8.9
7/16/2021 5:15:00 AM 17.33 63.194 0.041 6.88 1.78 8.92
7/16/2021 5:30:00 AM 17.29 63.122 0.042 6.89 1.64 8.92
7/16/2021 5:45:00 AM 17.25 63.05 0.041 6.9 1.69 8.94
7/16/2021 6:00:00 AM 17.21 62.978 0.041 6.95 1.49 8.94
7/16/2021 6:15:00 AM 17.18 62.924 0.041 6.9 1.38 8.94
7/16/2021 6:30:00 AM 17.14 62.852 0.04 6.86 0.61 8.98
7/16/2021 6:45:00 AM 17.11 62.798 0.041 6.91 1.37 8.98
7/16/2021 7:00:00 AM 17.07 62.726 0.041 6.84 1.3 9.01
7/16/2021 7:15:00 AM 17.04 62.672 0.042 6.85 0.86 9.03
7/16/2021 7:30:00 AM 17.01 62.618 0.042 6.88 1.4 9.05
7/16/2021 7:45:00 AM 16.99 62.582 0.041 6.87 2.17 9.07
7/16/2021 8:00:00 AM 16.95 62.51 0.04 6.91 1.12 9.09
7/16/2021 8:15:00 AM 16.95 62.51 0.042 6.9 1.26 9.14
7/16/2021 8:30:00 AM 16.96 62.528 0.04 6.88 1.36 9.19
7/16/2021 8:45:00 AM 16.96 62.528 0.042 6.88 1.1 9.19
7/16/2021 9:00:00 AM 16.95 62.51 0.041 6.93 1.62 9.22
7/16/2021 9:15:00 AM 16.99 62.582 0.04 6.87 1.2 9.23
7/16/2021 9:30:00 AM 16.99 62.582 0.041 6.89 1.23 9.24
7/16/2021 9:45:00 AM 17.02 62.636 0.041 6.93 1.53 9.26
7/16/2021 10:00:00 AM 17.08 62.744 0.04 6.91 1.17 9.24
7/16/2021 10:15:00 AM 17.11 62.798 0.04 6.95 1.36 9.24
7/16/2021 10:30:00 AM 17.18 62.924 0.04 6.99 1.83 9.26
7/16/2021 10:45:00 AM 17.27 63.086 0.028 7.02 0.94 9.28
7/16/2021 11:00:00 AM 17.38 63.284 0.04 7.04 1.31 9.29
7/16/2021 11:15:00 AM 17.48 63.464 0.04 7.03 1.18 9.28
7/16/2021 11:30:00 AM 17.58 63.644 0.04 7.06 0.99 9.27
7/16/2021 11:45:00 AM 17.71 63.878 0.04 7.08 1.24 9.28
7/16/2021 12:00:00 PM 17.77 63.986 0.04 7.1 1.27 9.24
7/16/2021 12:15:00 PM 17.86 64.148 0.039 7.03 1.15 9.23
7/16/2021 12:30:00 PM 18.01 64.418 0.041 7.11 1.36 9.25
7/16/2021 12:45:00 PM 18.15 64.67 0.04 7.03 0.73 9.23
7/16/2021 1:00:00 PM 18.18 64.724 0.041 7.12 1.27 9.19
7/16/2021 1:15:00 PM 18.35 65.03 0.041 7.12 1.51 9.17
7/16/2021 1:30:00 PM 18.58 65.444 0.041 7.14 1.35 9.14
7/16/2021 1:45:00 PM 18.83 65.894 0.041 7.08 0.77 9.13
7/16/2021 2:00:00 PM 18.99 66.182 0.041 7.18 0.97 9.06
7/16/2021 2:15:00 PM 19.12 66.416 0.039 7.27 1.47 9.05
7/16/2021 2:30:00 PM 19.3 66.74 0.039 7.17 1.28 9.04
7/16/2021 2:45:00 PM 19.44 66.992 0.04 7.19 1.23 9.01
7/16/2021 3:00:00 PM 19.46 67.028 0.039 7.22 0.57 8.97
7/16/2021 3:15:00 PM 19.4 66.92 0.04 7.15 1.56 8.95
7/16/2021 3:30:00 PM 19.45 67.01 0.041 7.08 1.52 8.96
7/16/2021 3:45:00 PM 19.53 67.154 0.04 7.07 1.28 8.93
7/16/2021 4:00:00 PM 19.56 67.208 0.04 7.14 0.97 8.87
7/16/2021 4:15:00 PM 19.59 67.262 0.039 7.11 2.58 8.83
7/16/2021 4:30:00 PM 19.57 67.226 0.041 7.05 1.81 8.75
7/16/2021 4:45:00 PM 19.57 67.226 0.041 7.04 1.23 8.66
7/16/2021 5:00:00 PM 19.58 67.244 0.039 6.95 2.62 8.6
7/16/2021 5:15:00 PM 19.68 67.424 0.037 6.86 5.24 8.55
7/16/2021 5:30:00 PM 19.61 67.298 0.038 6.92 5.33 8.5
7/16/2021 5:45:00 PM 19.52 67.136 0.039 6.9 3.89 8.49
7/16/2021 6:00:00 PM 19.45 67.01 0.039 6.88 4.13 8.5
7/16/2021 6:15:00 PM 19.41 66.938 0.038 6.84 4.25 8.49
7/16/2021 6:30:00 PM 19.36 66.848 0.038 6.84 4.1 8.5
7/16/2021 6:45:00 PM 19.33 66.794 0.038 6.86 4.73 8.49
7/16/2021 7:00:00 PM 19.29 66.722 0.038 6.81 4.76 8.52
7/16/2021 7:15:00 PM 19.25 66.65 0.039 6.76 4.63 8.52
7/16/2021 7:30:00 PM 19.2 66.56 0.038 6.84 5.56 8.54
7/16/2021 7:45:00 PM 19.15 66.47 0.039 6.83 5.03 8.55
7/16/2021 8:00:00 PM 19.09 66.362 0.038 6.8 5.57 8.59
7/16/2021 8:15:00 PM 19.01 66.218 0.039 6.83 5.2 8.58
7/16/2021 8:30:00 PM 18.92 66.056 0.039 6.83 5.06 8.59
7/16/2021 8:45:00 PM 18.83 65.894 0.039 6.78 5.33 8.63
7/16/2021 9:00:00 PM 18.74 65.732 0.039 6.77 5.41 8.63
7/16/2021 9:15:00 PM 18.66 65.588 0.04 6.81 5.97 8.65
7/16/2021 9:30:00 PM 18.6 65.48 0.04 6.81 6.7 8.68
7/16/2021 9:45:00 PM 18.54 65.372 0.041 6.68 7.43 8.68
7/16/2021 10:00:00 PM 18.46 65.228 0.04 6.87 7.56 8.69
7/16/2021 10:15:00 PM 18.38 65.084 0.04 6.84 7.28 8.73
7/16/2021 10:30:00 PM 18.3 64.94 0.04 6.85 5.84 8.73
7/16/2021 10:45:00 PM 18.22 64.796 0.039 6.82 5.97 8.75
7/16/2021 11:00:00 PM 18.14 64.652 0.04 6.8 5.76 8.77
7/16/2021 11:15:00 PM 18.07 64.526 0.041 6.72 4.99 8.79
7/16/2021 11:30:00 PM 17.99 64.382 0.04 6.82 5.13 8.8
7/16/2021 11:45:00 PM 17.92 64.256 0.04 6.77 4.81 8.81
7/17/2021 12:00:00 AM 17.85 64.13 0.04 6.74 4.98 8.84
7/17/2021 12:15:00 AM 17.78 64.004 0.04 6.79 4.17 8.84
7/17/2021 12:30:00 AM 17.72 63.896 0.04 6.77 3.99 8.86
7/17/2021 12:45:00 AM 17.66 63.788 0.04 6.75 4.05 8.86
7/17/2021 1:00:00 AM 17.61 63.698 0.039 6.74 3.26 8.95
7/17/2021 1:15:00 AM 17.55 63.59 0.041 6.66 3.32 8.89
7/17/2021 1:30:00 AM 17.5 63.5 0.04 6.73 3.39 8.91
7/17/2021 1:45:00 AM 17.45 63.41 0.039 6.84 3.02 8.92
7/17/2021 2:00:00 AM 17.41 63.338 0.039 6.85 3.49 8.92
7/17/2021 2:15:00 AM 17.36 63.248 0.041 6.76 2.77 8.93
7/17/2021 2:30:00 AM 17.32 63.176 0.04 6.87 3.56 8.95
7/17/2021 2:45:00 AM 17.27 63.086 0.039 6.67 2.97 8.95
7/17/2021 3:00:00 AM 17.23 63.014 0.04 6.58 3.08 8.97
7/17/2021 3:15:00 AM 17.2 62.96 0.039 6.87 2.69 8.96
7/17/2021 3:30:00 AM 17.16 62.888 0.04 6.7 2.15 8.97
7/17/2021 3:45:00 AM 17.13 62.834 0.04 6.67 2.4 9
7/17/2021 4:00:00 AM 17.09 62.762 0.04 6.73 2.31 8.98
7/17/2021 4:15:00 AM 17.06 62.708 0.04 6.82 3.55 8.99
7/17/2021 4:30:00 AM 17.03 62.654 0.039 6.73 2.8 9.03
7/17/2021 4:45:00 AM 17.01 62.618 0.04 6.75 2.48 9
7/17/2021 5:00:00 AM 16.98 62.564 0.04 6.66 2.05 9.03
7/17/2021 5:15:00 AM 16.96 62.528 0.04 6.72 2.82 9.01
7/17/2021 5:30:00 AM 16.93 62.474 0.041 6.79 2.33 9.01
7/17/2021 5:45:00 AM 16.91 62.438 0.04 6.81 2.27 9.05
7/17/2021 6:00:00 AM 16.88 62.384 0.041 6.73 2.43 9.05
7/17/2021 6:15:00 AM 16.86 62.348 0.04 6.8 2.99 9.04
7/17/2021 6:30:00 AM 16.84 62.312 0.042 6.77 2.29 9.05
7/17/2021 6:45:00 AM 16.83 62.294 0.04 6.83 2.37 9.07
7/17/2021 7:00:00 AM 16.81 62.258 0.04 6.82 2.28 9.09
7/17/2021 7:15:00 AM 16.8 62.24 0.041 6.82 2.1 9.12
7/17/2021 7:30:00 AM 16.8 62.24 0.04 6.66 2.31 9.14
7/17/2021 7:45:00 AM 16.78 62.204 0.041 6.84 2.2 9.14
7/17/2021 8:00:00 AM 16.77 62.186 0.04 6.8 2.67 9.16
7/17/2021 8:15:00 AM 16.78 62.204 0.041 6.86 2.19 9.19
7/17/2021 8:30:00 AM 16.79 62.222 0.04 6.87 2.07 9.24
7/17/2021 8:45:00 AM 16.81 62.258 0.04 6.85 2.22 9.26
7/17/2021 9:00:00 AM 16.82 62.276 0.041 6.85 2.23 9.26
7/17/2021 9:15:00 AM 16.82 62.276 0.04 6.84 2.21 9.23
7/17/2021 9:30:00 AM 16.84 62.312 0.041 6.95 2.94 9.26
7/17/2021 9:45:00 AM 16.86 62.348 0.04 6.95 2.1 9.27
7/17/2021 10:00:00 AM 16.87 62.366 0.041 6.85 2.38 9.29
7/17/2021 10:15:00 AM 16.9 62.42 0.04 6.88 1.47 9.31
7/17/2021 10:30:00 AM 16.94 62.492 0.04 6.89 2.14 9.23
7/17/2021 10:45:00 AM 16.98 62.564 0.04 6.89 2.34 9.26
7/17/2021 11:00:00 AM 17.02 62.636 0.039 6.95 1.66 9.28
7/17/2021 11:15:00 AM 17.07 62.726 0.04 6.97 1.71 9.31
7/17/2021 11:30:00 AM 17.09 62.762 0.04 6.9 2.01 9.31
7/17/2021 11:45:00 AM 17.19 62.942 0.041 7 1.87 9.32
7/17/2021 12:00:00 PM 17.26 63.068 0.039 6.99 2.31 9.33
7/17/2021 12:15:00 PM 17.34 63.212 0.039 6.98 2.43 9.32
7/17/2021 12:30:00 PM 17.46 63.428 0.039 7.04 2.2 9.33
7/17/2021 12:45:00 PM 17.65 63.77 0.039 7.07 2.36 9.32
7/17/2021 1:00:00 PM 17.79 64.022 0.039 7.1 2.86 9.29
7/17/2021 1:15:00 PM 17.93 64.274 0.039 7.09 1.96 9.23
7/17/2021 1:30:00 PM 17.91 64.238 0.04 6.98 2.16 9.14
7/17/2021 1:45:00 PM 17.87 64.166 0.039 7.05 4.73 9.06
7/17/2021 2:00:00 PM 17.92 64.256 0.039 7 3.2 9
7/17/2021 2:15:00 PM 17.96 64.328 0.04 7.01 2.56 9.06
7/17/2021 2:30:00 PM 17.98 64.364 0.038 6.96 2.28 9.05
7/17/2021 2:45:00 PM 17.99 64.382 0.039 6.97 2.37 8.98
7/17/2021 3:00:00 PM 18 64.4 0.039 6.91 2.35 8.99
7/17/2021 3:15:00 PM 18.05 64.49 0.039 6.93 3.03 8.98
7/17/2021 3:30:00 PM 18.06 64.508 0.04 6.85 1.85 8.95
7/17/2021 3:45:00 PM 18.04 64.472 0.038 6.98 2.54 9.01
7/17/2021 4:00:00 PM 18.05 64.49 0.04 6.98 2.31 8.98
7/17/2021 4:15:00 PM 18.05 64.49 0.038 6.93 2.24 8.92
7/17/2021 4:30:00 PM 18.05 64.49 0.039 6.89 2.15 8.88
7/17/2021 4:45:00 PM 18.05 64.49 0.04 6.85 2.76 8.89
7/17/2021 5:00:00 PM 18.06 64.508 0.04 6.96 2.43 8.92
7/17/2021 5:15:00 PM 18.05 64.49 0.04 6.79 2.38 8.86
7/17/2021 5:30:00 PM 18.04 64.472 0.039 6.88 2.41 8.84
7/17/2021 5:45:00 PM 18.02 64.436 0.04 6.85 7.54 8.83
7/17/2021 6:00:00 PM 18 64.4 0.039 6.86 2.53 8.84
7/17/2021 6:15:00 PM 17.99 64.382 0.039 6.79 2.81 8.91
7/17/2021 6:30:00 PM 17.99 64.382 0.039 6.94 2.86 8.96
7/17/2021 6:45:00 PM 17.99 64.382 0.04 6.91 3.24 8.96
7/17/2021 7:00:00 PM 17.98 64.364 0.04 6.97 2.93 8.96
7/17/2021 7:15:00 PM 17.97 64.346 0.04 6.94 2.75 8.95
7/17/2021 7:30:00 PM 17.95 64.31 0.04 6.88 3 8.94
7/17/2021 7:45:00 PM 17.92 64.256 0.04 6.91 4.19 8.93
7/17/2021 8:00:00 PM 17.88 64.184 0.04 6.89 2.25 8.92
7/17/2021 8:15:00 PM 17.85 64.13 0.04 6.79 2.74 8.89
7/17/2021 8:30:00 PM 17.82 64.076 0.04 6.83 2.34 8.88
7/17/2021 8:45:00 PM 17.78 64.004 0.039 6.87 2.47 8.87
7/17/2021 9:00:00 PM 17.73 63.914 0.04 6.84 2.42 8.84
7/17/2021 9:15:00 PM 17.69 63.842 0.04 6.81 2.23 8.84
7/17/2021 9:30:00 PM 17.65 63.77 0.04 6.83 2.22 8.85
7/17/2021 9:45:00 PM 17.61 63.698 0.04 6.77 2.22 8.88
7/17/2021 10:00:00 PM 17.57 63.626 0.04 6.87 2.65 8.86
7/17/2021 10:15:00 PM 17.54 63.572 0.04 6.83 2.04 8.87
7/17/2021 10:30:00 PM 17.5 63.5 0.04 6.76 2.68 8.88
7/17/2021 10:45:00 PM 17.47 63.446 0.037 6.81 1.82 8.89
7/17/2021 11:00:00 PM 17.43 63.374 0.04 6.86 2.05 8.9
7/17/2021 11:15:00 PM 17.4 63.32 0.04 6.86 1.85 8.94
7/17/2021 11:30:00 PM 17.36 63.248 0.039 6.84 1.63 8.94
7/17/2021 11:45:00 PM 17.33 63.194 0.041 6.68 2.12 8.91
7/18/2021 12:00:00 AM 17.3 63.14 0.04 6.86 1.83 8.91
7/18/2021 12:15:00 AM 17.26 63.068 0.04 6.82 1.87 8.92
7/18/2021 12:30:00 AM 17.23 63.014 0.039 6.74 1.52 8.97
7/18/2021 12:45:00 AM 17.19 62.942 0.04 6.8 1.98 8.94
7/18/2021 1:00:00 AM 17.16 62.888 0.04 6.81 1.97 8.95
7/18/2021 1:15:00 AM 17.13 62.834 0.04 6.79 2.17 8.96
7/18/2021 1:30:00 AM 17.1 62.78 0.04 6.8 1.71 8.95
7/18/2021 1:45:00 AM 17.07 62.726 0.041 6.78 2.54 8.96
7/18/2021 2:00:00 AM 17.04 62.672 0.04 6.71 1.91 8.97
7/18/2021 2:15:00 AM 17.04 62.672 0.04 6.86 1.99 8.97
7/18/2021 2:30:00 AM 17.01 62.618 0.04 6.81 1.62 9.01
7/18/2021 2:45:00 AM 16.99 62.582 0.04 6.86 1.79 8.98
7/18/2021 3:00:00 AM 16.96 62.528 0.04 6.82 2.2 8.99
7/18/2021 3:15:00 AM 16.92 62.456 0.04 6.8 1.94 9.01
7/18/2021 3:30:00 AM 16.89 62.402 0.041 6.82 1.37 9.01
7/18/2021 3:45:00 AM 16.86 62.348 0.036 6.77 1.63 9.03
7/18/2021 4:00:00 AM 16.83 62.294 0.041 6.75 1.64 9.03
7/18/2021 4:15:00 AM 16.8 62.24 0.041 6.9 1.71 9.04
7/18/2021 4:30:00 AM 16.77 62.186 0.041 6.89 1.72 9.05
7/18/2021 4:45:00 AM 16.74 62.132 0.04 6.86 2.4 9.08
7/18/2021 5:00:00 AM 16.71 62.078 0.04 6.88 1.65 9.06
7/18/2021 5:15:00 AM 16.69 62.042 0.04 6.91 1.8 9.08
7/18/2021 5:30:00 AM 16.66 61.988 0.041 6.86 2.43 9.07
7/18/2021 5:45:00 AM 16.63 61.934 0.04 6.86 1.92 9.08
7/18/2021 6:00:00 AM 16.6 61.88 0.04 6.85 1.96 9.1
7/18/2021 6:15:00 AM 16.57 61.826 0.04 6.83 1.79 9.1
7/18/2021 6:30:00 AM 16.55 61.79 0.039 6.87 2.12 9.11
7/18/2021 6:45:00 AM 16.52 61.736 0.039 6.89 1.8 9.13
7/18/2021 7:00:00 AM 16.49 61.682 0.04 6.89 2.15 9.16
7/18/2021 7:15:00 AM 16.47 61.646 0.039 6.9 2.01 9.15
7/18/2021 7:30:00 AM 16.44 61.592 0.04 6.86 2.06 9.19
7/18/2021 7:45:00 AM 16.43 61.574 0.039 6.94 2.31 9.19
7/18/2021 8:00:00 AM 16.41 61.538 0.041 6.88 1.81 9.2
7/18/2021 8:15:00 AM 16.39 61.502 0.041 6.88 1.8 9.21
7/18/2021 8:30:00 AM 16.37 61.466 0.039 6.88 2.06 9.23
7/18/2021 8:45:00 AM 16.36 61.448 0.039 6.9 1.69 9.27
7/18/2021 9:00:00 AM 16.35 61.43 0.04 6.88 1.87 9.3
7/18/2021 9:15:00 AM 16.34 61.412 0.04 6.92 1.91 9.31
7/18/2021 9:30:00 AM 16.32 61.376 0.039 6.94 2.23 9.31
7/18/2021 9:45:00 AM 16.31 61.358 0.039 6.91 2.09 9.33
7/18/2021 10:00:00 AM 16.32 61.376 0.038 6.94 2.08 9.36
7/18/2021 10:15:00 AM 16.32 61.376 0.038 6.96 1.67 9.41
7/18/2021 10:30:00 AM 16.33 61.394 0.038 6.97 2.19 9.41
7/18/2021 10:45:00 AM 16.36 61.448 0.04 7.04 2.06 9.44
7/18/2021 11:00:00 AM 16.37 61.466 0.038 6.94 1.85 9.44
7/18/2021 11:15:00 AM 16.39 61.502 0.038 6.97 2.08 9.43
7/18/2021 11:30:00 AM 16.4 61.52 0.038 6.85 1.75 9.49
7/18/2021 11:45:00 AM 16.41 61.538 0.038 6.98 2.27 9.42
7/18/2021 12:00:00 PM 16.42 61.556 0.039 6.96 3.76 9.46
7/18/2021 12:15:00 PM 16.47 61.646 0.038 7.03 1.82 9.47
7/18/2021 12:30:00 PM 16.52 61.736 0.039 6.96 2.17 9.48
7/18/2021 12:45:00 PM 16.55 61.79 0.035 6.94 1.67 9.54
7/18/2021 1:00:00 PM 16.59 61.862 0.033 7.03 1.58 9.5
7/18/2021 1:15:00 PM 16.62 61.916 0.039 6.95 2.16 9.52
7/18/2021 1:30:00 PM 16.68 62.024 0.038 7.06 2.22 9.48
7/18/2021 1:45:00 PM 16.76 62.168 0.037 7.03 2.46 9.47
7/18/2021 2:00:00 PM 16.79 62.222 0.037 7.02 2.65 9.45
7/18/2021 2:15:00 PM 16.89 62.402 0.038 6.91 2.96 9.46
7/18/2021 2:30:00 PM 17.04 62.672 0.037 6.93 3.72 9.44
7/18/2021 2:45:00 PM 17.06 62.708 0.037 7.1 3.69 9.4
7/18/2021 3:00:00 PM 17.15 62.87 0.029 7.07 2.62 9.41
7/18/2021 3:15:00 PM 17.19 62.942 0.037 6.96 2.95 9.37
7/18/2021 3:30:00 PM 17.19 62.942 0.038 7.05 3.01 9.36
7/18/2021 3:45:00 PM 17.22 62.996 0.037 6.99 2.87 9.33
7/18/2021 4:00:00 PM 17.25 63.05 0.038 7.09 2.91 9.33
7/18/2021 4:15:00 PM 17.29 63.122 0.037 7.06 2.82 9.32
7/18/2021 4:30:00 PM 17.33 63.194 0.038 6.99 2.84 9.33
7/18/2021 4:45:00 PM 17.37 63.266 0.036 7.1 2.73 9.28
7/18/2021 5:00:00 PM 17.4 63.32 0.037 6.99 3.24 9.25
7/18/2021 5:15:00 PM 17.45 63.41 0.036 6.8 3.12 9.23
7/18/2021 5:30:00 PM 17.47 63.446 0.037 7.02 2.65 9.18
7/18/2021 5:45:00 PM 17.46 63.428 0.037 7.08 2.51 9.19
7/18/2021 6:00:00 PM 17.46 63.428 0.037 7.01 2.56 9.15
7/18/2021 6:15:00 PM 17.44 63.392 0.038 6.95 1.85 9.13
7/18/2021 6:30:00 PM 17.42 63.356 0.037 6.91 2.27 9.17
7/18/2021 6:45:00 PM 17.38 63.284 0.037 6.88 2.28 9.1
7/18/2021 7:00:00 PM 17.34 63.212 0.037 6.83 2.45 9.09
7/18/2021 7:15:00 PM 17.31 63.158 0.037 6.87 2.21 9.1
7/18/2021 7:30:00 PM 17.28 63.104 0.038 6.84 2.3 9.09
7/18/2021 7:45:00 PM 17.24 63.032 0.037 6.77 2.26 9.06
7/18/2021 8:00:00 PM 17.2 62.96 0.037 6.86 2.42 9.05
7/18/2021 8:15:00 PM 17.15 62.87 0.037 6.85 2.16 9.08
7/18/2021 8:30:00 PM 17.11 62.798 0.038 6.88 1.91 9.04
7/18/2021 8:45:00 PM 17.06 62.708 0.039 6.82 2.32 9.04
7/18/2021 9:00:00 PM 17.01 62.618 0.038 6.84 2.25 9.05
7/18/2021 9:15:00 PM 16.96 62.528 0.038 6.72 2.19 9.08
7/18/2021 9:30:00 PM 16.9 62.42 0.038 6.78 2.62 9.06
7/18/2021 9:45:00 PM 16.86 62.348 0.037 6.82 2.21 9.1
7/18/2021 10:00:00 PM 16.81 62.258 0.038 6.83 2.11 9.09
7/18/2021 10:15:00 PM 16.76 62.168 0.039 6.76 2.23 9.09
7/18/2021 10:30:00 PM 16.7 62.06 0.038 6.87 2.19 9.11
7/18/2021 10:45:00 PM 16.65 61.97 0.038 6.84 1.96 9.12
7/18/2021 11:00:00 PM 16.59 61.862 0.038 6.82 1.81 9.13
7/18/2021 11:15:00 PM 16.53 61.754 0.038 6.83 2.1 9.15
7/18/2021 11:30:00 PM 16.48 61.664 0.038 6.84 1.89 9.15
7/18/2021 11:45:00 PM 16.42 61.556 0.038 6.86 1.81 9.17
7/19/2021 12:00:00 AM 16.36 61.448 0.038 6.82 1.79 9.18
7/19/2021 12:15:00 AM 16.31 61.358 0.038 6.92 2.25 9.19
7/19/2021 12:30:00 AM 16.26 61.268 0.038 6.78 2.03 9.2
7/19/2021 12:45:00 AM 16.21 61.178 0.038 6.78 1.83 9.21
7/19/2021 1:00:00 AM 16.16 61.088 0.038 6.79 1.77 9.23
7/19/2021 1:15:00 AM 16.11 60.998 0.039 6.79 1.88 9.24
7/19/2021 1:30:00 AM 16.08 60.944 0.038 6.85 1.68 9.24
7/19/2021 1:45:00 AM 16.04 60.872 0.038 6.79 1.92 9.25
7/19/2021 2:00:00 AM 16 60.8 0.038 6.79 1.92 9.31
7/19/2021 2:15:00 AM 15.97 60.746 0.032 6.75 1.5 9.3
7/19/2021 2:30:00 AM 15.92 60.656 0.039 6.71 1.9 9.28
7/19/2021 2:45:00 AM 15.9 60.62 0.038 6.72 1.73 9.29
7/19/2021 3:00:00 AM 15.86 60.548 0.038 6.79 1.61 9.3
7/19/2021 3:15:00 AM 15.83 60.494 0.035 6.76 1.18 9.31
7/19/2021 3:30:00 AM 15.8 60.44 0.038 6.79 1.68 9.32
7/19/2021 3:45:00 AM 15.77 60.386 0.039 6.83 1.65 9.32
7/19/2021 4:00:00 AM 15.74 60.332 0.039 6.81 1.57 9.32
7/19/2021 4:15:00 AM 15.72 60.296 0.038 6.81 1.73 9.33
7/19/2021 4:30:00 AM 15.69 60.242 0.038 6.67 1.37 9.33
7/19/2021 4:45:00 AM 15.66 60.188 0.038 6.77 1.56 9.34
7/19/2021 5:00:00 AM 15.63 60.134 0.038 6.82 1.85 9.34
7/19/2021 5:15:00 AM 15.6 60.08 0.038 6.8 1.65 9.35
7/19/2021 5:30:00 AM 15.58 60.044 0.038 6.83 1.69 9.35
7/19/2021 5:45:00 AM 15.55 59.99 0.038 6.79 1.98 9.36
7/19/2021 6:00:00 AM 15.52 59.936 0.038 6.7 2.06 9.37
7/19/2021 6:15:00 AM 15.49 59.882 0.038 6.78 1.86 9.38
7/19/2021 6:30:00 AM 15.47 59.846 0.038 6.8 1.7 9.42
7/19/2021 6:45:00 AM 15.44 59.792 0.038 6.63 2.63 9.42
7/19/2021 7:00:00 AM 15.43 59.774 0.037 6.79 1.62 9.42
7/19/2021 7:15:00 AM 15.41 59.738 0.039 6.78 1.77 9.44
7/19/2021 7:30:00 AM 15.4 59.72 0.038 6.78 2.06 9.47
7/19/2021 7:45:00 AM 15.39 59.702 0.038 6.87 1.77 9.51
7/19/2021 8:00:00 AM 15.37 59.666 0.036 6.86 1.45 9.55
7/19/2021 8:15:00 AM 15.37 59.666 0.037 6.88 1.6 9.53
7/19/2021 8:30:00 AM 15.36 59.648 0.037 6.83 1.51 9.55
7/19/2021 8:45:00 AM 15.36 59.648 0.037 6.84 1.69 9.57
7/19/2021 9:00:00 AM 15.37 59.666 0.039 6.88 1.73 9.58
7/19/2021 9:15:00 AM 15.38 59.684 0.037 6.88 2.55 9.6
7/19/2021 9:30:00 AM 15.4 59.72 0.037 6.92 1.72 9.61
7/19/2021 9:45:00 AM 15.42 59.756 0.038 6.85 1.73 9.65
7/19/2021 10:00:00 AM 15.46 59.828 0.038 6.83 1.17 9.62
7/19/2021 10:15:00 AM 15.5 59.9 0.037 6.74 1.58 9.63
7/19/2021 10:30:00 AM 15.55 59.99 0.037 6.97 1.46 9.63
7/19/2021 10:45:00 AM 15.62 60.116 0.037 6.97 1.4 9.62
7/19/2021 11:00:00 AM 15.7 60.26 0.038 6.95 1.56 9.64
7/19/2021 11:15:00 AM 15.8 60.44 0.036 6.92 1.75 9.68
7/19/2021 11:30:00 AM 15.9 60.62 0.037 6.9 1.7 9.65
7/19/2021 11:45:00 AM 16.01 60.818 0.037 6.89 1.67 9.61
7/19/2021 12:00:00 PM 16.13 61.034 0.037 7.02 1.57 9.6
7/19/2021 12:15:00 PM 16.19 61.142 0.037 7.07 1.65 9.57
7/19/2021 12:30:00 PM 16.27 61.286 0.037 6.96 1.56 9.53
7/19/2021 12:45:00 PM 16.39 61.502 0.037 7.02 1.5 9.55
7/19/2021 1:00:00 PM 16.46 61.628 0.034 6.98 1.51 9.51
7/19/2021 1:15:00 PM 16.65 61.97 0.038 6.98 1.5 9.51
7/19/2021 1:30:00 PM 16.7 62.06 0.037 6.93 1.84 9.48
7/19/2021 1:45:00 PM 16.9 62.42 0.037 6.93 1.62 9.48
7/19/2021 2:00:00 PM 17.01 62.618 0.037 7.03 1.57 9.44
7/19/2021 2:15:00 PM 17.16 62.888 0.038 7.07 1.52 9.43
7/19/2021 2:30:00 PM 17.23 63.014 0.038 7.02 1.59 9.38
7/19/2021 2:45:00 PM 17.34 63.212 0.038 7.05 1.98 9.34
7/19/2021 3:00:00 PM 17.45 63.41 0.036 7.12 2.65 9.34
7/19/2021 3:15:00 PM 17.49 63.482 0.038 7.09 2.42 9.31
7/19/2021 3:30:00 PM 17.55 63.59 0.038 7.02 1.76 9.29
7/19/2021 3:45:00 PM 17.63 63.734 0.036 7.06 1.73 9.27
7/19/2021 4:00:00 PM 17.65 63.77 0.036 7.06 1.71 9.26
7/19/2021 4:15:00 PM 17.65 63.77 0.036 7.07 2.42 9.25
7/19/2021 4:30:00 PM 17.66 63.788 0.038 6.98 1.6 9.21
7/19/2021 4:45:00 PM 17.65 63.77 0.036 7.02 2.61 9.2
7/19/2021 5:00:00 PM 17.66 63.788 0.037 6.94 1.74 9.17
7/19/2021 5:15:00 PM 17.7 63.86 0.036 6.94 1.92 9.16
7/19/2021 5:30:00 PM 17.74 63.932 0.036 6.97 1.27 9.16
7/19/2021 5:45:00 PM 17.76 63.968 0.036 6.97 1.6 9.14
7/19/2021 6:00:00 PM 17.77 63.986 0.036 6.99 1.75 9.11
7/19/2021 6:15:00 PM 17.76 63.968 0.037 6.85 1.98 9.09
7/19/2021 6:30:00 PM 17.74 63.932 0.037 6.75 1.64 9.07
7/19/2021 6:45:00 PM 17.71 63.878 0.037 6.77 2.09 9.05
7/19/2021 7:00:00 PM 17.68 63.824 0.037 6.83 1.84 9.04
7/19/2021 7:15:00 PM 17.64 63.752 0.037 6.88 2.07 9.05
7/19/2021 7:30:00 PM 17.6 63.68 0.037 6.89 1.8 9.03
7/19/2021 7:45:00 PM 17.55 63.59 0.037 6.88 1.57 9.02
7/19/2021 8:00:00 PM 17.5 63.5 0.037 6.77 2.04 9.01
7/19/2021 8:15:00 PM 17.44 63.392 0.037 6.81 1.67 9
7/19/2021 8:30:00 PM 17.39 63.302 0.038 6.7 1.23 8.99
7/19/2021 8:45:00 PM 17.32 63.176 0.038 6.78 1.68 8.99
7/19/2021 9:00:00 PM 17.25 63.05 0.037 6.84 1.87 8.99
7/19/2021 9:15:00 PM 17.19 62.942 0.038 6.83 2 9
7/19/2021 9:30:00 PM 17.13 62.834 0.037 6.87 2.55 9
7/19/2021 9:45:00 PM 17.06 62.708 0.038 6.77 1.73 9.02
7/19/2021 10:00:00 PM 17 62.6 0.037 6.74 2.62 9.03
7/19/2021 10:15:00 PM 16.95 62.51 0.039 6.8 1.66 9.04
7/19/2021 10:30:00 PM 16.89 62.402 0.038 6.78 1.86 9.06
7/19/2021 10:45:00 PM 16.83 62.294 0.037 6.8 1.78 9.07
7/19/2021 11:00:00 PM 16.78 62.204 0.038 6.75 1.58 9.09
7/19/2021 11:15:00 PM 16.72 62.096 0.038 6.65 1.63 9.13
7/19/2021 11:30:00 PM 16.65 61.97 0.038 6.83 1.64 9.12
7/19/2021 11:45:00 PM 16.59 61.862 0.038 6.76 1.84 9.12
7/20/2021 12:00:00 AM 16.54 61.772 0.038 6.82 1.83 9.15
7/20/2021 12:15:00 AM 16.48 61.664 0.038 6.8 1.91 9.15
7/20/2021 12:30:00 AM 16.43 61.574 0.038 6.78 1.59 9.15
7/20/2021 12:45:00 AM 16.37 61.466 0.037 6.83 1.86 9.17
7/20/2021 1:00:00 AM 16.33 61.394 0.038 6.78 1.41 9.17
7/20/2021 1:15:00 AM 16.28 61.304 0.038 6.63 1.71 9.18
7/20/2021 1:30:00 AM 16.24 61.232 0.039 6.84 1.61 9.19
7/20/2021 1:45:00 AM 16.19 61.142 0.038 6.81 1.73 9.21
7/20/2021 2:00:00 AM 16.16 61.088 0.038 6.76 1.58 9.21
7/20/2021 2:15:00 AM 16.11 60.998 0.039 6.79 1.51 9.23
7/20/2021 2:30:00 AM 16.07 60.926 0.038 6.75 1.49 9.24
7/20/2021 2:45:00 AM 16.03 60.854 0.039 6.75 1.79 9.24
7/20/2021 3:00:00 AM 16 60.8 0.039 6.74 1.56 9.25
7/20/2021 3:15:00 AM 15.96 60.728 0.039 6.69 1.62 9.26
7/20/2021 3:30:00 AM 15.93 60.674 0.038 6.59 1.46 9.29
7/20/2021 3:45:00 AM 15.9 60.62 0.038 6.76 1.49 9.28
7/20/2021 4:00:00 AM 15.86 60.548 0.038 6.72 1.66 9.31
7/20/2021 4:15:00 AM 15.83 60.494 0.038 6.84 1.62 9.29
7/20/2021 4:30:00 AM 15.8 60.44 0.038 6.79 1.66 9.29
7/20/2021 4:45:00 AM 15.76 60.368 0.038 6.75 1.72 9.32
7/20/2021 5:00:00 AM 15.73 60.314 0.038 6.76 1.6 9.3
7/20/2021 5:15:00 AM 15.69 60.242 0.035 6.73 1.37 9.32
7/20/2021 5:30:00 AM 15.67 60.206 0.037 6.85 1.8 9.32
7/20/2021 5:45:00 AM 15.63 60.134 0.038 6.79 1.63 9.32
7/20/2021 6:00:00 AM 15.61 60.098 0.038 6.8 1.58 9.33
7/20/2021 6:15:00 AM 15.57 60.026 0.037 6.81 1.64 9.34
7/20/2021 6:30:00 AM 15.55 59.99 0.036 6.81 1.03 9.36
7/20/2021 6:45:00 AM 15.53 59.954 0.037 6.74 1.55 9.4
7/20/2021 7:00:00 AM 15.51 59.918 0.037 6.86 1.8 9.38
7/20/2021 7:15:00 AM 15.49 59.882 0.039 6.63 1.21 9.4
7/20/2021 7:30:00 AM 15.48 59.864 0.037 6.8 1.54 9.42
7/20/2021 7:45:00 AM 15.45 59.81 0.039 6.79 1.56 9.45
7/20/2021 8:00:00 AM 15.45 59.81 0.038 6.8 1.6 9.46
7/20/2021 8:15:00 AM 15.44 59.792 0.037 6.82 1.58 9.48
7/20/2021 8:30:00 AM 15.44 59.792 0.037 6.73 1.8 9.5
7/20/2021 8:45:00 AM 15.43 59.774 0.037 6.78 1.55 9.52
7/20/2021 9:00:00 AM 15.43 59.774 0.039 6.89 0.98 9.55
7/20/2021 9:15:00 AM 15.45 59.81 0.037 6.83 1.47 9.57
7/20/2021 9:30:00 AM 15.47 59.846 0.037 6.88 1.84 9.59
7/20/2021 9:45:00 AM 15.48 59.864 0.037 6.94 1.31 9.61
7/20/2021 10:00:00 AM 15.5 59.9 0.037 6.66 1.32 9.62
7/20/2021 10:15:00 AM 15.52 59.936 0.037 6.76 1.39 9.64
7/20/2021 10:30:00 AM 15.57 60.026 0.037 6.88 1.87 9.66
7/20/2021 10:45:00 AM 15.64 60.152 0.036 7 1.61 9.65
7/20/2021 11:00:00 AM 15.7 60.26 0.037 7.07 3.6 9.65
7/20/2021 11:15:00 AM 15.79 60.422 0.038 6.92 1.88 9.65
7/20/2021 11:30:00 AM 15.89 60.602 0.034 6.86 1.28 9.64
7/20/2021 11:45:00 AM 16.01 60.818 0.037 7 1.11 9.65
7/20/2021 12:00:00 PM 16.13 61.034 0.038 7.1 1.57 9.62
7/20/2021 12:15:00 PM 16.25 61.25 0.033 6.94 1.49 9.59
7/20/2021 12:30:00 PM 16.33 61.394 0.036 7 1.18 9.56
7/20/2021 12:45:00 PM 16.42 61.556 0.038 7.01 1.58 9.55
7/20/2021 1:00:00 PM 16.52 61.736 0.037 7 1.68 9.53
7/20/2021 1:15:00 PM 16.7 62.06 0.037 7.06 1.48 9.55
7/20/2021 1:30:00 PM 16.83 62.294 0.036 7.05 1.66 9.51
7/20/2021 1:45:00 PM 16.92 62.456 0.036 7.08 1.65 9.48
7/20/2021 2:00:00 PM 16.93 62.474 0.036 6.86 1.43 9.46
7/20/2021 2:15:00 PM 17.07 62.726 0.036 7.09 1.77 9.46
7/20/2021 2:30:00 PM 17.19 62.942 0.036 7.07 1.63 9.44
7/20/2021 2:45:00 PM 17.33 63.194 0.036 7.07 1.76 9.4
7/20/2021 3:00:00 PM 17.44 63.392 0.036 7.13 1.47 9.38
7/20/2021 3:15:00 PM 17.52 63.536 0.036 7.06 1.53 9.35
7/20/2021 3:30:00 PM 17.6 63.68 0.036 7.11 2.33 9.32
7/20/2021 3:45:00 PM 17.66 63.788 0.036 7.03 1.73 9.29
7/20/2021 4:00:00 PM 17.71 63.878 0.036 7.04 2.06 9.27
7/20/2021 4:15:00 PM 17.74 63.932 0.036 7.03 1.52 9.25
7/20/2021 4:30:00 PM 17.75 63.95 0.036 7 4.05 9.25
7/20/2021 4:45:00 PM 17.76 63.968 0.036 7.13 2.08 9.21
7/20/2021 5:00:00 PM 17.76 63.968 0.036 7.05 1.57 9.19
7/20/2021 5:15:00 PM 17.76 63.968 0.036 6.99 1.56 9.17
7/20/2021 5:30:00 PM 17.74 63.932 0.036 7.07 2.21 9.17
7/20/2021 5:45:00 PM 17.73 63.914 0.036 7.04 2.68 9.13
7/20/2021 6:00:00 PM 17.71 63.878 0.036 6.97 1.43 9.11
7/20/2021 6:15:00 PM 17.7 63.86 0.036 7.01 1.56 9.1
7/20/2021 6:30:00 PM 17.68 63.824 0.037 6.91 1.4 9.07
7/20/2021 6:45:00 PM 17.65 63.77 0.037 6.98 1.64 9.06
7/20/2021 7:00:00 PM 17.63 63.734 0.036 6.95 1.5 9.05
7/20/2021 7:15:00 PM 17.61 63.698 0.037 6.88 1.59 9.04
7/20/2021 7:30:00 PM 17.58 63.644 0.037 6.93 1.63 9.03
7/20/2021 7:45:00 PM 17.53 63.554 0.037 6.85 1.25 8.99
7/20/2021 8:00:00 PM 17.48 63.464 0.035 6.82 1.32 8.97
7/20/2021 8:15:00 PM 17.44 63.392 0.037 6.83 1.4 8.95
7/20/2021 8:30:00 PM 17.39 63.302 0.038 6.86 1.51 8.96
7/20/2021 8:45:00 PM 17.33 63.194 0.037 6.86 2.45 8.94
7/20/2021 9:00:00 PM 17.27 63.086 0.038 6.82 1.71 8.95
7/20/2021 9:15:00 PM 17.23 63.014 0.037 6.87 2.88 8.94
7/20/2021 9:30:00 PM 17.18 62.924 0.037 6.84 1.76 8.95
7/20/2021 9:45:00 PM 17.13 62.834 0.037 6.88 2.38 8.96
7/20/2021 10:00:00 PM 17.08 62.744 0.037 6.85 1.5 8.96
7/20/2021 10:15:00 PM 17.03 62.654 0.038 6.95 1.58 8.98
7/20/2021 10:30:00 PM 17 62.6 0.038 6.87 7.25 8.99
7/20/2021 10:45:00 PM 16.96 62.528 0.039 6.91 1.41 9
7/20/2021 11:00:00 PM 16.92 62.456 0.038 6.91 1.95 9.01
7/20/2021 11:15:00 PM 16.86 62.348 0.037 7.05 1.4 9.06
7/20/2021 11:30:00 PM 16.81 62.258 0.036 7 1.23 9.05
7/20/2021 11:45:00 PM 16.75 62.15 0.036 6.84 1.16 9.05
7/21/2021 12:00:00 AM 16.69 62.042 0.039 6.82 1.41 9.07
7/21/2021 12:15:00 AM 16.63 61.934 0.038 6.91 1.49 9.08
7/21/2021 12:30:00 AM 16.58 61.844 0.038 6.97 1.51 9.09
7/21/2021 12:45:00 AM 16.53 61.754 0.038 7.02 1.32 9.1
7/21/2021 1:00:00 AM 16.48 61.664 0.038 6.97 2.16 9.11
7/21/2021 1:15:00 AM 16.44 61.592 0.038 6.93 1.25 9.12
7/21/2021 1:30:00 AM 16.39 61.502 0.039 6.98 1.64 9.13
7/21/2021 1:45:00 AM 16.35 61.43 0.038 6.95 1.31 9.13
7/21/2021 2:00:00 AM 16.3 61.34 0.038 7.01 1.24 9.14
7/21/2021 2:15:00 AM 16.25 61.25 0.038 7.01 1.87 9.15
7/21/2021 2:30:00 AM 16.22 61.196 0.039 6.88 2.54 9.16
7/21/2021 2:45:00 AM 16.17 61.106 0.038 6.91 7.22 9.18
7/21/2021 3:00:00 AM 16.13 61.034 0.038 6.99 3.06 9.19
7/21/2021 3:15:00 AM 16.09 60.962 0.038 6.97 1.69 9.19
7/21/2021 3:30:00 AM 16.05 60.89 0.037 6.96 1.35 9.2
7/21/2021 3:45:00 AM 16.01 60.818 0.038 6.95 1.46 9.21
7/21/2021 4:00:00 AM 15.97 60.746 0.038 6.93 1.43 9.22
7/21/2021 4:15:00 AM 15.92 60.656 0.038 6.97 1.26 9.23
7/21/2021 4:30:00 AM 15.89 60.602 0.038 6.95 0.92 9.23
7/21/2021 4:45:00 AM 15.85 60.53 0.038 6.97 1.08 9.24
7/21/2021 5:00:00 AM 15.82 60.476 0.038 6.99 2.72 9.25
7/21/2021 5:15:00 AM 15.79 60.422 0.038 6.99 1.05 9.25
7/21/2021 5:30:00 AM 15.77 60.386 0.038 6.98 1.16 9.26
7/21/2021 5:45:00 AM 15.74 60.332 0.038 6.95 0.84 9.26
7/21/2021 6:00:00 AM 15.72 60.296 0.038 6.95 1.07 9.27
7/21/2021 6:15:00 AM 15.69 60.242 0.038 6.91 1.03 9.28
7/21/2021 6:30:00 AM 15.67 60.206 0.038 6.93 1.6 9.3
7/21/2021 6:45:00 AM 15.65 60.17 0.038 6.98 1.32 9.3
7/21/2021 7:00:00 AM 15.63 60.134 0.038 6.94 1.13 9.3
7/21/2021 7:15:00 AM 15.62 60.116 0.037 6.96 1.09 9.31
7/21/2021 7:30:00 AM 15.6 60.08 0.037 6.87 0.81 9.33
7/21/2021 7:45:00 AM 15.59 60.062 0.038 6.91 1.33 9.36
7/21/2021 8:00:00 AM 15.58 60.044 0.039 6.94 1.17 9.4
7/21/2021 8:15:00 AM 15.56 60.008 0.038 6.92 1.03 9.42
7/21/2021 8:30:00 AM 15.55 59.99 0.037 6.95 1.15 9.45
7/21/2021 8:45:00 AM 15.56 60.008 0.037 6.99 0.92 9.48
7/21/2021 9:00:00 AM 15.58 60.044 0.037 6.94 1.41 9.53
7/21/2021 9:15:00 AM 15.62 60.116 0.038 6.98 1.1 9.55
7/21/2021 9:30:00 AM 15.62 60.116 0.037 6.97 0.98 9.56
7/21/2021 9:45:00 AM 15.63 60.134 0.038 6.97 0.84 9.55
7/21/2021 10:00:00 AM 15.64 60.152 0.037 7 0.86 9.55
7/21/2021 10:15:00 AM 15.66 60.188 0.037 6.96 1.06 9.55
7/21/2021 10:30:00 AM 15.68 60.224 0.038 6.94 0.95 9.56
7/21/2021 10:45:00 AM 15.71 60.278 0.037 6.82 1.43 9.56
7/21/2021 11:00:00 AM 15.74 60.332 0.038 6.95 1.27 9.58
7/21/2021 11:15:00 AM 15.78 60.404 0.037 7.03 0.94 9.6
7/21/2021 11:30:00 AM 15.82 60.476 0.038 7.01 0.28 9.6
7/21/2021 11:45:00 AM 15.83 60.494 0.038 7.02 1.32 9.6
7/21/2021 12:00:00 PM 15.96 60.728 0.038 6.87 0.62 9.61
7/21/2021 12:15:00 PM 16 60.8 0.037 7.1 0.38 9.6
7/21/2021 12:30:00 PM 16.08 60.944 0.038 7.04 0.89 9.59
7/21/2021 12:45:00 PM 16.16 61.088 0.037 7.06 1.09 9.57
7/21/2021 1:00:00 PM 16.26 61.268 0.036 7.1 0.47 9.57
7/21/2021 1:15:00 PM 16.41 61.538 0.037 7.17 1.06 9.55
7/21/2021 1:30:00 PM 16.51 61.718 0.037 7.12 0.92 9.51
7/21/2021 1:45:00 PM 16.46 61.628 0.037 7.1 1.45 9.4
7/21/2021 2:00:00 PM 16.42 61.556 0.038 7.05 1.31 9.37
7/21/2021 2:15:00 PM 16.42 61.556 0.038 7.09 1.22 9.4
7/21/2021 2:30:00 PM 16.56 61.808 0.036 7.11 0.99 9.47
7/21/2021 2:45:00 PM 16.68 62.024 0.037 7.14 1.26 9.46
7/21/2021 3:00:00 PM 16.69 62.042 0.036 7.07 1.01 9.4
7/21/2021 3:15:00 PM 16.72 62.096 0.037 7.08 1.34 9.4
7/21/2021 3:30:00 PM 16.8 62.24 0.037 7.17 1.66 9.42
7/21/2021 3:45:00 PM 16.84 62.312 0.036 7.11 0.91 9.38
7/21/2021 4:00:00 PM 16.9 62.42 0.036 7.11 1.06 9.38
7/21/2021 4:15:00 PM 16.99 62.582 0.037 7.12 0.83 9.37
7/21/2021 4:30:00 PM 17.05 62.69 0.036 7.08 1.15 9.36
7/21/2021 4:45:00 PM 17.11 62.798 0.036 7.14 1.11 9.35
7/21/2021 5:00:00 PM 17.12 62.816 0.035 7.12 1.1 9.33
7/21/2021 5:15:00 PM 17.15 62.87 0.036 7.11 1.34 9.3
7/21/2021 5:30:00 PM 17.16 62.888 0.036 7.13 0.83 9.29
7/21/2021 5:45:00 PM 17.14 62.852 0.036 6.97 0.69 9.24
7/21/2021 6:00:00 PM 17.12 62.816 0.036 7.08 1.45 9.23
7/21/2021 6:15:00 PM 17.12 62.816 0.038 7.01 0.89 9.21
7/21/2021 6:30:00 PM 17.08 62.744 0.038 7.12 1.26 9.17
7/21/2021 6:45:00 PM 17.05 62.69 0.038 7.06 0.53 9.17
7/21/2021 7:00:00 PM 17 62.6 0.038 7.15 0.95 9.16
7/21/2021 7:15:00 PM 16.95 62.51 0.038 7.08 1.51 9.14
7/21/2021 7:30:00 PM 16.9 62.42 0.037 7 0.9 9.14
7/21/2021 7:45:00 PM 16.86 62.348 0.038 7.04 1.1 9.13
7/21/2021 8:00:00 PM 16.8 62.24 0.037 7.02 1.19 9.14
7/21/2021 8:15:00 PM 16.73 62.114 0.039 6.88 0.64 9.13
7/21/2021 8:30:00 PM 16.67 62.006 0.038 6.98 0.85 9.14
7/21/2021 8:45:00 PM 16.6 61.88 0.037 7.07 1.39 9.13
7/21/2021 9:00:00 PM 16.54 61.772 0.037 6.96 1.16 9.13
7/21/2021 9:15:00 PM 16.48 61.664 0.038 7.01 0.97 9.14
7/21/2021 9:30:00 PM 16.41 61.538 0.038 6.85 2.64 9.16
7/21/2021 9:45:00 PM 16.35 61.43 0.036 6.92 1.43 9.16
7/21/2021 10:00:00 PM 16.28 61.304 0.038 6.91 4.15 9.18
7/21/2021 10:15:00 PM 16.21 61.178 0.038 6.99 1.4 9.2
7/21/2021 10:30:00 PM 16.15 61.07 0.038 6.98 2.85 9.21
7/21/2021 10:45:00 PM 16.07 60.926 0.038 6.93 1.17 9.22
7/21/2021 11:00:00 PM 16.01 60.818 0.038 6.91 0.72 9.24
7/21/2021 11:15:00 PM 15.93 60.674 0.038 6.93 1.01 9.27
7/21/2021 11:30:00 PM 15.86 60.548 0.038 6.89 1.14 9.28
7/21/2021 11:45:00 PM 15.78 60.404 0.038 6.91 1.05 9.3
7/22/2021 12:00:00 AM 15.71 60.278 0.038 6.93 1.29 9.31
7/22/2021 12:15:00 AM 15.63 60.134 0.038 6.97 0.85 9.32
7/22/2021 12:30:00 AM 15.56 60.008 0.038 6.92 1.16 9.34
7/22/2021 12:45:00 AM 15.48 59.864 0.038 6.88 1.35 9.36
7/22/2021 1:00:00 AM 15.4 59.72 0.038 6.96 3.83 9.39
7/22/2021 1:15:00 AM 15.33 59.594 0.038 6.91 0.96 9.4
7/22/2021 1:30:00 AM 15.25 59.45 0.038 6.92 0.75 9.42
7/22/2021 1:45:00 AM 15.18 59.324 0.039 6.91 1.05 9.44
7/22/2021 2:00:00 AM 15.11 59.198 0.038 6.92 0.8 9.47
7/22/2021 2:15:00 AM 15.04 59.072 0.038 6.85 0.86 9.46
7/22/2021 2:30:00 AM 14.96 58.928 0.039 6.94 1.04 9.48
7/22/2021 2:45:00 AM 14.89 58.802 0.039 6.89 2.51 9.5
7/22/2021 3:00:00 AM 14.83 58.694 0.039 6.68 0.71 9.51
7/22/2021 3:15:00 AM 14.76 58.568 0.039 6.69 0.68 9.53
7/22/2021 3:30:00 AM 14.69 58.442 0.038 6.9 0.97 9.55
7/22/2021 3:45:00 AM 14.63 58.334 0.039 6.83 0.92 9.56
7/22/2021 4:00:00 AM 14.57 58.226 0.038 6.79 0.63 9.59
7/22/2021 4:15:00 AM 14.51 58.118 0.038 6.84 1.12 9.59
7/22/2021 4:30:00 AM 14.46 58.028 0.039 6.86 0.82 9.6
7/22/2021 4:45:00 AM 14.42 57.956 0.038 6.81 2.1 9.62
7/22/2021 5:00:00 AM 14.38 57.884 0.038 6.78 1.01 9.62
7/22/2021 5:15:00 AM 14.34 57.812 0.038 6.86 6.41 9.63
7/22/2021 5:30:00 AM 14.3 57.74 0.039 6.77 2.1 9.63
7/22/2021 5:45:00 AM 14.26 57.668 0.038 6.83 1.18 9.63
7/22/2021 6:00:00 AM 14.23 57.614 0.038 6.8 4.61 9.65
7/22/2021 6:15:00 AM 14.2 57.56 0.038 6.85 0.95 9.66
7/22/2021 6:30:00 AM 14.18 57.524 0.038 6.79 0.82 9.68
7/22/2021 6:45:00 AM 14.16 57.488 0.038 6.9 0.91 9.69
7/22/2021 7:00:00 AM 14.13 57.434 0.038 6.9 0.96 9.72
7/22/2021 7:15:00 AM 14.11 57.398 0.038 6.89 1.2 9.73
7/22/2021 7:30:00 AM 14.09 57.362 0.038 6.89 1.1 9.77
7/22/2021 7:45:00 AM 14.09 57.362 0.038 6.92 0.93 9.78
7/22/2021 8:00:00 AM 14.07 57.326 0.037 6.9 0.64 9.81
7/22/2021 8:15:00 AM 14.07 57.326 0.037 6.96 1.13 9.84
7/22/2021 8:30:00 AM 14.07 57.326 0.039 6.83 -0.07 9.88
7/22/2021 8:45:00 AM 14.07 57.326 0.038 6.9 1.04 9.9
7/22/2021 9:00:00 AM 14.07 57.326 0.039 6.97 0.6 9.9
7/22/2021 9:15:00 AM 14.07 57.326 0.038 6.98 0.81 9.94
7/22/2021 9:30:00 AM 14.08 57.344 0.037 6.97 0.63 9.94
7/22/2021 9:45:00 AM 14.08 57.344 0.037 6.99 0.9 9.95
7/22/2021 10:00:00 AM 14.09 57.362 0.038 6.98 0.73 9.96
7/22/2021 10:15:00 AM 14.12 57.416 0.038 6.98 0.52 9.98
7/22/2021 10:30:00 AM 14.15 57.47 0.037 7.03 0.68 10.01
7/22/2021 10:45:00 AM 14.2 57.56 0.038 7.05 0.62 10.02
7/22/2021 11:00:00 AM 14.25 57.65 0.037 7.06 0.75 10.03
7/22/2021 11:15:00 AM 14.32 57.776 0.037 7.09 0.73 10.04
7/22/2021 11:30:00 AM 14.39 57.902 0.038 7.07 0.56 10.03
7/22/2021 11:45:00 AM 14.46 58.028 0.037 7.03 0.55 10.02
7/22/2021 12:00:00 PM 14.54 58.172 0.037 7.07 0.5 10.02
7/22/2021 12:15:00 PM 14.6 58.28 0.038 7.12 0.75 10.04
7/22/2021 12:30:00 PM 14.7 58.46 0.037 7.15 1.64 10.03
7/22/2021 12:45:00 PM 14.83 58.694 0.036 7.24 0.76 10.01
7/22/2021 1:00:00 PM 14.9 58.82 0.037 7.2 0.94 9.98
7/22/2021 1:15:00 PM 14.99 58.982 0.037 7.14 0.7 9.96
7/22/2021 1:30:00 PM 15.14 59.252 0.036 7.23 0.69 9.95
7/22/2021 1:45:00 PM 15.21 59.378 0.037 7.2 0.35 9.91
7/22/2021 2:00:00 PM 15.4 59.72 0.036 7.15 0.67 9.89
7/22/2021 2:15:00 PM 15.57 60.026 0.036 7.23 0.63 9.85
7/22/2021 2:30:00 PM 15.69 60.242 0.036 7.22 1.08 9.82
7/22/2021 2:45:00 PM 15.94 60.692 0.036 7.15 0.94 9.77
7/22/2021 3:00:00 PM 16.07 60.926 0.036 7.23 1.02 9.74
7/22/2021 3:15:00 PM 16.19 61.142 0.036 7.23 1.3 9.69
7/22/2021 3:30:00 PM 16.16 61.088 0.036 7.14 1.12 9.65
7/22/2021 3:45:00 PM 16.2 61.16 0.036 7.13 0.82 9.62
7/22/2021 4:00:00 PM 16.31 61.358 0.036 7.12 1.23 9.59
7/22/2021 4:15:00 PM 16.37 61.466 0.037 7.07 0.73 9.56
7/22/2021 4:30:00 PM 16.4 61.52 0.036 7.18 1.43 9.53
7/22/2021 4:45:00 PM 16.46 61.628 0.036 7.13 0.88 9.55
7/22/2021 5:00:00 PM 16.44 61.592 0.037 7.09 1 9.47
7/22/2021 5:15:00 PM 16.44 61.592 0.036 7.08 1.35 9.48
7/22/2021 5:30:00 PM 16.45 61.61 0.037 7.09 0.87 9.49
7/22/2021 5:45:00 PM 16.44 61.592 0.037 7.1 0.86 9.44
7/22/2021 6:00:00 PM 16.43 61.574 0.038 7.08 0.83 9.43
7/22/2021 6:15:00 PM 16.41 61.538 0.037 7.13 0.88 9.39
7/22/2021 6:30:00 PM 16.39 61.502 0.037 7.23 1.35 9.36
7/22/2021 6:45:00 PM 16.36 61.448 0.037 7.12 0.88 9.33
7/22/2021 7:00:00 PM 16.34 61.412 0.037 7.11 0.83 9.31
7/22/2021 7:15:00 PM 16.32 61.376 0.037 7.09 1.57 9.3
7/22/2021 7:30:00 PM 16.29 61.322 0.038 7.15 1.04 9.29
7/22/2021 7:45:00 PM 16.27 61.286 0.039 7.06 0.87 9.28
7/22/2021 8:00:00 PM 16.24 61.232 0.038 7.07 0.62 9.27
7/22/2021 8:15:00 PM 16.2 61.16 0.038 7.13 1.47 9.27
7/22/2021 8:30:00 PM 16.16 61.088 0.038 7.07 0.76 9.25
7/22/2021 8:45:00 PM 16.11 60.998 0.038 7.04 1 9.25
7/22/2021 9:00:00 PM 16.07 60.926 0.037 7.09 0.77 9.25
7/22/2021 9:15:00 PM 16.02 60.836 0.038 7.03 2.21 9.25
7/22/2021 9:30:00 PM 15.97 60.746 0.038 7.02 1.37 9.26
7/22/2021 9:45:00 PM 15.91 60.638 0.038 7.04 2.79 9.27
7/22/2021 10:00:00 PM 15.86 60.548 0.038 7.08 1.58 9.29
7/22/2021 10:15:00 PM 15.8 60.44 0.038 7 2.1 9.29
7/22/2021 10:30:00 PM 15.74 60.332 0.039 6.95 1.28 9.3
7/22/2021 10:45:00 PM 15.67 60.206 0.038 6.99 1.08 9.32
7/22/2021 11:00:00 PM 15.6 60.08 0.038 7.02 1.21 9.34
7/22/2021 11:15:00 PM 15.54 59.972 0.038 6.95 1.04 9.35
7/22/2021 11:30:00 PM 15.46 59.828 0.038 6.94 0.86 9.37
7/22/2021 11:45:00 PM 15.4 59.72 0.039 6.88 1.19 9.39
7/23/2021 12:00:00 AM 15.33 59.594 0.038 6.98 1.7 9.37
7/23/2021 12:15:00 AM 15.26 59.468 0.039 7.06 1.67 9.42
7/23/2021 12:30:00 AM 15.19 59.342 0.038 7.08 1.72 9.44
7/23/2021 12:45:00 AM 15.12 59.216 0.039 7 0.56 9.45
7/23/2021 1:00:00 AM 15.04 59.072 0.038 7.04 0.88 9.48
7/23/2021 1:15:00 AM 14.98 58.964 0.04 7.03 0.58 9.49
7/23/2021 1:30:00 AM 14.91 58.838 0.04 6.94 1.09 9.5
7/23/2021 1:45:00 AM 14.86 58.748 0.04 6.96 0.93 9.51
7/23/2021 2:00:00 AM 14.8 58.64 0.038 6.92 0.82 9.52
7/23/2021 2:15:00 AM 14.75 58.55 0.04 6.95 0.75 9.53
7/23/2021 2:30:00 AM 14.7 58.46 0.039 6.94 0.7 9.54
7/23/2021 2:45:00 AM 14.64 58.352 0.038 6.88 1.05 9.57
7/23/2021 3:00:00 AM 14.6 58.28 0.04 6.95 0.64 9.58
7/23/2021 3:15:00 AM 14.55 58.19 0.039 6.89 0.79 9.58
7/23/2021 3:30:00 AM 14.5 58.1 0.038 6.98 0.66 9.6
7/23/2021 3:45:00 AM 14.46 58.028 0.038 6.96 0.94 9.6
7/23/2021 4:00:00 AM 14.42 57.956 0.036 6.96 0.09 9.61
7/23/2021 4:15:00 AM 14.38 57.884 0.04 6.88 0.19 9.62
7/23/2021 4:30:00 AM 14.35 57.83 0.039 6.98 0.72 9.63
7/23/2021 4:45:00 AM 14.32 57.776 0.039 7 0.55 9.63
7/23/2021 5:00:00 AM 14.28 57.704 0.04 7.01 0.31 9.64
7/23/2021 5:15:00 AM 14.25 57.65 0.039 7 0.94 9.64
7/23/2021 5:30:00 AM 14.22 57.596 0.038 6.98 0.86 9.64
7/23/2021 5:45:00 AM 14.19 57.542 0.038 6.98 0.91 9.66
7/23/2021 6:00:00 AM 14.16 57.488 0.04 7.01 0.79 9.66
7/23/2021 6:15:00 AM 14.14 57.452 0.038 6.92 0.45 9.67
7/23/2021 6:30:00 AM 14.11 57.398 0.038 6.86 0.92 9.69
7/23/2021 6:45:00 AM 14.08 57.344 0.038 6.86 1.06 9.7
7/23/2021 7:00:00 AM 14.06 57.308 0.038 6.95 0.68 9.72
7/23/2021 7:15:00 AM 14.04 57.272 0.038 6.9 2.58 9.75
7/23/2021 7:30:00 AM 14.04 57.272 0.038 6.9 1.48 9.76
7/23/2021 7:45:00 AM 14.02 57.236 0.038 6.84 1.37 9.78
7/23/2021 8:00:00 AM 13.99 57.182 0.039 6.9 0.96 9.78
7/23/2021 8:15:00 AM 13.97 57.146 0.038 6.93 0.68 9.81
7/23/2021 8:30:00 AM 13.95 57.11 0.039 6.92 0.58 9.83
7/23/2021 8:45:00 AM 13.95 57.11 0.038 6.98 0.8 9.84
7/23/2021 9:00:00 AM 13.95 57.11 0.038 6.96 1.04 9.87
7/23/2021 9:15:00 AM 13.98 57.164 0.039 6.88 1.25 9.87
7/23/2021 9:30:00 AM 14 57.2 0.038 6.95 0.72 9.88
7/23/2021 9:45:00 AM 14.04 57.272 0.038 7.03 0.99 9.89
7/23/2021 10:00:00 AM 14.08 57.344 0.038 6.97 3.32 9.88
7/23/2021 10:15:00 AM 14.13 57.434 0.037 7 0.54 9.89
7/23/2021 10:30:00 AM 14.2 57.56 0.037 6.93 0.87 9.89
7/23/2021 10:45:00 AM 14.27 57.686 0.038 6.99 0.68 9.89
7/23/2021 11:00:00 AM 14.36 57.848 0.037 6.98 1.67 9.89